Provisional Data: Choconut Creek near Vestal Center, NY


Please select a monitoring station.
Please select start date.
Please select start date.

Toggle Unit: C/F Toggle Unit: C/F
Sample Time Temperature (C) Temperature (F) Specific Conductivity (mS/cm) pH   Turbidity (NTU+) DO (mg/L)
12/11/2021 12:00:00 AM 3.1 37.58 0.081 7.01 3.17 12.88
12/11/2021 12:15:00 AM 3.11 37.598 0.082 7.01 3.17 12.87
12/11/2021 12:30:00 AM 3.12 37.616 0.081 7 3.14 12.86
12/11/2021 12:45:00 AM 3.12 37.616 0.081 7 3.26 12.85
12/11/2021 1:00:00 AM 3.13 37.634 0.082 7 3.13 12.85
12/11/2021 1:15:00 AM 3.13 37.634 0.081 7 3.08 12.84
12/11/2021 1:30:00 AM 3.14 37.652 0.082 7 3.1 12.84
12/11/2021 1:45:00 AM 3.14 37.652 0.082 6.98 3.18 12.83
12/11/2021 2:00:00 AM 3.15 37.67 0.082 7 3.09 12.82
12/11/2021 2:15:00 AM 3.16 37.688 0.082 6.99 3.1 12.82
12/11/2021 2:30:00 AM 3.16 37.688 0.082 6.99 3.18 12.81
12/11/2021 2:45:00 AM 3.17 37.706 0.082 6.99 3.18 12.8
12/11/2021 3:00:00 AM 3.19 37.742 0.082 6.98 3.2 12.79
12/11/2021 3:15:00 AM 3.21 37.778 0.082 6.99 3.28 12.78
12/11/2021 3:30:00 AM 3.22 37.796 0.082 6.99 3.22 12.77
12/11/2021 3:45:00 AM 3.24 37.832 0.082 6.99 3.37 12.76
12/11/2021 4:00:00 AM 3.26 37.868 0.082 6.96 3.28 12.76
12/11/2021 4:15:00 AM 3.28 37.904 0.082 6.98 3.38 12.75
12/11/2021 4:30:00 AM 3.3 37.94 0.082 6.98 3.44 12.74
12/11/2021 4:45:00 AM 3.32 37.976 0.082 6.98 3.53 12.73
12/11/2021 5:00:00 AM 3.34 38.012 0.082 6.97 3.57 12.73
12/11/2021 5:15:00 AM 3.36 38.048 0.082 6.97 3.58 12.72
12/11/2021 5:30:00 AM 3.39 38.102 0.082 6.96 4.1 12.71
12/11/2021 5:45:00 AM 3.41 38.138 0.082 6.96 4.37 12.7
12/11/2021 6:00:00 AM 3.44 38.192 0.083 6.98 4.51 12.69
12/11/2021 6:15:00 AM 3.46 38.228 0.085 6.99 4.58 12.69
12/11/2021 6:30:00 AM 3.48 38.264 0.086 6.98 4.33 12.68
12/11/2021 6:45:00 AM 3.51 38.318 0.086 6.99 4.33 12.66
12/11/2021 7:00:00 AM 3.55 38.39 0.085 6.99 5.97 12.65
12/11/2021 7:15:00 AM 3.59 38.462 0.085 6.99 32.43 12.64
12/11/2021 7:30:00 AM 3.62 38.516 0.084 6.99 35.53 12.63
12/11/2021 7:45:00 AM 3.66 38.588 0.089 7 40.4 12.62
12/11/2021 8:00:00 AM 3.69 38.642 0.098 7.01 26.87 12.63
12/11/2021 8:15:00 AM 3.74 38.732 0.108 7.04 26.88 12.63
12/11/2021 8:30:00 AM 3.79 38.822 0.113 7.06 23.51 12.64
12/11/2021 8:45:00 AM 3.82 38.876 0.115 7.06 27.48 12.66
12/11/2021 9:00:00 AM 3.86 38.948 0.12 7.08 20.66 12.67
12/11/2021 9:15:00 AM 3.9 39.02 0.121 7.08 21.81 12.71
12/11/2021 9:30:00 AM 3.91 39.038 0.124 7.13 27.72 12.74
12/11/2021 9:45:00 AM 3.95 39.11 0.149 7.15 35.49 12.72
12/11/2021 10:00:00 AM 4.01 39.218 0.156 7.14 42.64 12.71
12/11/2021 10:15:00 AM 4.07 39.326 0.147 7.13 45.87 12.68
12/11/2021 10:30:00 AM 4.14 39.452 0.128 7.12 46.69 12.65
12/11/2021 10:45:00 AM 4.21 39.578 0.12 7.11 45.05 12.65
12/11/2021 11:00:00 AM 4.26 39.668 0.112 7.12 48.9 12.63
12/11/2021 11:15:00 AM 4.28 39.704 0.105 7.11 61.52 12.61
12/11/2021 11:30:00 AM 4.32 39.776 0.102 7.11 77.55 12.58
12/11/2021 11:45:00 AM 4.37 39.866 0.1 7.11 70.51 12.55
12/11/2021 12:00:00 PM 4.44 39.992 0.099 7.12 68.85 12.54
12/11/2021 12:15:00 PM 4.53 40.154 0.096 7.12 48.73 12.54
12/11/2021 12:30:00 PM 4.6 40.28 0.093 7.12 44.29 12.55
12/11/2021 12:45:00 PM 4.64 40.352 0.089 7.11 37.1 12.57
12/11/2021 1:00:00 PM 4.68 40.424 0.087 7.1 34.98 12.56
12/11/2021 1:15:00 PM 4.7 40.46 0.087 7.07 38.77 12.52
12/11/2021 1:30:00 PM 4.74 40.532 0.088 7.07 38.76 12.48
12/11/2021 1:45:00 PM 4.77 40.586 0.09 7.06 41.09 12.44
12/11/2021 2:00:00 PM 4.81 40.658 0.091 7.06 45.08 12.4
12/11/2021 2:15:00 PM 4.86 40.748 0.09 7.05 42.91 12.37
12/11/2021 2:30:00 PM 4.92 40.856 0.09 7.04 40.76 12.34
12/11/2021 2:45:00 PM 4.97 40.946 0.088 7.03 36.5 12.33
12/11/2021 3:00:00 PM 5.02 41.036 0.087 7.05 34.09 12.31
12/11/2021 3:15:00 PM 5.07 41.126 0.086 7.04 31.71 12.29
12/11/2021 3:30:00 PM 5.14 41.252 0.086 7.03 30.65 12.27
12/11/2021 3:45:00 PM 5.2 41.36 0.085 7.03 26.92 12.26
12/11/2021 4:00:00 PM 5.25 41.45 0.084 7.03 25.64 12.24
12/11/2021 4:15:00 PM 5.3 41.54 0.084 7.03 24.81 12.22
12/11/2021 4:30:00 PM 5.34 41.612 0.084 7.02 23.6 12.19
12/11/2021 4:45:00 PM 5.38 41.684 0.083 7.02 22.46 12.16
12/11/2021 5:00:00 PM 5.42 41.756 0.083 7.02 21.42 12.14
12/11/2021 5:15:00 PM 5.46 41.828 0.083 6.97 20.68 12.11
12/11/2021 5:30:00 PM 5.49 41.882 0.083 7.01 18.77 12.08
12/11/2021 5:45:00 PM 5.53 41.954 0.083 7.01 19.21 12.06
12/11/2021 6:00:00 PM 5.57 42.026 0.083 7.01 19.07 12.03
12/11/2021 6:15:00 PM 5.62 42.116 0.083 7.01 19.68 12
12/11/2021 6:30:00 PM 5.67 42.206 0.083 7.01 18.82 11.98
12/11/2021 6:45:00 PM 5.72 42.296 0.083 7.01 17.6 11.96
12/11/2021 7:00:00 PM 5.78 42.404 0.083 7 17.15 11.94
12/11/2021 7:15:00 PM 5.84 42.512 0.083 6.99 16.61 11.92
12/11/2021 7:30:00 PM 5.89 42.602 0.083 7 17.33 11.91
12/11/2021 7:45:00 PM 5.93 42.674 0.083 7 17.67 11.89
12/11/2021 8:00:00 PM 5.94 42.692 0.083 7 16.33 11.87
12/11/2021 8:15:00 PM 5.96 42.728 0.084 7 15.04 11.86
12/11/2021 8:30:00 PM 5.96 42.728 0.084 7 14.57 11.84
12/11/2021 8:45:00 PM 5.96 42.728 0.085 7 13.56 11.84
12/11/2021 9:00:00 PM 5.96 42.728 0.085 7 13.3 11.84
12/11/2021 9:15:00 PM 5.95 42.71 0.085 7 13.35 11.83
12/11/2021 9:30:00 PM 5.93 42.674 0.085 7 12.49 11.84
12/11/2021 9:45:00 PM 5.91 42.638 0.085 7 12.16 11.84
12/11/2021 10:00:00 PM 5.88 42.584 0.086 7 12.2 11.85
12/11/2021 10:15:00 PM 5.86 42.548 0.086 6.99 11.95 11.86
12/11/2021 10:30:00 PM 5.82 42.476 0.086 6.98 11.17 11.87
12/11/2021 10:45:00 PM 5.79 42.422 0.086 6.98 11.3 11.88
12/11/2021 11:00:00 PM 5.75 42.35 0.086 6.98 10.83 11.89
12/11/2021 11:15:00 PM 5.71 42.278 0.086 6.98 10.21 11.9
12/11/2021 11:30:00 PM 5.67 42.206 0.086 6.97 10.29 11.91
12/11/2021 11:45:00 PM 5.63 42.134 0.086 6.95 10.35 11.92
12/12/2021 12:00:00 AM 5.58 42.044 0.086 6.96 10.23 11.95
12/12/2021 12:15:00 AM 5.52 41.936 0.085 6.96 9.93 11.97
12/12/2021 12:30:00 AM 5.47 41.846 0.086 6.93 9.82 11.98
12/12/2021 12:45:00 AM 5.42 41.756 0.085 6.95 9.46 12
12/12/2021 1:00:00 AM 5.37 41.666 0.085 6.95 9.44 12.03
12/12/2021 1:15:00 AM 5.31 41.558 0.085 6.95 9.17 12.04
12/12/2021 1:30:00 AM 5.26 41.468 0.084 6.95 9.17 12.06
12/12/2021 1:45:00 AM 5.21 41.378 0.084 6.95 9.22 12.08
12/12/2021 2:00:00 AM 5.15 41.27 0.084 6.94 8.73 12.1
12/12/2021 2:15:00 AM 5.1 41.18 0.083 6.94 8.76 12.12
12/12/2021 2:30:00 AM 5.04 41.072 0.083 6.92 8.38 12.14
12/12/2021 2:45:00 AM 4.99 40.982 0.083 6.93 8.58 12.16
12/12/2021 3:00:00 AM 4.94 40.892 0.082 6.94 8.17 12.18
12/12/2021 3:15:00 AM 4.9 40.82 0.082 6.94 8.6 12.2
12/12/2021 3:30:00 AM 4.85 40.73 0.082 6.92 8.68 12.22
12/12/2021 3:45:00 AM 4.8 40.64 0.082 6.86 8.27 12.24
12/12/2021 4:00:00 AM 4.74 40.532 0.082 6.91 8.01 12.26
12/12/2021 4:15:00 AM 4.69 40.442 0.081 6.92 7.91 12.28
12/12/2021 4:30:00 AM 4.64 40.352 0.081 6.91 7.61 12.3
12/12/2021 4:45:00 AM 4.6 40.28 0.081 6.93 7.73 12.32
12/12/2021 5:00:00 AM 4.55 40.19 0.081 6.92 7.75 12.33
12/12/2021 5:15:00 AM 4.49 40.082 0.081 6.91 7.58 12.35
12/12/2021 5:30:00 AM 4.44 39.992 0.081 6.93 7.75 12.36
12/12/2021 5:45:00 AM 4.37 39.866 0.081 6.91 7.46 12.39
12/12/2021 6:00:00 AM 4.31 39.758 0.081 6.93 7.55 12.41
12/12/2021 6:15:00 AM 4.25 39.65 0.081 6.91 7.56 12.43
12/12/2021 6:30:00 AM 4.2 39.56 0.081 6.92 7.43 12.45
12/12/2021 6:45:00 AM 4.15 39.47 0.081 6.93 7.34 12.48
12/12/2021 7:00:00 AM 4.1 39.38 0.081 6.93 7.07 12.49
12/12/2021 7:15:00 AM 4.04 39.272 0.081 6.93 6.92 12.52
12/12/2021 7:30:00 AM 3.99 39.182 0.081 6.92 7.04 12.54
12/12/2021 7:45:00 AM 3.94 39.092 0.081 6.86 6.79 12.57
12/12/2021 8:00:00 AM 3.89 39.002 0.081 6.92 6.43 12.61
12/12/2021 8:15:00 AM 3.85 38.93 0.081 6.93 6.22 12.66
12/12/2021 8:30:00 AM 3.81 38.858 0.081 6.92 6.19 12.7
12/12/2021 8:45:00 AM 3.77 38.786 0.08 6.94 5.96 12.75
12/12/2021 9:00:00 AM 3.75 38.75 0.08 6.92 6.04 12.8
12/12/2021 9:15:00 AM 3.73 38.714 0.08 6.94 5.97 12.86
12/12/2021 9:30:00 AM 3.73 38.714 0.08 6.96 5.87 12.91
12/12/2021 9:45:00 AM 3.73 38.714 0.08 6.94 5.6 12.97
12/12/2021 10:00:00 AM 3.73 38.714 0.08 6.97 5.51 13.03
12/12/2021 10:15:00 AM 3.76 38.768 0.08 6.98 5.56 13.09
12/12/2021 10:30:00 AM 3.8 38.84 0.08 7.01 5.35 13.14
12/12/2021 10:45:00 AM 3.85 38.93 0.08 6.98 5.38 13.2
12/12/2021 11:00:00 AM 3.9 39.02 0.079 7.02 5.3 13.26
12/12/2021 11:15:00 AM 3.96 39.128 0.079 7.03 5.46 13.31
12/12/2021 11:30:00 AM 4.01 39.218 0.079 7.06 5.42 13.35
12/12/2021 11:45:00 AM 4.06 39.308 0.079 7.07 5.24 13.39
12/12/2021 12:00:00 PM 4.11 39.398 0.079 7.07 5 13.39
12/12/2021 12:15:00 PM 4.18 39.524 0.079 7.08 5.26 13.42
12/12/2021 12:30:00 PM 4.24 39.632 0.079 7.09 5.15 13.43
12/12/2021 12:45:00 PM 4.3 39.74 0.079 7.08 5.02 13.46
12/12/2021 1:00:00 PM 4.35 39.83 0.079 7.1 5 13.46
12/12/2021 1:15:00 PM 4.39 39.902 0.079 7.11 5.03 13.48
12/12/2021 1:30:00 PM 4.41 39.938 0.079 7.12 4.92 13.48
12/12/2021 1:45:00 PM 4.44 39.992 0.079 7.12 5.01 13.48
12/12/2021 2:00:00 PM 4.45 40.01 0.079 7.12 4.88 13.48
12/12/2021 2:15:00 PM 4.45 40.01 0.079 7.06 4.64 13.48
12/12/2021 2:30:00 PM 4.44 39.992 0.078 7.12 4.8 13.47
12/12/2021 2:45:00 PM 4.42 39.956 0.078 7.1 4.75 13.44
12/12/2021 3:00:00 PM 4.41 39.938 0.078 7.06 4.53 13.42
12/12/2021 3:15:00 PM 4.39 39.902 0.078 7.12 4.72 13.39
12/12/2021 3:30:00 PM 4.38 39.884 0.078 7.09 4.72 13.35
12/12/2021 3:45:00 PM 4.37 39.866 0.078 7.08 4.73 13.32
12/12/2021 4:00:00 PM 4.36 39.848 0.078 7.07 4.87 13.26
12/12/2021 4:15:00 PM 4.34 39.812 0.078 7.07 4.67 13.2
12/12/2021 4:30:00 PM 4.33 39.794 0.078 7.04 4.44 13.15
12/12/2021 4:45:00 PM 4.32 39.776 0.078 7.04 4.56 13.08
12/12/2021 5:00:00 PM 4.3 39.74 0.078 6.98 4.5 13.03
12/12/2021 5:15:00 PM 4.29 39.722 0.078 6.99 4.7 12.98
12/12/2021 5:30:00 PM 4.27 39.686 0.078 6.92 4.47 12.94
12/12/2021 5:45:00 PM 4.25 39.65 0.078 6.96 4.4 12.91
12/12/2021 6:00:00 PM 4.23 39.614 0.078 6.96 4.53 12.88
12/12/2021 6:15:00 PM 4.19 39.542 0.078 6.96 4.39 12.86
12/12/2021 6:30:00 PM 4.15 39.47 0.078 6.95 4.43 12.84
12/12/2021 6:45:00 PM 4.11 39.398 0.078 6.96 4.46 12.83
12/12/2021 7:00:00 PM 4.05 39.29 0.078 6.96 4.4 12.8
12/12/2021 7:15:00 PM 4 39.2 0.078 6.9 4.43 12.8
12/12/2021 7:30:00 PM 3.94 39.092 0.078 6.95 4.43 12.78
12/12/2021 7:45:00 PM 3.88 38.984 0.079 6.94 4.4 12.77
12/12/2021 8:00:00 PM 3.83 38.894 0.079 6.94 4.5 12.77
12/12/2021 8:15:00 PM 3.77 38.786 0.079 6.94 4.45 12.77
12/12/2021 8:30:00 PM 3.72 38.696 0.079 6.91 4.48 12.77
12/12/2021 8:45:00 PM 3.67 38.606 0.079 6.93 4.43 12.78
12/12/2021 9:00:00 PM 3.63 38.534 0.079 6.84 4.27 12.78
12/12/2021 9:15:00 PM 3.58 38.444 0.079 6.91 4.39 12.79
12/12/2021 9:30:00 PM 3.53 38.354 0.079 6.91 4.29 12.8
12/12/2021 9:45:00 PM 3.48 38.264 0.079 6.93 4.28 12.81
12/12/2021 10:00:00 PM 3.42 38.156 0.079 6.85 4.33 12.81
12/12/2021 10:15:00 PM 3.37 38.066 0.079 6.91 4.35 12.83
12/12/2021 10:30:00 PM 3.32 37.976 0.079 6.91 4.13 12.84
12/12/2021 10:45:00 PM 3.27 37.886 0.079 6.9 4.26 12.85
12/12/2021 11:00:00 PM 3.21 37.778 0.079 6.92 4.26 12.86
12/12/2021 11:15:00 PM 3.16 37.688 0.079 6.9 4.08 12.88
12/12/2021 11:30:00 PM 3.11 37.598 0.079 6.9 4.28 12.89
12/12/2021 11:45:00 PM 3.05 37.49 0.079 6.9 4.21 12.91
12/13/2021 12:00:00 AM 3 37.4 0.079 6.91 4.24 12.93
12/13/2021 12:15:00 AM 2.94 37.292 0.079 6.85 4.3 12.96
12/13/2021 12:30:00 AM 2.89 37.202 0.079 6.89 4.31 12.97
12/13/2021 12:45:00 AM 2.84 37.112 0.079 6.9 4.37 13
12/13/2021 1:00:00 AM 2.79 37.022 0.079 6.83 4.58 13.01
12/13/2021 1:15:00 AM 2.74 36.932 0.079 6.89 4.45 13.03
12/13/2021 1:30:00 AM 2.71 36.878 0.079 6.9 4.51 13.05
12/13/2021 1:45:00 AM 2.68 36.824 0.079 6.9 4.44 13.06
12/13/2021 2:00:00 AM 2.65 36.77 0.079 6.89 4.56 13.08
12/13/2021 2:15:00 AM 2.63 36.734 0.079 6.84 4.52 13.09
12/13/2021 2:30:00 AM 2.61 36.698 0.079 6.9 4.37 13.11
12/13/2021 2:45:00 AM 2.58 36.644 0.08 6.84 4.4 13.11
12/13/2021 3:00:00 AM 2.55 36.59 0.079 6.89 4.32 13.13
12/13/2021 3:15:00 AM 2.53 36.554 0.079 6.89 4.29 13.14
12/13/2021 3:30:00 AM 2.5 36.5 0.08 6.82 4.13 13.15
12/13/2021 3:45:00 AM 2.48 36.464 0.08 6.89 4.21 13.16
12/13/2021 4:00:00 AM 2.47 36.446 0.08 6.89 4.21 13.17
12/13/2021 4:15:00 AM 2.45 36.41 0.079 6.89 4.14 13.18
12/13/2021 4:30:00 AM 2.45 36.41 0.079 6.9 4.24 13.18
12/13/2021 4:45:00 AM 2.44 36.392 0.079 6.89 4.24 13.18
12/13/2021 5:00:00 AM 2.44 36.392 0.079 6.89 4.02 13.19
12/13/2021 5:15:00 AM 2.43 36.374 0.079 6.89 4.05 13.2
12/13/2021 5:30:00 AM 2.43 36.374 0.079 6.88 4.15 13.2
12/13/2021 5:45:00 AM 2.43 36.374 0.079 6.88 3.93 13.21
12/13/2021 6:00:00 AM 2.43 36.374 0.079 6.8 4.01 13.21
12/13/2021 6:15:00 AM 2.43 36.374 0.08 6.88 4.02 13.21
12/13/2021 6:30:00 AM 2.43 36.374 0.079 6.88 3.98 13.21
12/13/2021 6:45:00 AM 2.44 36.392 0.079 6.88 3.89 13.21
12/13/2021 7:00:00 AM 2.45 36.41 0.079 6.89 3.89 13.21
12/13/2021 7:15:00 AM 2.46 36.428 0.079 6.8 3.88 13.21
12/13/2021 7:30:00 AM 2.47 36.446 0.079 6.88 3.92 13.21
12/13/2021 7:45:00 AM 2.48 36.464 0.079 6.88 3.89 13.22
12/13/2021 8:00:00 AM 2.49 36.482 0.079 6.89 3.79 13.23
12/13/2021 8:15:00 AM 2.51 36.518 0.079 6.89 3.89 13.25
12/13/2021 8:30:00 AM 2.53 36.554 0.079 6.9 3.84 13.3
12/13/2021 8:45:00 AM 2.55 36.59 0.079 6.83 3.72 13.34
12/13/2021 9:00:00 AM 2.58 36.644 0.079 6.92 3.9 13.42
12/13/2021 9:15:00 AM 2.61 36.698 0.079 6.87 3.86 13.48
12/13/2021 9:30:00 AM 2.67 36.806 0.079 6.95 3.74 13.55
12/13/2021 9:45:00 AM 2.7 36.86 0.079 6.96 3.72 13.59
12/13/2021 10:00:00 AM 2.75 36.95 0.079 6.96 3.84 13.63
12/13/2021 10:15:00 AM 2.81 37.058 0.079 6.97 3.84 13.66
12/13/2021 10:30:00 AM 2.89 37.202 0.079 6.98 3.82 13.68
12/13/2021 10:45:00 AM 2.97 37.346 0.079 6.99 3.84 13.7
12/13/2021 11:00:00 AM 3.06 37.508 0.079 7.01 3.69 13.74
12/13/2021 11:15:00 AM 3.15 37.67 0.079 7.01 3.7 13.77
12/13/2021 11:30:00 AM 3.26 37.868 0.079 7.04 3.71 13.8
12/13/2021 11:45:00 AM 3.37 38.066 0.078 7.05 3.64 13.83
12/13/2021 12:00:00 PM 3.48 38.264 0.078 7.06 3.81 13.85
12/13/2021 12:15:00 PM 3.59 38.462 0.078 7.06 3.73 13.85
12/13/2021 12:30:00 PM 3.69 38.642 0.078 7.07 3.61 13.85
12/13/2021 12:45:00 PM 3.78 38.804 0.078 7.08 3.78 13.85
12/13/2021 1:00:00 PM 3.86 38.948 0.078 7.05 3.61 13.84
12/13/2021 1:15:00 PM 3.93 39.074 0.078 7.08 3.66 13.84
12/13/2021 1:30:00 PM 3.99 39.182 0.079 7.09 3.62 13.83
12/13/2021 1:45:00 PM 4.04 39.272 0.078 7.09 3.62 13.81
12/13/2021 2:00:00 PM 4.07 39.326 0.078 7.11 3.58 13.79
12/13/2021 2:15:00 PM 4.11 39.398 0.078 7.07 3.6 13.77
12/13/2021 2:30:00 PM 4.13 39.434 0.078 7.11 3.79 13.76
12/13/2021 2:45:00 PM 4.14 39.452 0.078 7.12 3.6 13.72
12/13/2021 3:00:00 PM 4.14 39.452 0.078 7.01 3.74 13.68
12/13/2021 3:15:00 PM 4.14 39.452 0.078 7.09 3.57 13.65
12/13/2021 3:30:00 PM 4.14 39.452 0.078 7.07 3.57 13.6
12/13/2021 3:45:00 PM 4.14 39.452 0.078 7.07 3.61 13.54
12/13/2021 4:00:00 PM 4.13 39.434 0.078 7.09 3.59 13.47
12/13/2021 4:15:00 PM 4.12 39.416 0.078 7.01 3.53 13.42
12/13/2021 4:30:00 PM 4.12 39.416 0.078 7.04 3.52 13.34
12/13/2021 4:45:00 PM 4.13 39.434 0.078 7.01 3.41 13.26
12/13/2021 5:00:00 PM 4.13 39.434 0.078 7.02 3.67 13.2
12/13/2021 5:15:00 PM 4.13 39.434 0.078 7.02 3.63 13.13
12/13/2021 5:30:00 PM 4.14 39.452 0.078 6.96 3.63 13.06
12/13/2021 5:45:00 PM 4.14 39.452 0.078 6.94 3.74 13.02
12/13/2021 6:00:00 PM 4.13 39.434 0.078 6.95 3.64 12.99
12/13/2021 6:15:00 PM 4.13 39.434 0.078 6.98 3.57 12.95
12/13/2021 6:30:00 PM 4.11 39.398 0.078 6.94 3.54 12.93
12/13/2021 6:45:00 PM 4.09 39.362 0.078 6.96 3.67 12.9
12/13/2021 7:00:00 PM 4.05 39.29 0.078 6.96 3.5 12.87
12/13/2021 7:15:00 PM 4.01 39.218 0.078 6.89 3.6 12.85
12/13/2021 7:30:00 PM 3.96 39.128 0.078 6.91 3.68 12.82
12/13/2021 7:45:00 PM 3.91 39.038 0.078 6.86 3.65 12.81
12/13/2021 8:00:00 PM 3.85 38.93 0.078 6.86 3.63 12.81
12/13/2021 8:15:00 PM 3.79 38.822 0.078 6.93 3.79 12.8
12/13/2021 8:30:00 PM 3.73 38.714 0.078 6.82 3.77 12.8
12/13/2021 8:45:00 PM 3.68 38.624 0.078 6.9 3.82 12.8
12/13/2021 9:00:00 PM 3.63 38.534 0.078 6.91 3.84 12.81
12/13/2021 9:15:00 PM 3.58 38.444 0.078 6.89 3.74 12.82
12/13/2021 9:30:00 PM 3.54 38.372 0.078 6.87 3.75 12.82
12/13/2021 9:45:00 PM 3.49 38.282 0.078 6.85 3.97 12.82
12/13/2021 10:00:00 PM 3.45 38.21 0.078 6.91 3.73 12.83
12/13/2021 10:15:00 PM 3.4 38.12 0.078 6.85 3.76 12.84
12/13/2021 10:30:00 PM 3.35 38.03 0.078 6.89 3.75 12.85
12/13/2021 10:45:00 PM 3.31 37.958 0.078 6.79 3.81 12.85
12/13/2021 11:00:00 PM 3.26 37.868 0.078 6.9 3.69 12.86
12/13/2021 11:15:00 PM 3.22 37.796 0.078 6.81 3.72 12.88
12/13/2021 11:30:00 PM 3.17 37.706 0.078 6.85 3.61 12.89
12/13/2021 11:45:00 PM 3.12 37.616 0.079 6.85 3.64 12.9
12/14/2021 12:00:00 AM 3.07 37.526 0.078 6.84 3.62 12.92
12/14/2021 12:15:00 AM 3.02 37.436 0.079 6.85 3.66 12.94
12/14/2021 12:30:00 AM 2.97 37.346 0.079 6.89 3.66 12.96
12/14/2021 12:45:00 AM 2.92 37.256 0.079 6.85 3.68 12.99
12/14/2021 1:00:00 AM 2.87 37.166 0.079 6.87 3.68 13
12/14/2021 1:15:00 AM 2.81 37.058 0.079 6.89 3.73 13.03
12/14/2021 1:30:00 AM 2.76 36.968 0.079 6.84 3.88 13.05
12/14/2021 1:45:00 AM 2.71 36.878 0.079 6.83 3.73 13.06
12/14/2021 2:00:00 AM 2.67 36.806 0.079 6.83 3.92 13.08
12/14/2021 2:15:00 AM 2.62 36.716 0.079 6.8 3.93 13.1
12/14/2021 2:30:00 AM 2.57 36.626 0.079 6.89 3.94 13.12
12/14/2021 2:45:00 AM 2.53 36.554 0.079 6.79 3.74 13.13
12/14/2021 3:00:00 AM 2.49 36.482 0.079 6.83 3.88 13.15
12/14/2021 3:15:00 AM 2.45 36.41 0.079 6.89 3.83 13.17
12/14/2021 3:30:00 AM 2.41 36.338 0.079 6.89 3.79 13.19
12/14/2021 3:45:00 AM 2.37 36.266 0.079 6.89 3.69 13.2
12/14/2021 4:00:00 AM 2.33 36.194 0.079 6.89 3.68 13.22
12/14/2021 4:15:00 AM 2.29 36.122 0.079 6.89 3.73 13.24
12/14/2021 4:30:00 AM 2.25 36.05 0.079 6.89 3.73 13.27
12/14/2021 4:45:00 AM 2.21 35.978 0.079 6.89 3.72 13.28
12/14/2021 5:00:00 AM 2.17 35.906 0.079 6.89 3.88 13.29
12/14/2021 5:15:00 AM 2.13 35.834 0.079 6.88 3.7 13.32
12/14/2021 5:30:00 AM 2.09 35.762 0.079 6.88 3.7 13.33
12/14/2021 5:45:00 AM 2.06 35.708 0.079 6.88 3.67 13.35
12/14/2021 6:00:00 AM 2.02 35.636 0.079 6.88 3.62 13.35
12/14/2021 6:15:00 AM 1.99 35.582 0.079 6.88 3.62 13.37
12/14/2021 6:30:00 AM 1.96 35.528 0.079 6.88 3.64 13.38
12/14/2021 6:45:00 AM 1.95 35.51 0.079 6.88 3.63 13.4
12/14/2021 7:00:00 AM 1.95 35.51 0.079 6.88 3.57 13.41
12/14/2021 7:15:00 AM 1.94 35.492 0.079 6.88 3.58 13.42
12/14/2021 7:30:00 AM 1.95 35.51 0.079 6.88 3.57 13.43
12/14/2021 7:45:00 AM 1.95 35.51 0.079 6.89 3.59 13.46
12/14/2021 8:00:00 AM 1.95 35.51 0.079 6.89 3.57 13.5
12/14/2021 8:15:00 AM 1.96 35.528 0.079 6.9 3.49 13.57
12/14/2021 8:30:00 AM 1.96 35.528 0.079 6.9 3.55 13.63
12/14/2021 8:45:00 AM 1.96 35.528 0.079 6.91 3.56 13.71
12/14/2021 9:00:00 AM 1.98 35.564 0.079 6.93 3.44 13.79
12/14/2021 9:15:00 AM 2.01 35.618 0.079 6.93 3.52 13.85
12/14/2021 9:30:00 AM 2.04 35.672 0.079 6.91 3.47 13.92
12/14/2021 9:45:00 AM 2.09 35.762 0.079 6.89 3.52 13.97
12/14/2021 10:00:00 AM 2.14 35.852 0.079 6.91 3.43 14.02
12/14/2021 10:15:00 AM 2.21 35.978 0.079 6.88 3.52 14.06
12/14/2021 10:30:00 AM 2.3 36.14 0.078 6.94 3.37 14.11
12/14/2021 10:45:00 AM 2.35 36.23 0.078 6.91 3.47 14.13
12/14/2021 11:00:00 AM 2.4 36.32 0.078 6.96 3.43 14.16
12/14/2021 11:15:00 AM 2.46 36.428 0.078 6.97 3.43 14.19
12/14/2021 11:30:00 AM 2.56 36.608 0.078 6.97 3.43 14.21
12/14/2021 11:45:00 AM 2.65 36.77 0.078 7.01 3.39 14.24
12/14/2021 12:00:00 PM 2.75 36.95 0.078 7.01 3.42 14.25
12/14/2021 12:15:00 PM 2.87 37.166 0.078 7.01 3.4 14.25
12/14/2021 12:30:00 PM 2.98 37.364 0.078 7.04 3.52 14.26
12/14/2021 12:45:00 PM 3.1 37.58 0.078 7.09 3.46 14.26
12/14/2021 1:00:00 PM 3.2 37.76 0.077 7.08 3.53 14.26
12/14/2021 1:15:00 PM 3.29 37.922 0.078 7.01 3.47 14.25
12/14/2021 1:30:00 PM 3.37 38.066 0.077 7.11 3.52 14.24
12/14/2021 1:45:00 PM 3.42 38.156 0.077 7.12 3.42 14.23
12/14/2021 2:00:00 PM 3.47 38.246 0.078 7.1 3.52 14.2
12/14/2021 2:15:00 PM 3.51 38.318 0.077 7.12 3.44 14.18
12/14/2021 2:30:00 PM 3.54 38.372 0.077 7.12 3.37 14.15
12/14/2021 2:45:00 PM 3.56 38.408 0.077 7.11 3.46 14.12
12/14/2021 3:00:00 PM 3.57 38.426 0.077 7.12 3.37 14.08
12/14/2021 3:15:00 PM 3.57 38.426 0.077 7.11 3.4 14.05
12/14/2021 3:30:00 PM 3.57 38.426 0.077 7.11 3.32 14
12/14/2021 3:45:00 PM 3.57 38.426 0.077 7.09 3.4 13.94
12/14/2021 4:00:00 PM 3.56 38.408 0.077 7.08 3.55 13.88
12/14/2021 4:15:00 PM 3.55 38.39 0.077 7.06 3.33 13.8
12/14/2021 4:30:00 PM 3.55 38.39 0.077 7.01 3.53 13.73
12/14/2021 4:45:00 PM 3.55 38.39 0.077 7.05 3.33 13.65
12/14/2021 5:00:00 PM 3.55 38.39 0.077 6.98 3.38 13.58
12/14/2021 5:15:00 PM 3.56 38.408 0.077 6.96 3.41 13.51
12/14/2021 5:30:00 PM 3.57 38.426 0.077 7.01 3.37 13.45
12/14/2021 5:45:00 PM 3.58 38.444 0.077 6.99 3.37 13.39
12/14/2021 6:00:00 PM 3.59 38.462 0.077 6.94 3.42 13.34
12/14/2021 6:15:00 PM 3.6 38.48 0.077 6.93 3.36 13.3
12/14/2021 6:30:00 PM 3.6 38.48 0.077 6.97 3.43 13.27
12/14/2021 6:45:00 PM 3.59 38.462 0.077 6.91 3.28 13.23
12/14/2021 7:00:00 PM 3.58 38.444 0.077 6.9 3.42 13.21
12/14/2021 7:15:00 PM 3.55 38.39 0.077 6.91 3.37 13.19
12/14/2021 7:30:00 PM 3.51 38.318 0.077 6.9 3.39 13.16
12/14/2021 7:45:00 PM 3.47 38.246 0.077 6.89 3.35 13.14
12/14/2021 8:00:00 PM 3.42 38.156 0.077 6.91 3.28 13.13
12/14/2021 8:15:00 PM 3.37 38.066 0.078 6.91 3.34 13.13
12/14/2021 8:30:00 PM 3.32 37.976 0.078 6.86 3.34 13.13
12/14/2021 8:45:00 PM 3.27 37.886 0.078 6.88 3.32 13.12
12/14/2021 9:00:00 PM 3.23 37.814 0.078 6.92 3.38 13.12
12/14/2021 9:15:00 PM 3.18 37.724 0.078 6.87 3.4 13.12
12/14/2021 9:30:00 PM 3.15 37.67 0.078 6.86 3.41 13.12
12/14/2021 9:45:00 PM 3.11 37.598 0.078 6.85 3.36 13.13
12/14/2021 10:00:00 PM 3.07 37.526 0.078 6.91 3.33 13.13
12/14/2021 10:15:00 PM 3.03 37.454 0.078 6.86 3.42 13.13
12/14/2021 10:30:00 PM 2.99 37.382 0.078 6.86 3.44 13.14
12/14/2021 10:45:00 PM 2.95 37.31 0.078 6.91 3.42 13.14
12/14/2021 11:00:00 PM 2.91 37.238 0.078 6.91 3.42 13.16
12/14/2021 11:15:00 PM 2.87 37.166 0.078 6.9 3.43 13.16
12/14/2021 11:30:00 PM 2.82 37.076 0.078 6.88 3.53 13.17
12/14/2021 11:45:00 PM 2.78 37.004 0.078 6.87 3.44 13.19
12/15/2021 12:00:00 AM 2.74 36.932 0.078 6.83 3.52 13.19
12/15/2021 12:15:00 AM 2.69 36.842 0.078 6.89 3.38 13.21
12/15/2021 12:30:00 AM 2.64 36.752 0.078 6.89 3.41 13.22
12/15/2021 12:45:00 AM 2.6 36.68 0.078 6.89 3.42 13.23
12/15/2021 1:00:00 AM 2.55 36.59 0.079 6.88 3.51 13.24
12/15/2021 1:15:00 AM 2.5 36.5 0.078 6.88 3.43 13.26
12/15/2021 1:30:00 AM 2.45 36.41 0.078 6.88 3.45 13.28
12/15/2021 1:45:00 AM 2.4 36.32 0.078 6.89 3.45 13.3
12/15/2021 2:00:00 AM 2.36 36.248 0.079 6.8 3.53 13.32
12/15/2021 2:15:00 AM 2.31 36.158 0.078 6.82 3.67 13.34
12/15/2021 2:30:00 AM 2.27 36.086 0.078 6.88 3.52 13.35
12/15/2021 2:45:00 AM 2.23 36.014 0.079 6.89 3.51 13.37
12/15/2021 3:00:00 AM 2.19 35.942 0.078 6.88 3.51 13.39
12/15/2021 3:15:00 AM 2.14 35.852 0.078 6.81 3.49 13.4
12/15/2021 3:30:00 AM 2.1 35.78 0.078 6.89 3.43 13.42
12/15/2021 3:45:00 AM 2.07 35.726 0.079 6.87 3.53 13.43
12/15/2021 4:00:00 AM 2.03 35.654 0.079 6.86 3.7 13.44
12/15/2021 4:15:00 AM 2 35.6 0.079 6.88 3.54 13.46
12/15/2021 4:30:00 AM 1.97 35.546 0.079 6.89 3.45 13.47
12/15/2021 4:45:00 AM 1.95 35.51 0.079 6.9 3.56 13.48
12/15/2021 5:00:00 AM 1.92 35.456 0.079 6.89 3.59 13.49
12/15/2021 5:15:00 AM 1.89 35.402 0.079 6.88 3.56 13.49
12/15/2021 5:30:00 AM 1.87 35.366 0.079 6.88 3.58 13.51
12/15/2021 5:45:00 AM 1.84 35.312 0.079 6.89 3.62 13.52
12/15/2021 6:00:00 AM 1.81 35.258 0.079 6.88 3.6 13.53
12/15/2021 6:15:00 AM 1.79 35.222 0.079 6.83 3.5 13.54
12/15/2021 6:30:00 AM 1.78 35.204 0.079 6.8 3.37 13.54
12/15/2021 6:45:00 AM 1.76 35.168 0.079 6.8 3.42 13.55
12/15/2021 7:00:00 AM 1.75 35.15 0.079 6.82 3.45 13.57
12/15/2021 7:15:00 AM 1.74 35.132 0.079 6.82 3.4 13.58
12/15/2021 7:30:00 AM 1.73 35.114 0.079 6.87 3.41 13.59
12/15/2021 7:45:00 AM 1.72 35.096 0.079 6.81 3.25 13.61
12/15/2021 8:00:00 AM 1.72 35.096 0.079 6.9 3.28 13.66
12/15/2021 8:15:00 AM 1.72 35.096 0.079 6.81 3.32 13.71
12/15/2021 8:30:00 AM 1.74 35.132 0.079 6.85 3.25 13.78
12/15/2021 8:45:00 AM 1.76 35.168 0.079 6.94 3.33 13.85
12/15/2021 9:00:00 AM 1.79 35.222 0.079 6.93 3.26 13.93
12/15/2021 9:15:00 AM 1.82 35.276 0.079 6.95 3.28 13.99
12/15/2021 9:30:00 AM 1.85 35.33 0.079 6.96 3.26 14.05
12/15/2021 9:45:00 AM 1.89 35.402 0.079 6.99 3.31 14.11
12/15/2021 10:00:00 AM 1.94 35.492 0.079 6.92 3.26 14.16
12/15/2021 10:15:00 AM 1.98 35.564 0.079 7.01 3.42 14.19
12/15/2021 10:30:00 AM 2.04 35.672 0.078 6.96 3.36 14.23
12/15/2021 10:45:00 AM 2.09 35.762 0.078 7.01 3.31 14.25
12/15/2021 11:00:00 AM 2.17 35.906 0.078 7.02 3.25 14.3
12/15/2021 11:15:00 AM 2.24 36.032 0.078 7.06 3.27 14.33
12/15/2021 11:30:00 AM 2.28 36.104 0.078 7.06 3.23 14.31
12/15/2021 11:45:00 AM 2.33 36.194 0.078 7.06 3.31 14.33
12/15/2021 12:00:00 PM 2.41 36.338 0.078 7.08 3.29 14.36
12/15/2021 12:15:00 PM 2.46 36.428 0.078 7 3.39 14.36
12/15/2021 12:30:00 PM 2.5 36.5 0.078 7.09 3.3 14.32
12/15/2021 12:45:00 PM 2.54 36.572 0.078 7.09 3.39 14.29
12/15/2021 1:00:00 PM 2.6 36.68 0.078 7.1 3.38 14.29
12/15/2021 1:15:00 PM 2.64 36.752 0.078 7.09 3.37 14.26
12/15/2021 1:30:00 PM 2.68 36.824 0.078 7.02 3.32 14.2
12/15/2021 1:45:00 PM 2.72 36.896 0.078 7.08 3.34 14.15
12/15/2021 2:00:00 PM 2.76 36.968 0.078 7.05 3.51 14.09
12/15/2021 2:15:00 PM 2.81 37.058 0.078 7.07 3.58 14.04
12/15/2021 2:30:00 PM 2.85 37.13 0.078 7 3.53 14
12/15/2021 2:45:00 PM 2.89 37.202 0.078 6.96 3.92 13.94
12/15/2021 3:00:00 PM 2.93 37.274 0.078 7.05 4.75 13.89
12/15/2021 3:15:00 PM 2.96 37.328 0.078 7.04 5.31 13.84
12/15/2021 3:30:00 PM 3 37.4 0.078 6.98 9.84 13.77
12/15/2021 3:45:00 PM 3.03 37.454 0.078 6.98 10.92 13.73
12/15/2021 4:00:00 PM 3.07 37.526 0.078 6.98 9.82 13.67
12/15/2021 4:15:00 PM 3.1 37.58 0.079 6.95 8.91 13.61
12/15/2021 4:30:00 PM 3.14 37.652 0.08 7.01 7.61 13.55
12/15/2021 4:45:00 PM 3.17 37.706 0.082 7 7.04 13.5
12/15/2021 5:00:00 PM 3.21 37.778 0.084 6.95 5.94 13.44
12/15/2021 5:15:00 PM 3.24 37.832 0.084 7 5.73 13.38
12/15/2021 5:30:00 PM 3.27 37.886 0.084 6.97 6.84 13.34
12/15/2021 5:45:00 PM 3.31 37.958 0.085 6.94 7.63 13.3
12/15/2021 6:00:00 PM 3.34 38.012 0.084 6.98 8.81 13.26
12/15/2021 6:15:00 PM 3.37 38.066 0.085 6.97 6.98 13.23
12/15/2021 6:30:00 PM 3.41 38.138 0.085 6.97 6.34 13.19
12/15/2021 6:45:00 PM 3.44 38.192 0.086 6.98 5.81 13.15
12/15/2021 7:00:00 PM 3.48 38.264 0.087 6.97 5.67 13.12
12/15/2021 7:15:00 PM 3.51 38.318 0.087 6.97 5.81 13.08
12/15/2021 7:30:00 PM 3.55 38.39 0.088 6.93 5.89 13.05
12/15/2021 7:45:00 PM 3.58 38.444 0.089 6.98 5.68 13.02
12/15/2021 8:00:00 PM 3.6 38.48 0.088 6.98 5.55 12.99
12/15/2021 8:15:00 PM 3.63 38.534 0.089 6.96 5.84 12.97
12/15/2021 8:30:00 PM 3.66 38.588 0.088 6.92 5.78 12.94
12/15/2021 8:45:00 PM 3.69 38.642 0.088 6.91 6.45 12.92
12/15/2021 9:00:00 PM 3.72 38.696 0.088 6.97 6.46 12.9
12/15/2021 9:15:00 PM 3.74 38.732 0.089 6.96 6.6 12.88
12/15/2021 9:30:00 PM 3.77 38.786 0.089 6.98 7.09 12.87
12/15/2021 9:45:00 PM 3.79 38.822 0.089 6.98 7.19 12.85
12/15/2021 10:00:00 PM 3.82 38.876 0.089 6.94 7.31 12.83
12/15/2021 10:15:00 PM 3.84 38.912 0.089 6.97 7.33 12.81
12/15/2021 10:30:00 PM 3.85 38.93 0.088 6.96 7.39 12.8
12/15/2021 10:45:00 PM 3.86 38.948 0.088 6.91 7.46 12.79
12/15/2021 11:00:00 PM 3.87 38.966 0.088 6.96 7.19 12.77
12/15/2021 11:15:00 PM 3.88 38.984 0.087 6.96 7.09 12.76
12/15/2021 11:30:00 PM 3.9 39.02 0.087 6.91 7.47 12.75
12/15/2021 11:45:00 PM 3.9 39.02 0.086 6.95 6.96 12.75
12/16/2021 12:00:00 AM 3.9 39.02 0.086 6.95 6.84 12.74
12/16/2021 12:15:00 AM 3.91 39.038 0.086 6.93 6.83 12.73
12/16/2021 12:30:00 AM 3.92 39.056 0.085 6.95 6.54 12.72
12/16/2021 12:45:00 AM 3.93 39.074 0.085 6.91 6.57 12.71
12/16/2021 1:00:00 AM 3.94 39.092 0.084 6.91 6.2 12.7
12/16/2021 1:15:00 AM 3.96 39.128 0.084 6.9 6.35 12.7
12/16/2021 1:30:00 AM 3.98 39.164 0.083 6.88 6.01 12.69
12/16/2021 1:45:00 AM 4 39.2 0.083 6.9 6.01 12.68
12/16/2021 2:00:00 AM 4.01 39.218 0.083 6.93 5.99 12.67
12/16/2021 2:15:00 AM 4.02 39.236 0.083 6.85 6.2 12.67
12/16/2021 2:30:00 AM 4.03 39.254 0.083 6.92 5.84 12.66
12/16/2021 2:45:00 AM 4.05 39.29 0.083 6.93 6.14 12.65
12/16/2021 3:00:00 AM 4.07 39.326 0.082 6.93 5.97 12.64
12/16/2021 3:15:00 AM 4.08 39.344 0.082 6.93 6.03 12.63
12/16/2021 3:30:00 AM 4.09 39.362 0.082 6.93 5.7 12.63
12/16/2021 3:45:00 AM 4.1 39.38 0.082 6.92 5.9 12.62
12/16/2021 4:00:00 AM 4.12 39.416 0.082 6.92 5.61 12.6
12/16/2021 4:15:00 AM 4.14 39.452 0.082 6.91 5.66 12.61
12/16/2021 4:30:00 AM 4.16 39.488 0.082 6.92 5.59 12.6
12/16/2021 4:45:00 AM 4.18 39.524 0.082 6.92 5.49 12.59
12/16/2021 5:00:00 AM 4.19 39.542 0.082 6.91 5.35 12.59
12/16/2021 5:15:00 AM 4.2 39.56 0.082 6.91 5.4 12.57
12/16/2021 5:30:00 AM 4.22 39.596 0.082 6.91 5.45 12.56
12/16/2021 5:45:00 AM 4.24 39.632 0.082 6.91 5.28 12.55
12/16/2021 6:00:00 AM 4.26 39.668 0.082 6.88 5.28 12.54
12/16/2021 6:15:00 AM 4.28 39.704 0.082 6.91 5.12 12.53
12/16/2021 6:30:00 AM 4.3 39.74 0.082 6.9 5.58 12.52
12/16/2021 6:45:00 AM 4.31 39.758 0.082 6.91 5.45 12.51
12/16/2021 7:00:00 AM 4.33 39.794 0.082 6.87 5.14 12.52
12/16/2021 7:15:00 AM 4.35 39.83 0.082 6.88 5.18 12.5
12/16/2021 7:30:00 AM 4.38 39.884 0.082 6.83 5.11 12.49
12/16/2021 7:45:00 AM 4.4 39.92 0.082 6.88 4.95 12.49
12/16/2021 8:00:00 AM 4.42 39.956 0.081 6.87 4.89 12.5
12/16/2021 8:15:00 AM 4.45 40.01 0.082 6.87 4.92 12.51
12/16/2021 8:30:00 AM 4.48 40.064 0.082 6.88 4.96 12.56
12/16/2021 8:45:00 AM 4.52 40.136 0.081 6.89 4.82 12.63
12/16/2021 9:00:00 AM 4.55 40.19 0.081 6.92 4.74 12.69
12/16/2021 9:15:00 AM 4.58 40.244 0.081 6.92 4.66 12.75
12/16/2021 9:30:00 AM 4.63 40.334 0.081 6.93 4.72 12.82
12/16/2021 9:45:00 AM 4.67 40.406 0.081 6.98 4.68 12.87
12/16/2021 10:00:00 AM 4.73 40.514 0.081 6.99 4.65 12.92
12/16/2021 10:15:00 AM 4.8 40.64 0.081 6.98 4.8 12.96
12/16/2021 10:30:00 AM 4.89 40.802 0.081 6.99 4.53 13.02
12/16/2021 10:45:00 AM 4.99 40.982 0.08 7.03 4.53 13.06
12/16/2021 11:00:00 AM 5.09 41.162 0.08 7.02 4.45 13.12
12/16/2021 11:15:00 AM 5.19 41.342 0.08 7.04 4.36 13.16
12/16/2021 11:30:00 AM 5.3 41.54 0.08 7.08 4.48 13.2
12/16/2021 11:45:00 AM 5.41 41.738 0.08 7.12 4.37 13.22
12/16/2021 12:00:00 PM 5.52 41.936 0.08 7.14 4.35 13.24
12/16/2021 12:15:00 PM 5.62 42.116 0.08 7.15 4.32 13.25
12/16/2021 12:30:00 PM 5.72 42.296 0.08 7.12 4.27 13.26
12/16/2021 12:45:00 PM 5.82 42.476 0.08 7.17 4.4 13.27
12/16/2021 1:00:00 PM 5.9 42.62 0.08 7.19 7.79 13.27
12/16/2021 1:15:00 PM 5.99 42.782 0.08 7.15 4.45 13.27
12/16/2021 1:30:00 PM 6.07 42.926 0.079 7.2 4.4 13.28
12/16/2021 1:45:00 PM 6.14 43.052 0.079 7.2 4.26 13.27
12/16/2021 2:00:00 PM 6.2 43.16 0.079 7.26 4.32 13.25
12/16/2021 2:15:00 PM 6.24 43.232 0.079 7.24 4.3 13.22
12/16/2021 2:30:00 PM 6.27 43.286 0.079 7.18 4.42 13.19
12/16/2021 2:45:00 PM 6.3 43.34 0.079 7.23 4.08 13.17
12/16/2021 3:00:00 PM 6.34 43.412 0.079 7.24 4.17 13.15
12/16/2021 3:15:00 PM 6.4 43.52 0.079 7.16 4.04 13.13
12/16/2021 3:30:00 PM 6.43 43.574 0.078 7.22 4.11 13.07
12/16/2021 3:45:00 PM 6.46 43.628 0.078 7.16 3.99 13.01
12/16/2021 4:00:00 PM 6.48 43.664 0.079 7.16 3.9 12.92
12/16/2021 4:15:00 PM 6.5 43.7 0.078 7.16 4.03 12.82
12/16/2021 4:30:00 PM 6.52 43.736 0.078 7.11 4.02 12.7
12/16/2021 4:45:00 PM 6.54 43.772 0.079 7.08 4.04 12.59
12/16/2021 5:00:00 PM 6.57 43.826 0.078 7.08 4.02 12.5
12/16/2021 5:15:00 PM 6.59 43.862 0.079 7.06 3.94 12.41
12/16/2021 5:30:00 PM 6.61 43.898 0.078 7.04 3.9 12.34
12/16/2021 5:45:00 PM 6.62 43.916 0.078 7.01 3.85 12.28
12/16/2021 6:00:00 PM 6.64 43.952 0.078 6.99 3.84 12.23
12/16/2021 6:15:00 PM 6.65 43.97 0.078 6.95 3.82 12.16
12/16/2021 6:30:00 PM 6.67 44.006 0.079 6.99 3.92 12.1
12/16/2021 6:45:00 PM 6.67 44.006 0.078 6.97 3.92 12.05
12/16/2021 7:00:00 PM 6.68 44.024 0.079 6.95 3.81 11.99
12/16/2021 7:15:00 PM 6.69 44.042 0.079 6.9 3.75 11.95
12/16/2021 7:30:00 PM 6.69 44.042 0.079 6.92 3.97 11.9
12/16/2021 7:45:00 PM 6.69 44.042 0.079 6.92 3.86 11.87
12/16/2021 8:00:00 PM 6.69 44.042 0.079 6.91 3.8 11.84
12/16/2021 8:15:00 PM 6.7 44.06 0.079 6.92 3.88 11.81
12/16/2021 8:30:00 PM 6.68 44.024 0.079 6.95 3.97 11.79
12/16/2021 8:45:00 PM 6.67 44.006 0.079 6.92 4.01 11.77
12/16/2021 9:00:00 PM 6.67 44.006 0.079 6.91 4.07 11.75
12/16/2021 9:15:00 PM 6.67 44.006 0.079 6.9 4.04 11.73
12/16/2021 9:30:00 PM 6.67 44.006 0.079 6.9 4.22 11.71
12/16/2021 9:45:00 PM 6.68 44.024 0.079 6.88 4.23 11.69
12/16/2021 10:00:00 PM 6.69 44.042 0.079 6.88 4.16 11.68
12/16/2021 10:15:00 PM 6.69 44.042 0.079 6.86 4.1 11.66
12/16/2021 10:30:00 PM 6.69 44.042 0.079 6.9 4.03 11.65
12/16/2021 10:45:00 PM 6.69 44.042 0.079 6.87 4.06 11.64
12/16/2021 11:00:00 PM 6.68 44.024 0.079 6.87 4.03 11.63
12/16/2021 11:15:00 PM 6.66 43.988 0.08 6.83 3.97 11.62
12/16/2021 11:30:00 PM 6.65 43.97 0.08 6.87 3.94 11.62
12/16/2021 11:45:00 PM 6.63 43.934 0.08 6.86 3.96 11.61
12/17/2021 12:00:00 AM 6.61 43.898 0.08 6.88 4.03 11.61
12/17/2021 12:15:00 AM 6.59 43.862 0.08 6.86 3.98 11.61
12/17/2021 12:30:00 AM 6.58 43.844 0.08 6.87 4.04 11.61
12/17/2021 12:45:00 AM 6.58 43.844 0.08 6.86 4.26 11.61
12/17/2021 1:00:00 AM 6.57 43.826 0.08 6.85 4.52 11.61
12/17/2021 1:15:00 AM 6.57 43.826 0.08 6.84 4.96 11.62
12/17/2021 1:30:00 AM 6.56 43.808 0.08 6.84 5.21 11.62
12/17/2021 1:45:00 AM 6.54 43.772 0.08 6.85 5.16 11.62
12/17/2021 2:00:00 AM 6.51 43.718 0.08 6.83 5.32 11.63
12/17/2021 2:15:00 AM 6.48 43.664 0.08 6.83 5.35 11.63
12/17/2021 2:30:00 AM 6.45 43.61 0.08 6.84 5.13 11.64
12/17/2021 2:45:00 AM 6.41 43.538 0.08 6.85 4.78 11.65
12/17/2021 3:00:00 AM 6.37 43.466 0.08 6.84 6.35 11.65
12/17/2021 3:15:00 AM 6.34 43.412 0.08 6.84 5.82 11.66
12/17/2021 3:30:00 AM 6.3 43.34 0.08 6.85 5.28 11.67
12/17/2021 3:45:00 AM 6.25 43.25 0.08 6.82 4.95 11.68
12/17/2021 4:00:00 AM 6.2 43.16 0.08 6.85 4.73 11.7
12/17/2021 4:15:00 AM 6.15 43.07 0.08 6.83 4.38 11.71
12/17/2021 4:30:00 AM 6.1 42.98 0.08 6.84 4.45 11.73
12/17/2021 4:45:00 AM 6.06 42.908 0.08 6.85 4.29 11.74
12/17/2021 5:00:00 AM 6.02 42.836 0.08 6.84 4.2 11.76
12/17/2021 5:15:00 AM 5.97 42.746 0.08 6.83 4.24 11.77
12/17/2021 5:30:00 AM 5.93 42.674 0.08 6.83 4.17 11.79
12/17/2021 5:45:00 AM 5.88 42.584 0.08 6.83 4.12 11.8
12/17/2021 6:00:00 AM 5.82 42.476 0.08 6.83 4.04 11.82
12/17/2021 6:15:00 AM 5.77 42.386 0.08 6.84 3.99 11.83
12/17/2021 6:30:00 AM 5.71 42.278 0.08 6.81 4.24 11.85
12/17/2021 6:45:00 AM 5.65 42.17 0.08 6.83 4.1 11.87
12/17/2021 7:00:00 AM 5.59 42.062 0.08 6.82 4.15 11.89
12/17/2021 7:15:00 AM 5.53 41.954 0.08 6.82 5.65 11.92
12/17/2021 7:30:00 AM 5.47 41.846 0.08 6.83 4.23 11.94
12/17/2021 7:45:00 AM 5.42 41.756 0.08 6.84 4.14 11.98
12/17/2021 8:00:00 AM 5.36 41.648 0.08 6.83 4.05 12.03
12/17/2021 8:15:00 AM 5.32 41.576 0.08 6.85 3.95 12.1
12/17/2021 8:30:00 AM 5.27 41.486 0.08 6.89 3.98 12.17
12/17/2021 8:45:00 AM 5.23 41.414 0.08 6.86 4.13 12.24
12/17/2021 9:00:00 AM 5.21 41.378 0.08 6.88 3.99 12.33
12/17/2021 9:15:00 AM 5.18 41.324 0.08 6.89 3.92 12.4
12/17/2021 9:30:00 AM 5.17 41.306 0.079 6.91 3.88 12.49
12/17/2021 9:45:00 AM 5.16 41.288 0.079 6.92 3.94 12.57
12/17/2021 10:00:00 AM 5.18 41.324 0.079 6.94 3.79 12.64
12/17/2021 10:15:00 AM 5.19 41.342 0.079 6.95 3.72 12.71
12/17/2021 10:30:00 AM 5.21 41.378 0.079 6.97 3.68 12.8
12/17/2021 10:45:00 AM 5.25 41.45 0.079 6.99 3.74 12.87
12/17/2021 11:00:00 AM 5.29 41.522 0.079 6.99 3.81 12.95
12/17/2021 11:15:00 AM 5.35 41.63 0.079 7.06 3.75 13.02
12/17/2021 11:30:00 AM 5.41 41.738 0.079 7.02 3.79 13.08
12/17/2021 11:45:00 AM 5.47 41.846 0.079 7.07 3.54 13.12
12/17/2021 12:00:00 PM 5.53 41.954 0.079 7.08 3.61 13.16
12/17/2021 12:15:00 PM 5.6 42.08 0.079 7.12 3.55 13.18
12/17/2021 12:30:00 PM 5.67 42.206 0.079 7.15 3.67 13.21
12/17/2021 12:45:00 PM 5.73 42.314 0.079 7.13 3.56 13.24
12/17/2021 1:00:00 PM 5.77 42.386 0.079 7.15 3.47 13.26
12/17/2021 1:15:00 PM 5.81 42.458 0.079 7.17 3.41 13.27
12/17/2021 1:30:00 PM 5.83 42.494 0.079 7.19 3.5 13.28
12/17/2021 1:45:00 PM 5.83 42.494 0.078 7.2 3.54 13.29
12/17/2021 2:00:00 PM 5.82 42.476 0.079 7.16 3.53 13.29
12/17/2021 2:15:00 PM 5.8 42.44 0.078 7.16 3.53 13.27
12/17/2021 2:30:00 PM 5.77 42.386 0.078 7.21 3.58 13.28
12/17/2021 2:45:00 PM 5.74 42.332 0.078 7.21 3.55 13.26
12/17/2021 3:00:00 PM 5.7 42.26 0.078 7.15 3.51 13.24
12/17/2021 3:15:00 PM 5.68 42.224 0.078 7.22 3.61 13.23
12/17/2021 3:30:00 PM 5.67 42.206 0.078 7.21 3.45 13.21
12/17/2021 3:45:00 PM 5.65 42.17 0.078 7.19 3.36 13.16
12/17/2021 4:00:00 PM 5.64 42.152 0.078 7.14 3.54 13.1
12/17/2021 4:15:00 PM 5.62 42.116 0.078 7.16 3.56 13.03
12/17/2021 4:30:00 PM 5.6 42.08 0.078 7.14 3.45 12.94
12/17/2021 4:45:00 PM 5.57 42.026 0.078 7.12 3.42 12.85
12/17/2021 5:00:00 PM 5.55 41.99 0.078 7.09 3.54 12.78
12/17/2021 5:15:00 PM 5.54 41.972 0.078 7.06 3.45 12.71
12/17/2021 5:30:00 PM 5.53 41.954 0.078 7.06 3.61 12.66
12/17/2021 5:45:00 PM 5.52 41.936 0.078 7.04 3.42 12.6
12/17/2021 6:00:00 PM 5.51 41.918 0.078 7.03 3.59 12.57
12/17/2021 6:15:00 PM 5.49 41.882 0.078 7.01 3.69 12.53
12/17/2021 6:30:00 PM 5.47 41.846 0.078 7.01 3.63 12.5
12/17/2021 6:45:00 PM 5.44 41.792 0.078 6.99 3.58 12.47
12/17/2021 7:00:00 PM 5.39 41.702 0.078 6.94 3.55 12.43
12/17/2021 7:15:00 PM 5.35 41.63 0.078 6.98 3.58 12.41
12/17/2021 7:30:00 PM 5.3 41.54 0.078 6.9 3.5 12.38
12/17/2021 7:45:00 PM 5.24 41.432 0.078 6.96 3.47 12.36
12/17/2021 8:00:00 PM 5.18 41.324 0.078 6.89 3.49 12.34
12/17/2021 8:15:00 PM 5.13 41.234 0.078 6.95 3.53 12.33
12/17/2021 8:30:00 PM 5.08 41.144 0.079 6.91 3.84 12.33
12/17/2021 8:45:00 PM 5.02 41.036 0.079 6.9 3.62 12.32
12/17/2021 9:00:00 PM 4.98 40.964 0.079 6.88 3.41 12.32
12/17/2021 9:15:00 PM 4.93 40.874 0.079 6.89 3.41 12.33
12/17/2021 9:30:00 PM 4.88 40.784 0.079 6.87 3.48 12.33
12/17/2021 9:45:00 PM 4.84 40.712 0.079 6.85 3.55 12.34
12/17/2021 10:00:00 PM 4.79 40.622 0.079 6.87 3.55 12.34
12/17/2021 10:15:00 PM 4.75 40.55 0.079 6.87 3.71 12.34
12/17/2021 10:30:00 PM 4.71 40.478 0.079 6.85 3.83 12.35
12/17/2021 10:45:00 PM 4.67 40.406 0.079 6.86 3.56 12.36
12/17/2021 11:00:00 PM 4.63 40.334 0.079 6.86 3.77 12.36
12/17/2021 11:15:00 PM 4.6 40.28 0.079 6.86 3.88 12.37
12/17/2021 11:30:00 PM 4.57 40.226 0.079 6.86 3.85 12.37
12/17/2021 11:45:00 PM 4.54 40.172 0.079 6.85 4.01 12.38
12/18/2021 12:00:00 AM 4.5 40.1 0.079 6.83 4.06 12.38
12/18/2021 12:15:00 AM 4.47 40.046 0.08 6.86 4.09 12.39
12/18/2021 12:30:00 AM 4.44 39.992 0.08 6.84 3.93 12.4
12/18/2021 12:45:00 AM 4.41 39.938 0.08 6.81 3.95 12.41
12/18/2021 1:00:00 AM 4.38 39.884 0.08 6.82 3.82 12.42
12/18/2021 1:15:00 AM 4.35 39.83 0.08 6.82 3.84 12.42
12/18/2021 1:30:00 AM 4.33 39.794 0.08 6.83 3.99 12.43
12/18/2021 1:45:00 AM 4.3 39.74 0.08 6.82 3.83 12.44
12/18/2021 2:00:00 AM 4.28 39.704 0.08 6.81 3.71 12.45
12/18/2021 2:15:00 AM 4.26 39.668 0.08 6.82 3.86 12.47
12/18/2021 2:30:00 AM 4.23 39.614 0.08 6.83 3.75 12.47
12/18/2021 2:45:00 AM 4.21 39.578 0.08 6.83 3.74 12.48
12/18/2021 3:00:00 AM 4.19 39.542 0.08 6.85 3.81 12.49
12/18/2021 3:15:00 AM 4.17 39.506 0.08 6.82 3.68 12.5
12/18/2021 3:30:00 AM 4.16 39.488 0.08 6.89 3.71 12.5
12/18/2021 3:45:00 AM 4.14 39.452 0.08 6.9 3.83 12.51
12/18/2021 4:00:00 AM 4.13 39.434 0.08 6.9 3.72 12.51
12/18/2021 4:15:00 AM 4.12 39.416 0.08 6.89 3.67 12.52
12/18/2021 4:30:00 AM 4.11 39.398 0.08 6.9 3.7 12.52
12/18/2021 4:45:00 AM 4.1 39.38 0.08 6.9 3.73 12.54
12/18/2021 5:00:00 AM 4.09 39.362 0.08 6.86 3.71 12.53
12/18/2021 5:15:00 AM 4.09 39.362 0.08 6.89 3.69 12.54
12/18/2021 5:30:00 AM 4.07 39.326 0.08 6.9 3.8 12.55
12/18/2021 5:45:00 AM 4.07 39.326 0.08 6.87 3.63 12.55
12/18/2021 6:00:00 AM 4.06 39.308 0.08 6.87 3.66 12.55
12/18/2021 6:15:00 AM 4.06 39.308 0.08 6.89 3.68 12.55
12/18/2021 6:30:00 AM 4.05 39.29 0.08 6.8 3.63 12.55
12/18/2021 6:45:00 AM 4.05 39.29 0.08 6.83 3.72 12.54
12/18/2021 7:00:00 AM 4.05 39.29 0.08 6.88 3.67 12.55
12/18/2021 7:15:00 AM 4.05 39.29 0.08 6.89 3.48 12.55
12/18/2021 7:30:00 AM 4.05 39.29 0.08 6.84 3.45 12.55
12/18/2021 7:45:00 AM 4.05 39.29 0.08 6.85 3.45 12.57
12/18/2021 8:00:00 AM 4.05 39.29 0.08 6.88 3.51 12.58
12/18/2021 8:15:00 AM 4.05 39.29 0.08 6.86 3.41 12.62
12/18/2021 8:30:00 AM 4.06 39.308 0.081 6.83 3.38 12.67
12/18/2021 8:45:00 AM 4.07 39.326 0.08 6.85 3.4 12.73
12/18/2021 9:00:00 AM 4.08 39.344 0.08 6.89 3.36 12.79
12/18/2021 9:15:00 AM 4.1 39.38 0.08 6.88 3.42 12.86
12/18/2021 9:30:00 AM 4.11 39.398 0.08 6.91 3.35 12.93
12/18/2021 9:45:00 AM 4.12 39.416 0.08 6.88 3.57 12.97
12/18/2021 10:00:00 AM 4.13 39.434 0.08 6.94 3.59 13
12/18/2021 10:15:00 AM 4.14 39.452 0.08 6.92 3.7 13.04
12/18/2021 10:30:00 AM 4.15 39.47 0.08 6.93 3.58 13.05
12/18/2021 10:45:00 AM 4.15 39.47 0.08 6.92 3.65 13.06
12/18/2021 11:00:00 AM 4.16 39.488 0.08 6.95 4.12 13.08
12/18/2021 11:15:00 AM 4.16 39.488 0.08 6.94 4.42 13.08
12/18/2021 11:30:00 AM 4.17 39.506 0.08 6.95 4.11 13.08
12/18/2021 11:45:00 AM 4.18 39.524 0.08 6.97 3.96 13.11
12/18/2021 12:00:00 PM 4.19 39.542 0.08 6.98 4.16 13.14
12/18/2021 12:15:00 PM 4.2 39.56 0.08 6.98 4.19 13.14
12/18/2021 12:30:00 PM 4.2 39.56 0.08 6.96 4.06 13.14
12/18/2021 12:45:00 PM 4.21 39.578 0.08 6.98 4.11 13.15
12/18/2021 1:00:00 PM 4.22 39.596 0.08 6.99 3.94 13.16
12/18/2021 1:15:00 PM 4.23 39.614 0.081 6.99 4.03 13.14
12/18/2021 1:30:00 PM 4.24 39.632 0.081 6.99 3.73 13.15
12/18/2021 1:45:00 PM 4.25 39.65 0.081 7.05 3.84 13.15
12/18/2021 2:00:00 PM 4.26 39.668 0.082 7.04 3.86 13.16
12/18/2021 2:15:00 PM 4.27 39.686 0.082 7.04 3.92 13.17
12/18/2021 2:30:00 PM 4.27 39.686 0.083 7.06 4.27 13.17
12/18/2021 2:45:00 PM 4.27 39.686 0.083 7.05 4.58 13.15
12/18/2021 3:00:00 PM 4.27 39.686 0.083 7.04 4.3 13.12
12/18/2021 3:15:00 PM 4.28 39.704 0.083 7 4.48 13.09
12/18/2021 3:30:00 PM 4.28 39.704 0.084 7.04 4.66 13.05
12/18/2021 3:45:00 PM 4.28 39.704 0.084 7.04 4.58 13.02
12/18/2021 4:00:00 PM 4.28 39.704 0.084 7.03 4.52 12.98
12/18/2021 4:15:00 PM 4.28 39.704 0.085 7.02 4.51 12.94
12/18/2021 4:30:00 PM 4.28 39.704 0.085 7.02 4.64 12.9
12/18/2021 4:45:00 PM 4.28 39.704 0.085 6.96 4.49 12.86
12/18/2021 5:00:00 PM 4.28 39.704 0.085 7.01 4.48 12.81
12/18/2021 5:15:00 PM 4.28 39.704 0.085 6.96 4.56 12.76
12/18/2021 5:30:00 PM 4.28 39.704 0.086 6.99 4.71 12.73
12/18/2021 5:45:00 PM 4.28 39.704 0.086 6.92 4.97 12.7
12/18/2021 6:00:00 PM 4.28 39.704 0.086 6.95 5.06 12.67
12/18/2021 6:15:00 PM 4.28 39.704 0.086 6.91 5.09 12.65
12/18/2021 6:30:00 PM 4.28 39.704 0.087 6.94 4.8 12.62
12/18/2021 6:45:00 PM 4.27 39.686 0.087 6.94 5.01 12.6
12/18/2021 7:00:00 PM 4.28 39.704 0.088 6.94 4.84 12.58
12/18/2021 7:15:00 PM 4.28 39.704 0.087 6.93 4.95 12.56
12/18/2021 7:30:00 PM 4.28 39.704 0.088 6.9 5.18 12.55
12/18/2021 7:45:00 PM 4.28 39.704 0.087 6.92 5.14 12.54
12/18/2021 8:00:00 PM 4.29 39.722 0.087 6.92 5.37 12.52
12/18/2021 8:15:00 PM 4.3 39.74 0.088 6.92 5.31 12.51
12/18/2021 8:30:00 PM 4.3 39.74 0.087 6.92 5.09 12.49
12/18/2021 8:45:00 PM 4.31 39.758 0.087 6.92 4.95 12.49
12/18/2021 9:00:00 PM 4.32 39.776 0.087 6.92 5.05 12.48
12/18/2021 9:15:00 PM 4.33 39.794 0.088 6.92 5.04 12.47
12/18/2021 9:30:00 PM 4.33 39.794 0.087 6.91 5.25 12.46
12/18/2021 9:45:00 PM 4.34 39.812 0.087 6.9 5.43 12.45
12/18/2021 10:00:00 PM 4.35 39.83 0.087 6.91 5.44 12.44
12/18/2021 10:15:00 PM 4.36 39.848 0.087 6.9 5.77 12.43
12/18/2021 10:30:00 PM 4.36 39.848 0.087 6.88 6.09 12.43
12/18/2021 10:45:00 PM 4.37 39.866 0.086 6.89 6.63 12.43
12/18/2021 11:00:00 PM 4.38 39.884 0.086 6.88 6.19 12.42
12/18/2021 11:15:00 PM 4.39 39.902 0.086 6.88 6.15 12.42
12/18/2021 11:30:00 PM 4.39 39.902 0.086 6.89 5.97 12.42
12/18/2021 11:45:00 PM 4.4 39.92 0.087 6.89 6.18 12.41
12/19/2021 12:00:00 AM 4.4 39.92 0.087 6.89 5.54 12.41
12/19/2021 12:15:00 AM 4.39 39.902 0.087 6.9 5.69 12.41
12/19/2021 12:30:00 AM 4.38 39.884 0.087 6.95 5.7 12.41
12/19/2021 12:45:00 AM 4.37 39.866 0.088 6.94 5.44 12.41
12/19/2021 1:00:00 AM 4.35 39.83 0.088 6.95 5.6 12.41
12/19/2021 1:15:00 AM 4.33 39.794 0.088 6.95 5.59 12.43
12/19/2021 1:30:00 AM 4.32 39.776 0.088 6.88 5.31 12.43
12/19/2021 1:45:00 AM 4.3 39.74 0.088 6.9 5.56 12.44
12/19/2021 2:00:00 AM 4.27 39.686 0.088 6.95 5.68 12.46
12/19/2021 2:15:00 AM 4.25 39.65 0.088 6.87 5.45 12.46
12/19/2021 2:30:00 AM 4.22 39.596 0.088 6.93 5.64 12.48
12/19/2021 2:45:00 AM 4.18 39.524 0.088 6.9 5.57 12.48
12/19/2021 3:00:00 AM 4.15 39.47 0.088 6.89 5.77 12.5
12/19/2021 3:15:00 AM 4.11 39.398 0.087 6.9 5.8 12.51
12/19/2021 3:30:00 AM 4.07 39.326 0.087 6.89 5.5 12.52
12/19/2021 3:45:00 AM 4.03 39.254 0.087 6.93 5.65 12.53
12/19/2021 4:00:00 AM 3.99 39.182 0.087 6.93 5.46 12.55
12/19/2021 4:15:00 AM 3.96 39.128 0.087 6.94 5.38 12.56
12/19/2021 4:30:00 AM 3.92 39.056 0.086 6.94 5.3 12.57
12/19/2021 4:45:00 AM 3.88 38.984 0.086 6.93 5.3 12.58
12/19/2021 5:00:00 AM 3.84 38.912 0.086 6.93 5.48 12.59
12/19/2021 5:15:00 AM 3.78 38.804 0.085 6.88 5.89 12.6
12/19/2021 5:30:00 AM 3.7 38.66 0.085 6.87 5.4 12.61
12/19/2021 5:45:00 AM 3.65 38.57 0.085 6.88 5.47 12.64
12/19/2021 6:00:00 AM 3.62 38.516 0.085 6.9 5.03 12.66
12/19/2021 6:15:00 AM 3.6 38.48 0.084 6.89 6.24 12.68
12/19/2021 6:30:00 AM 3.55 38.39 0.084 6.88 4.97 12.7
12/19/2021 6:45:00 AM 3.52 38.336 0.084 6.87 4.79 12.72
12/19/2021 7:00:00 AM 3.47 38.246 0.084 6.88 4.67 12.74
12/19/2021 7:15:00 AM 3.44 38.192 0.084 6.89 4.75 12.75
12/19/2021 7:30:00 AM 3.4 38.12 0.083 6.88 4.56 12.77
12/19/2021 7:45:00 AM 3.36 38.048 0.083 6.86 4.57 12.79
12/19/2021 8:00:00 AM 3.32 37.976 0.083 6.86 4.58 12.81
12/19/2021 8:15:00 AM 3.28 37.904 0.082 6.86 4.64 12.84
12/19/2021 8:30:00 AM 3.23 37.814 0.082 6.87 4.74 12.87
12/19/2021 8:45:00 AM 3.2 37.76 0.082 6.84 4.55 12.9
12/19/2021 9:00:00 AM 3.16 37.688 0.082 6.88 4.34 12.93
12/19/2021 9:15:00 AM 3.13 37.634 0.082 6.86 4.16 12.98
12/19/2021 9:30:00 AM 3.1 37.58 0.082 6.88 4.2 13.02
12/19/2021 9:45:00 AM 3.08 37.544 0.082 6.89 4.23 13.08
12/19/2021 10:00:00 AM 3.07 37.526 0.081 6.9 4.28 13.14
12/19/2021 10:15:00 AM 3.05 37.49 0.081 6.92 4.07 13.22
12/19/2021 10:30:00 AM 3.04 37.472 0.081 6.99 3.93 13.28
12/19/2021 10:45:00 AM 3.03 37.454 0.081 6.94 4.17 13.35
12/19/2021 11:00:00 AM 3.02 37.436 0.081 7.01 4.12 13.43
12/19/2021 11:15:00 AM 3.02 37.436 0.081 6.95 4.08 13.49
12/19/2021 11:30:00 AM 3 37.4 0.081 7.02 4.05 13.54
12/19/2021 11:45:00 AM 3 37.4 0.081 6.96 4.1 13.6
12/19/2021 12:00:00 PM 3 37.4 0.081 7.04 3.92 13.64
12/19/2021 12:15:00 PM 3 37.4 0.081 7.06 3.97 13.69
12/19/2021 12:30:00 PM 3 37.4 0.081 6.99 3.85 13.73
12/19/2021 12:45:00 PM 3 37.4 0.081 7.08 3.83 13.77
12/19/2021 1:00:00 PM 3 37.4 0.08 7.07 3.98 13.79
12/19/2021 1:15:00 PM 2.99 37.382 0.08 7.09 3.96 13.82
12/19/2021 1:30:00 PM 2.99 37.382 0.08 7.11 3.89 13.85
12/19/2021 1:45:00 PM 2.99 37.382 0.08 7.1 3.92 13.88
12/19/2021 2:00:00 PM 2.98 37.364 0.08 7.11 3.91 13.9
12/19/2021 2:15:00 PM 2.97 37.346 0.08 7.11 3.79 13.92
12/19/2021 2:30:00 PM 2.96 37.328 0.08 7.11 3.89 13.93
12/19/2021 2:45:00 PM 2.95 37.31 0.08 7.11 3.66 13.94
12/19/2021 3:00:00 PM 2.94 37.292 0.08 7.14 3.79 13.95
12/19/2021 3:15:00 PM 2.92 37.256 0.08 7.05 3.82 13.94
12/19/2021 3:30:00 PM 2.9 37.22 0.08 7.07 3.8 13.93
12/19/2021 3:45:00 PM 2.87 37.166 0.08 7.07 3.94 13.89
12/19/2021 4:00:00 PM 2.85 37.13 0.08 7.04 3.95 13.84
12/19/2021 4:15:00 PM 2.82 37.076 0.08 7.03 3.62 13.78
12/19/2021 4:30:00 PM 2.79 37.022 0.079 7.01 3.45 13.73
12/19/2021 4:45:00 PM 2.77 36.986 0.079 6.97 3.53 13.69
12/19/2021 5:00:00 PM 2.74 36.932 0.079 6.98 3.54 13.64
12/19/2021 5:15:00 PM 2.71 36.878 0.079 6.97 3.52 13.61
12/19/2021 5:30:00 PM 2.68 36.824 0.079 6.96 3.57 13.58
12/19/2021 5:45:00 PM 2.65 36.77 0.079 6.94 3.54 13.55
12/19/2021 6:00:00 PM 2.62 36.716 0.08 6.92 3.56 13.52
12/19/2021 6:15:00 PM 2.59 36.662 0.079 6.92 3.55 13.49
12/19/2021 6:30:00 PM 2.57 36.626 0.079 6.9 3.5 13.46
12/19/2021 6:45:00 PM 2.54 36.572 0.08 6.9 3.49 13.44
12/19/2021 7:00:00 PM 2.51 36.518 0.08 6.89 3.48 13.43
12/19/2021 7:15:00 PM 2.48 36.464 0.08 6.88 3.42 13.41
12/19/2021 7:30:00 PM 2.44 36.392 0.08 6.88 3.52 13.4
12/19/2021 7:45:00 PM 2.41 36.338 0.08 6.91 3.42 13.39
12/19/2021 8:00:00 PM 2.38 36.284 0.08 6.96 3.46 13.38
12/19/2021 8:15:00 PM 2.35 36.23 0.08 6.95 3.47 13.38
12/19/2021 8:30:00 PM 2.32 36.176 0.08 6.96 3.44 13.39
12/19/2021 8:45:00 PM 2.29 36.122 0.08 6.95 3.41 13.38
12/19/2021 9:00:00 PM 2.26 36.068 0.08 6.95 3.43 13.38
12/19/2021 9:15:00 PM 2.23 36.014 0.08 6.92 3.47 13.39
12/19/2021 9:30:00 PM 2.2 35.96 0.08 6.94 3.41 13.39
12/19/2021 9:45:00 PM 2.18 35.924 0.08 6.94 3.32 13.38
12/19/2021 10:00:00 PM 2.16 35.888 0.08 6.94 3.35 13.38
12/19/2021 10:15:00 PM 2.14 35.852 0.08 6.91 3.39 13.38
12/19/2021 10:30:00 PM 2.12 35.816 0.08 6.93 3.37 13.38
12/19/2021 10:45:00 PM 2.09 35.762 0.08 6.93 3.24 13.38
12/19/2021 11:00:00 PM 2.06 35.708 0.08 6.91 3.24 13.38
12/19/2021 11:15:00 PM 2.04 35.672 0.08 6.92 3.49 13.39
12/19/2021 11:30:00 PM 2.01 35.618 0.08 6.91 3.32 13.4
12/19/2021 11:45:00 PM 1.98 35.564 0.08 6.92 3.23 13.41
12/20/2021 12:00:00 AM 1.95 35.51 0.08 6.91 3.35 13.41
12/20/2021 12:15:00 AM 1.92 35.456 0.08 6.91 3.53 13.42
12/20/2021 12:30:00 AM 1.9 35.42 0.08 6.9 3.36 13.43
12/20/2021 12:45:00 AM 1.88 35.384 0.08 6.9 3.38 13.44
12/20/2021 1:00:00 AM 1.86 35.348 0.08 6.85 3.35 13.44
12/20/2021 1:15:00 AM 1.83 35.294 0.08 6.85 3.35 13.45
12/20/2021 1:30:00 AM 1.82 35.276 0.08 6.84 3.38 13.45
12/20/2021 1:45:00 AM 1.79 35.222 0.08 6.82 3.37 13.46
12/20/2021 2:00:00 AM 1.77 35.186 0.08 6.84 3.33 13.47
12/20/2021 2:15:00 AM 1.75 35.15 0.08 6.83 3.47 13.48
12/20/2021 2:30:00 AM 1.72 35.096 0.08 6.84 3.28 13.49
12/20/2021 2:45:00 AM 1.68 35.024 0.08 6.81 3.47 13.5
12/20/2021 3:00:00 AM 1.64 34.952 0.08 6.82 3.39 13.52
12/20/2021 3:15:00 AM 1.61 34.898 0.08 6.78 3.61 13.53
12/20/2021 3:30:00 AM 1.56 34.808 0.08 6.82 3.58 13.54
12/20/2021 3:45:00 AM 1.53 34.754 0.08 6.81 3.36 13.54
12/20/2021 4:00:00 AM 1.49 34.682 0.08 6.8 3.5 13.57
12/20/2021 4:15:00 AM 1.45 34.61 0.08 6.8 3.46 13.57
12/20/2021 4:30:00 AM 1.41 34.538 0.08 6.79 3.42 13.58
12/20/2021 4:45:00 AM 1.37 34.466 0.08 6.81 3.43 13.6
12/20/2021 5:00:00 AM 1.34 34.412 0.08 6.82 3.39 13.61
12/20/2021 5:15:00 AM 1.3 34.34 0.08 6.82 3.27 13.62
12/20/2021 5:30:00 AM 1.26 34.268 0.08 6.9 3.32 13.62
12/20/2021 5:45:00 AM 1.22 34.196 0.08 6.89 3.27 13.65
12/20/2021 6:00:00 AM 1.18 34.124 0.08 6.91 3.23 13.66
12/20/2021 6:15:00 AM 1.15 34.07 0.08 6.85 3.32 13.68
12/20/2021 6:30:00 AM 1.11 33.998 0.08 6.89 3.29 13.69
12/20/2021 6:45:00 AM 1.07 33.926 0.08 6.9 3.24 13.71
12/20/2021 7:00:00 AM 1.03 33.854 0.08 6.83 3.17 13.73
12/20/2021 7:15:00 AM 0.99 33.782 0.08 6.9 3.14 13.74
12/20/2021 7:30:00 AM 0.96 33.728 0.08 6.89 3.3 13.77
12/20/2021 7:45:00 AM 0.92 33.656 0.08 6.92 3.28 13.81
12/20/2021 8:00:00 AM 0.89 33.602 0.08 6.86 3.27 13.86
12/20/2021 8:15:00 AM 0.86 33.548 0.08 6.87 3.24 13.91
12/20/2021 8:30:00 AM 0.85 33.53 0.08 6.93 3.29 14
12/20/2021 8:45:00 AM 0.85 33.53 0.08 6.94 3.15 14.08
12/20/2021 9:00:00 AM 0.86 33.548 0.08 6.96 3.23 14.15
12/20/2021 9:15:00 AM 0.88 33.584 0.08 6.97 3.21 14.23
12/20/2021 9:30:00 AM 0.89 33.602 0.08 6.97 3.27 14.28
12/20/2021 9:45:00 AM 0.91 33.638 0.08 6.92 3.23 14.33
12/20/2021 10:00:00 AM 0.93 33.674 0.08 6.92 3.1 14.38
12/20/2021 10:15:00 AM 0.95 33.71 0.08 6.93 3.19 14.42
12/20/2021 10:30:00 AM 0.99 33.782 0.08 6.93 3.45 14.46
12/20/2021 10:45:00 AM 1.04 33.872 0.08 6.94 3.58 14.51
12/20/2021 11:00:00 AM 1.08 33.944 0.08 6.94 20.78 14.55
12/20/2021 11:15:00 AM 1.15 34.07 0.08 6.94 3.16 14.58
12/20/2021 11:30:00 AM 1.19 34.142 0.08 6.91 3.1 14.61
12/20/2021 11:45:00 AM 1.23 34.214 0.08 6.97 3.27 14.62
12/20/2021 12:00:00 PM 1.32 34.376 0.08 6.96 3.21 14.64
12/20/2021 12:15:00 PM 1.4 34.52 0.08 6.92 3.1 14.65
12/20/2021 12:30:00 PM 1.48 34.664 0.079 6.97 3.09 14.65
12/20/2021 12:45:00 PM 1.57 34.826 0.08 6.96 3.54 14.65
12/20/2021 1:00:00 PM 1.66 34.988 0.079 6.98 6.39 14.62
12/20/2021 1:15:00 PM 1.73 35.114 0.079 7 10.49 14.58
12/20/2021 1:30:00 PM 1.78 35.204 0.079 7.08 13.03 14.57
12/20/2021 1:45:00 PM 1.81 35.258 0.079 6.98 12.42 14.55
12/20/2021 2:00:00 PM 1.84 35.312 0.079 7.08 11.43 14.57
12/20/2021 2:15:00 PM 1.87 35.366 0.079 7.09 8.85 14.58
12/20/2021 2:30:00 PM 1.9 35.42 0.079 7.1 6.76 14.58
12/20/2021 2:45:00 PM 1.94 35.492 0.079 7.08 5.3 14.58
12/20/2021 3:00:00 PM 1.96 35.528 0.079 7.11 4.89 14.57
12/20/2021 3:15:00 PM 1.98 35.564 0.079 7.11 4.17 14.54
12/20/2021 3:30:00 PM 1.98 35.564 0.079 7.1 4.28 14.49
12/20/2021 3:45:00 PM 1.97 35.546 0.079 7.12 4.85 14.44
12/20/2021 4:00:00 PM 1.94 35.492 0.079 7.09 5.33 14.37
12/20/2021 4:15:00 PM 1.91 35.438 0.079 7.08 5.97 14.28
12/20/2021 4:30:00 PM 1.9 35.42 0.079 7.07 5.83 14.21
12/20/2021 4:45:00 PM 1.91 35.438 0.079 7.05 5.32 14.14
12/20/2021 5:00:00 PM 1.92 35.456 0.079 7.04 4.87 14.09
12/20/2021 5:15:00 PM 1.94 35.492 0.079 6.98 4.55 14.01
12/20/2021 5:30:00 PM 1.95 35.51 0.079 6.97 4.07 13.96
12/20/2021 5:45:00 PM 1.96 35.528 0.079 6.96 3.86 13.89
12/20/2021 6:00:00 PM 1.97 35.546 0.079 6.94 3.77 13.85
12/20/2021 6:15:00 PM 1.97 35.546 0.079 6.94 3.41 13.8
12/20/2021 6:30:00 PM 1.97 35.546 0.079 6.94 3.32 13.76
12/20/2021 6:45:00 PM 1.97 35.546 0.079 6.91 3.43 13.72
12/20/2021 7:00:00 PM 1.96 35.528 0.079 6.9 3.35 13.68
12/20/2021 7:15:00 PM 1.95 35.51 0.08 6.91 3.39 13.65
12/20/2021 7:30:00 PM 1.92 35.456 0.079 6.9 3.46 13.63
12/20/2021 7:45:00 PM 1.89 35.402 0.08 6.91 3.28 13.61
12/20/2021 8:00:00 PM 1.85 35.33 0.08 6.87 3.37 13.59
12/20/2021 8:15:00 PM 1.81 35.258 0.079 6.86 3.38 13.58
12/20/2021 8:30:00 PM 1.77 35.186 0.08 6.86 3.48 13.57
12/20/2021 8:45:00 PM 1.73 35.114 0.08 6.84 3.52 13.58
12/20/2021 9:00:00 PM 1.69 35.042 0.079 6.83 3.35 13.57
12/20/2021 9:15:00 PM 1.66 34.988 0.08 6.84 3.57 13.57
12/20/2021 9:30:00 PM 1.63 34.934 0.08 6.85 3.5 13.57
12/20/2021 9:45:00 PM 1.59 34.862 0.08 6.83 3.58 13.56
12/20/2021 10:00:00 PM 1.56 34.808 0.08 6.84 3.56 13.57
12/20/2021 10:15:00 PM 1.53 34.754 0.08 6.83 3.5 13.56
12/20/2021 10:30:00 PM 1.5 34.7 0.08 6.92 3.46 13.56
12/20/2021 10:45:00 PM 1.47 34.646 0.08 6.92 3.57 13.56
12/20/2021 11:00:00 PM 1.44 34.592 0.08 6.82 3.63 13.56
12/20/2021 11:15:00 PM 1.4 34.52 0.08 6.92 3.67 13.57
12/20/2021 11:30:00 PM 1.36 34.448 0.08 6.91 3.74 13.57
12/20/2021 11:45:00 PM 1.33 34.394 0.08 6.91 3.83 13.58
12/21/2021 12:00:00 AM 1.3 34.34 0.08 6.91 4.02 13.59
12/21/2021 12:15:00 AM 1.26 34.268 0.08 6.91 3.99 13.59
12/21/2021 12:30:00 AM 1.22 34.196 0.08 6.91 3.83 13.6
12/21/2021 12:45:00 AM 1.19 34.142 0.08 6.84 3.81 13.61
12/21/2021 1:00:00 AM 1.15 34.07 0.08 6.84 3.8 13.62
12/21/2021 1:15:00 AM 1.12 34.016 0.08 6.9 3.57 13.63
12/21/2021 1:30:00 AM 1.08 33.944 0.08 6.89 3.51 13.65
12/21/2021 1:45:00 AM 1.05 33.89 0.08 6.89 3.61 13.65
12/21/2021 2:00:00 AM 1.02 33.836 0.08 6.87 3.48 13.67
12/21/2021 2:15:00 AM 0.99 33.782 0.08 6.89 3.59 13.69
12/21/2021 2:30:00 AM 0.96 33.728 0.08 6.8 3.7 13.69
12/21/2021 2:45:00 AM 0.93 33.674 0.08 6.81 3.69 13.71
12/21/2021 3:00:00 AM 0.91 33.638 0.08 6.83 3.63 13.71
12/21/2021 3:15:00 AM 0.88 33.584 0.08 6.82 3.61 13.72
12/21/2021 3:30:00 AM 0.86 33.548 0.08 6.83 3.63 13.73
12/21/2021 3:45:00 AM 0.84 33.512 0.08 6.82 3.7 13.74
12/21/2021 4:00:00 AM 0.82 33.476 0.08 6.82 3.74 13.75
12/21/2021 4:15:00 AM 0.8 33.44 0.08 6.81 3.67 13.76
12/21/2021 4:30:00 AM 0.79 33.422 0.08 6.8 3.67 13.76
12/21/2021 4:45:00 AM 0.8 33.44 0.08 6.81 3.88 13.76
12/21/2021 5:00:00 AM 0.8 33.44 0.08 6.79 3.84 13.76
12/21/2021 5:15:00 AM 0.81 33.458 0.08 6.81 3.99 13.77
12/21/2021 5:30:00 AM 0.82 33.476 0.08 6.79 4.02 13.77
12/21/2021 5:45:00 AM 0.83 33.494 0.08 6.81 3.89 13.77
12/21/2021 6:00:00 AM 0.83 33.494 0.08 6.8 3.93 13.77
12/21/2021 6:15:00 AM 0.84 33.512 0.08 6.81 3.72 13.78
12/21/2021 6:30:00 AM 0.84 33.512 0.08 6.78 3.84 13.78
12/21/2021 6:45:00 AM 0.84 33.512 0.08 6.9 3.69 13.78
12/21/2021 7:00:00 AM 0.84 33.512 0.08 6.9 3.77 13.77
12/21/2021 7:15:00 AM 0.85 33.53 0.08 6.9 3.32 13.78
12/21/2021 7:30:00 AM 0.85 33.53 0.08 6.84 3.38 13.79
12/21/2021 7:45:00 AM 0.84 33.512 0.08 6.9 3.35 13.8
12/21/2021 8:00:00 AM 0.84 33.512 0.08 6.8 3.3 13.83
12/21/2021 8:15:00 AM 0.84 33.512 0.08 6.91 3.29 13.89
12/21/2021 8:30:00 AM 0.85 33.53 0.08 6.92 3.19 13.95
12/21/2021 8:45:00 AM 0.86 33.548 0.08 6.93 3.19 14.02
12/21/2021 9:00:00 AM 0.89 33.602 0.08 6.94 3.14 14.1
12/21/2021 9:15:00 AM 0.95 33.71 0.08 6.93 3.07 14.16
12/21/2021 9:30:00 AM 1.01 33.818 0.08 6.96 3.25 14.21
12/21/2021 9:45:00 AM 1.07 33.926 0.08 6.97 3.14 14.25
12/21/2021 10:00:00 AM 1.14 34.052 0.08 6.98 3.21 14.28
12/21/2021 10:15:00 AM 1.22 34.196 0.08 6.94 3.19 14.32
12/21/2021 10:30:00 AM 1.29 34.322 0.08 6.94 3.21 14.34
12/21/2021 10:45:00 AM 1.36 34.448 0.08 6.94 3.15 14.38
12/21/2021 11:00:00 AM 1.4 34.52 0.08 6.95 3.06 14.4
12/21/2021 11:15:00 AM 1.48 34.664 0.079 6.96 2.94 14.43
12/21/2021 11:30:00 AM 1.6 34.88 0.079 6.95 3.13 14.44
12/21/2021 11:45:00 AM 1.72 35.096 0.079 6.99 3.2 14.46
12/21/2021 12:00:00 PM 1.85 35.33 0.079 7.01 3.09 14.46
12/21/2021 12:15:00 PM 1.97 35.546 0.079 7.01 3.29 14.46
12/21/2021 12:30:00 PM 2.05 35.69 0.079 7.01 3.22 14.45
12/21/2021 12:45:00 PM 2.12 35.816 0.079 7.02 3.08 14.45
12/21/2021 1:00:00 PM 2.2 35.96 0.079 7.02 3.34 14.43
12/21/2021 1:15:00 PM 2.26 36.068 0.079 7.02 3.33 14.42
12/21/2021 1:30:00 PM 2.29 36.122 0.079 7.03 3.34 14.39
12/21/2021 1:45:00 PM 2.31 36.158 0.079 7.11 3.27 14.37
12/21/2021 2:00:00 PM 2.34 36.212 0.079 7.11 3.31 14.36
12/21/2021 2:15:00 PM 2.38 36.284 0.079 7.12 3.41 14.33
12/21/2021 2:30:00 PM 2.41 36.338 0.079 7.11 3.2 14.3
12/21/2021 2:45:00 PM 2.45 36.41 0.079 7.12 3.28 14.28
12/21/2021 3:00:00 PM 2.47 36.446 0.079 7.12 3.21 14.26
12/21/2021 3:15:00 PM 2.48 36.464 0.079 7.08 3.27 14.23
12/21/2021 3:30:00 PM 2.47 36.446 0.079 7.12 3.23 14.2
12/21/2021 3:45:00 PM 2.47 36.446 0.079 7.11 3.15 14.15
12/21/2021 4:00:00 PM 2.45 36.41 0.078 7.11 3.24 14.1
12/21/2021 4:15:00 PM 2.45 36.41 0.078 7.12 3.27 14.04
12/21/2021 4:30:00 PM 2.44 36.392 0.078 7.08 3.29 13.96
12/21/2021 4:45:00 PM 2.45 36.41 0.078 7.08 3.56 13.88
12/21/2021 5:00:00 PM 2.45 36.41 0.079 7.04 3.94 13.79
12/21/2021 5:15:00 PM 2.45 36.41 0.078 6.95 4.96 13.71
12/21/2021 5:30:00 PM 2.46 36.428 0.078 7.03 5.78 13.64
12/21/2021 5:45:00 PM 2.48 36.464 0.079 7 6.35 13.58
12/21/2021 6:00:00 PM 2.49 36.482 0.078 7.01 6.91 13.53
12/21/2021 6:15:00 PM 2.5 36.5 0.078 7 6.9 13.48
12/21/2021 6:30:00 PM 2.51 36.518 0.078 7.01 6.85 13.45
12/21/2021 6:45:00 PM 2.52 36.536 0.078 7 6.97 13.4
12/21/2021 7:00:00 PM 2.51 36.518 0.078 6.99 7.19 13.37
12/21/2021 7:15:00 PM 2.5 36.5 0.079 7 6.84 13.33
12/21/2021 7:30:00 PM 2.47 36.446 0.079 6.99 6.68 13.31
12/21/2021 7:45:00 PM 2.43 36.374 0.079 6.95 6.28 13.29
12/21/2021 8:00:00 PM 2.39 36.302 0.079 6.89 5.93 13.28
12/21/2021 8:15:00 PM 2.34 36.212 0.079 6.95 6.5 13.26
12/21/2021 8:30:00 PM 2.29 36.122 0.079 6.95 7.62 13.26
12/21/2021 8:45:00 PM 2.24 36.032 0.079 6.93 8.16 13.26
12/21/2021 9:00:00 PM 2.2 35.96 0.079 6.96 9.41 13.26
12/21/2021 9:15:00 PM 2.16 35.888 0.079 6.93 9.31 13.25
12/21/2021 9:30:00 PM 2.12 35.816 0.079 6.94 9.55 13.26
12/21/2021 9:45:00 PM 2.08 35.744 0.079 6.86 11 13.26
12/21/2021 10:00:00 PM 2.04 35.672 0.079 6.94 14.49 13.25
12/21/2021 10:15:00 PM 2.01 35.618 0.079 6.83 17.47 13.25
12/21/2021 10:30:00 PM 1.97 35.546 0.079 6.93 21.51 13.24
12/21/2021 10:45:00 PM 1.94 35.492 0.079 6.83 24.83 13.25
12/21/2021 11:00:00 PM 1.91 35.438 0.079 6.92 25.17 13.25
12/21/2021 11:15:00 PM 1.88 35.384 0.079 6.93 24.31 13.25
12/21/2021 11:30:00 PM 1.84 35.312 0.079 6.92 21.07 13.25
12/21/2021 11:45:00 PM 1.8 35.24 0.08 6.92 20.51 13.25
12/22/2021 12:00:00 AM 1.77 35.186 0.08 6.92 21.88 13.25
12/22/2021 12:15:00 AM 1.73 35.114 0.08 6.91 15.35 13.26
12/22/2021 12:30:00 AM 1.69 35.042 0.079 6.92 14.06 13.29
12/22/2021 12:45:00 AM 1.65 34.97 0.079 6.87 14.09 13.28
12/22/2021 1:00:00 AM 1.61 34.898 0.08 6.92 13.16 13.29
12/22/2021 1:15:00 AM 1.57 34.826 0.08 6.9 11.52 13.3
12/22/2021 1:30:00 AM 1.53 34.754 0.08 6.93 10.68 13.31
12/22/2021 1:45:00 AM 1.49 34.682 0.08 6.91 10.01 13.33
12/22/2021 2:00:00 AM 1.45 34.61 0.08 6.91 8.63 13.33
12/22/2021 2:15:00 AM 1.41 34.538 0.08 6.91 7.93 13.36
12/22/2021 2:30:00 AM 1.38 34.484 0.08 6.91 7.5 13.36
12/22/2021 2:45:00 AM 1.34 34.412 0.08 6.91 6.96 13.37
12/22/2021 3:00:00 AM 1.3 34.34 0.08 6.9 6.99 13.38
12/22/2021 3:15:00 AM 1.26 34.268 0.08 6.89 6.46 13.38
12/22/2021 3:30:00 AM 1.23 34.214 0.08 6.9 5.87 13.41
12/22/2021 3:45:00 AM 1.19 34.142 0.08 6.81 6.03 13.41
12/22/2021 4:00:00 AM 1.15 34.07 0.08 6.9 5.76 13.43
12/22/2021 4:15:00 AM 1.12 34.016 0.08 6.89 5.46 13.43
12/22/2021 4:30:00 AM 1.09 33.962 0.08 6.89 5.55 13.44
12/22/2021 4:45:00 AM 1.05 33.89 0.08 6.9 5.37 13.46
12/22/2021 5:00:00 AM 1.02 33.836 0.08 6.9 5.43 13.47
12/22/2021 5:15:00 AM 1 33.8 0.08 6.9 5.03 13.48
12/22/2021 5:30:00 AM 0.97 33.746 0.08 6.88 5.1 13.49
12/22/2021 5:45:00 AM 0.96 33.728 0.08 6.9 4.89 13.49
12/22/2021 6:00:00 AM 0.95 33.71 0.08 6.9 4.87 13.5
12/22/2021 6:15:00 AM 0.96 33.728 0.08 6.9 4.78 13.51
12/22/2021 6:30:00 AM 0.96 33.728 0.08 6.9 4.67 13.51
12/22/2021 6:45:00 AM 0.94 33.692 0.08 6.85 4.48 13.52
12/22/2021 7:00:00 AM 0.95 33.71 0.08 6.9 4.67 13.52
12/22/2021 7:15:00 AM 0.95 33.71 0.08 6.82 4.41 13.52
12/22/2021 7:30:00 AM 0.95 33.71 0.08 6.9 4.28 13.52
12/22/2021 7:45:00 AM 0.95 33.71 0.08 6.9 4.22 13.54
12/22/2021 8:00:00 AM 0.96 33.728 0.08 6.91 4.04 13.56
12/22/2021 8:15:00 AM 0.97 33.746 0.08 6.9 4.02 13.58
12/22/2021 8:30:00 AM 0.99 33.782 0.08 6.91 4.03 13.63
12/22/2021 8:45:00 AM 1.02 33.836 0.08 6.83 4.21 13.68
12/22/2021 9:00:00 AM 1.05 33.89 0.079 6.93 4.08 13.74
12/22/2021 9:15:00 AM 1.09 33.962 0.079 6.94 4.11 13.81
12/22/2021 9:30:00 AM 1.13 34.034 0.079 6.95 4.17 13.86
12/22/2021 9:45:00 AM 1.17 34.106 0.079 6.96 4.16 13.9
12/22/2021 10:00:00 AM 1.21 34.178 0.079 6.91 4.14 13.93
12/22/2021 10:15:00 AM 1.25 34.25 0.079 6.92 4.07 13.97
12/22/2021 10:30:00 AM 1.34 34.412 0.079 6.9 3.94 14.01
12/22/2021 10:45:00 AM 1.37 34.466 0.079 7 4.02 14.02
12/22/2021 11:00:00 AM 1.4 34.52 0.079 6.9 3.93 14.02
12/22/2021 11:15:00 AM 1.44 34.592 0.079 7.01 3.91 14.02
12/22/2021 11:30:00 AM 1.46 34.628 0.079 6.93 3.93 14
12/22/2021 11:45:00 AM 1.48 34.664 0.079 7.02 3.85 14.02
12/22/2021 12:00:00 PM 1.52 34.736 0.079 7.02 3.68 14.05
12/22/2021 12:15:00 PM 1.57 34.826 0.079 7.03 3.63 14.09
12/22/2021 12:30:00 PM 1.64 34.952 0.079 7.04 3.63 14.11
12/22/2021 12:45:00 PM 1.67 35.006 0.079 7.05 3.9 14.1
12/22/2021 1:00:00 PM 1.72 35.096 0.079 7.05 3.92 14.12
12/22/2021 1:15:00 PM 1.78 35.204 0.079 6.98 3.95 14.13
12/22/2021 1:30:00 PM 1.79 35.222 0.079 7.07 4.05 14.12
12/22/2021 1:45:00 PM 1.79 35.222 0.079 7.03 4.21 14.12
12/22/2021 2:00:00 PM 1.79 35.222 0.079 7.07 4.35 14.14
12/22/2021 2:15:00 PM 1.85 35.33 0.079 6.98 4.2 14.17
12/22/2021 2:30:00 PM 1.9 35.42 0.078 7.09 3.98 14.18
12/22/2021 2:45:00 PM 1.95 35.51 0.078 7.1 4.04 14.19
12/22/2021 3:00:00 PM 1.97 35.546 0.078 7.09 4.14 14.16
12/22/2021 3:15:00 PM 1.96 35.528 0.078 7.11 3.72 14.13
12/22/2021 3:30:00 PM 1.93 35.474 0.078 7.09 3.57 14.08
12/22/2021 3:45:00 PM 1.91 35.438 0.078 7.01 3.58 14.04
12/22/2021 4:00:00 PM 1.88 35.384 0.078 7.09 3.55 13.99
12/22/2021 4:15:00 PM 1.88 35.384 0.079 6.99 3.53 13.92
12/22/2021 4:30:00 PM 1.87 35.366 0.079 7.06 3.56 13.86
12/22/2021 4:45:00 PM 1.86 35.348 0.078 7.05 3.62 13.82
12/22/2021 5:00:00 PM 1.85 35.33 0.078 7.04 3.61 13.79
12/22/2021 5:15:00 PM 1.84 35.312 0.078 7.03 3.46 13.76
12/22/2021 5:30:00 PM 1.81 35.258 0.079 7.02 3.62 13.72
12/22/2021 5:45:00 PM 1.8 35.24 0.078 7.03 3.61 13.7
12/22/2021 6:00:00 PM 1.79 35.222 0.078 7.01 3.38 13.65
12/22/2021 6:15:00 PM 1.78 35.204 0.079 7.01 3.44 13.63
12/22/2021 6:30:00 PM 1.76 35.168 0.078 7 3.27 13.6
12/22/2021 6:45:00 PM 1.75 35.15 0.078 6.99 3.29 13.57
12/22/2021 7:00:00 PM 1.72 35.096 0.078 6.98 3.31 13.56
12/22/2021 7:15:00 PM 1.7 35.06 0.078 6.98 3.44 13.54
12/22/2021 7:30:00 PM 1.67 35.006 0.078 6.97 3.33 13.53
12/22/2021 7:45:00 PM 1.63 34.934 0.078 6.97 3.55 13.52
12/22/2021 8:00:00 PM 1.6 34.88 0.079 6.97 3.36 13.5
12/22/2021 8:15:00 PM 1.56 34.808 0.079 6.96 3.46 13.51
12/22/2021 8:30:00 PM 1.53 34.754 0.079 6.95 3.41 13.5
12/22/2021 8:45:00 PM 1.52 34.736 0.079 6.95 3.52 13.5
12/22/2021 9:00:00 PM 1.5 34.7 0.079 6.95 3.43 13.51
12/22/2021 9:15:00 PM 1.48 34.664 0.079 6.94 3.33 13.51
12/22/2021 9:30:00 PM 1.46 34.628 0.079 6.94 3.47 13.51
12/22/2021 9:45:00 PM 1.43 34.574 0.079 6.95 3.51 13.5
12/22/2021 10:00:00 PM 1.4 34.52 0.079 6.94 3.4 13.5
12/22/2021 10:15:00 PM 1.36 34.448 0.079 6.94 3.56 13.5
12/22/2021 10:30:00 PM 1.33 34.394 0.079 6.93 3.57 13.51
12/22/2021 10:45:00 PM 1.3 34.34 0.079 6.92 3.74 13.52
12/22/2021 11:00:00 PM 1.27 34.286 0.079 6.86 3.81 13.52
12/22/2021 11:15:00 PM 1.25 34.25 0.079 6.84 3.95 13.52
12/22/2021 11:30:00 PM 1.23 34.214 0.079 6.87 4.08 13.54
12/22/2021 11:45:00 PM 1.21 34.178 0.079 6.92 4.16 13.53
12/23/2021 12:00:00 AM 1.19 34.142 0.079 6.83 4.51 13.54
12/23/2021 12:15:00 AM 1.17 34.106 0.079 6.83 4.39 13.54
12/23/2021 12:30:00 AM 1.15 34.07 0.079 6.85 4.42 13.55
12/23/2021 12:45:00 AM 1.13 34.034 0.08 6.83 4.4 13.56
12/23/2021 1:00:00 AM 1.12 34.016 0.079 6.92 4.11 13.56
12/23/2021 1:15:00 AM 1.1 33.98 0.079 6.84 4.02 13.58
12/23/2021 1:30:00 AM 1.09 33.962 0.079 6.92 4.24 13.58
12/23/2021 1:45:00 AM 1.08 33.944 0.079 6.82 3.81 13.59
12/23/2021 2:00:00 AM 1.06 33.908 0.079 6.77 3.72 13.6
12/23/2021 2:15:00 AM 1.05 33.89 0.079 6.91 3.6 13.6
12/23/2021 2:30:00 AM 1.04 33.872 0.079 6.85 3.68 13.62
12/23/2021 2:45:00 AM 1.02 33.836 0.08 6.86 3.58 13.62
12/23/2021 3:00:00 AM 1.01 33.818 0.079 6.83 3.55 13.63
12/23/2021 3:15:00 AM 0.99 33.782 0.079 6.78 3.5 13.64
12/23/2021 3:30:00 AM 0.97 33.746 0.079 6.9 3.38 13.65
12/23/2021 3:45:00 AM 0.94 33.692 0.079 6.9 792.53 13.66
12/23/2021 4:00:00 AM 0.92 33.656 0.08 6.9 3.42 13.66
12/23/2021 4:15:00 AM 0.9 33.62 0.08 6.9 3.34 13.68
12/23/2021 4:30:00 AM 0.88 33.584 0.08 6.82 3.3 13.68
12/23/2021 4:45:00 AM 0.86 33.548 0.08 6.81 3.25 13.69
12/23/2021 5:00:00 AM 0.85 33.53 0.08 6.89 3.44 13.7
12/23/2021 5:15:00 AM 0.84 33.512 0.079 6.81 3.27 13.7
12/23/2021 5:30:00 AM 0.84 33.512 0.08 6.91 3.19 13.71
12/23/2021 5:45:00 AM 0.83 33.494 0.08 6.91 3.17 13.72
12/23/2021 6:00:00 AM 0.83 33.494 0.08 6.82 3.21 13.72
12/23/2021 6:15:00 AM 0.82 33.476 0.08 6.87 3.18 13.72
12/23/2021 6:30:00 AM 0.81 33.458 0.079 6.9 3.07 13.73
12/23/2021 6:45:00 AM 0.8 33.44 0.08 6.79 3.16 13.73
12/23/2021 7:00:00 AM 0.79 33.422 0.08 6.81 3.1 13.74
12/23/2021 7:15:00 AM 0.78 33.404 0.08 6.9 3.17 13.75
12/23/2021 7:30:00 AM 0.77 33.386 0.08 6.9 3.17 13.76
12/23/2021 7:45:00 AM 0.76 33.368 0.08 6.9 3.14 13.77
12/23/2021 8:00:00 AM 0.77 33.386 0.08 6.92 3.03 13.79
12/23/2021 8:15:00 AM 0.77 33.386 0.08 6.91 3 13.83
12/23/2021 8:30:00 AM 0.78 33.404 0.08 6.92 2.99 13.88
12/23/2021 8:45:00 AM 0.78 33.404 0.08 6.77 3.09 13.93
12/23/2021 9:00:00 AM 0.79 33.422 0.08 6.93 3.12 14.01
12/23/2021 9:15:00 AM 0.81 33.458 0.08 6.97 3.12 14.08
12/23/2021 9:30:00 AM 0.83 33.494 0.079 6.97 3.05 14.15
12/23/2021 9:45:00 AM 0.86 33.548 0.079 6.98 3.14 14.22
12/23/2021 10:00:00 AM 0.89 33.602 0.079 6.89 3.09 14.28
12/23/2021 10:15:00 AM 0.94 33.692 0.079 7.01 3.08 14.33
12/23/2021 10:30:00 AM 0.99 33.782 0.079 7.01 3.18 14.36
12/23/2021 10:45:00 AM 1.03 33.854 0.079 7.01 3.14 14.4
12/23/2021 11:00:00 AM 1.07 33.926 0.079 6.88 3.03 14.43
12/23/2021 11:15:00 AM 1.12 34.016 0.079 7.03 3.08 14.46
12/23/2021 11:30:00 AM 1.13 34.034 0.079 7.05 3.07 14.48
12/23/2021 11:45:00 AM 1.17 34.106 0.079 7.05 3.03 14.51
12/23/2021 12:00:00 PM 1.22 34.196 0.079 7.06 3.24 14.55
12/23/2021 12:15:00 PM 1.25 34.25 0.079 6.9 2.99 14.57
12/23/2021 12:30:00 PM 1.27 34.286 0.079 7.08 3.09 14.58
12/23/2021 12:45:00 PM 1.31 34.358 0.079 7.09 3.06 14.61
12/23/2021 1:00:00 PM 1.37 34.466 0.079 7.1 3.1 14.63
12/23/2021 1:15:00 PM 1.49 34.682 0.079 7.1 3.27 14.64
12/23/2021 1:30:00 PM 1.57 34.826 0.078 7.11 3.18 14.64
12/23/2021 1:45:00 PM 1.67 35.006 0.079 7.11 2.99 14.62
12/23/2021 2:00:00 PM 1.73 35.114 0.079 7.08 3.09 14.61
12/23/2021 2:15:00 PM 1.74 35.132 0.079 7.12 3.25 14.59
12/23/2021 2:30:00 PM 1.72 35.096 0.079 7.05 3.21 14.58
12/23/2021 2:45:00 PM 1.7 35.06 0.079 7.13 3.35 14.58
12/23/2021 3:00:00 PM 1.66 34.988 0.079 7.03 3.18 14.55
12/23/2021 3:15:00 PM 1.64 34.952 0.079 7.12 3.19 14.54
12/23/2021 3:30:00 PM 1.63 34.934 0.079 7.05 3.18 14.52
12/23/2021 3:45:00 PM 1.62 34.916 0.079 7.11 3.09 14.48
12/23/2021 4:00:00 PM 1.62 34.916 0.079 7.11 3.34 14.45
12/23/2021 4:15:00 PM 1.61 34.898 0.079 7.12 3.18 14.4
12/23/2021 4:30:00 PM 1.6 34.88 0.079 7.1 3.14 14.33
12/23/2021 4:45:00 PM 1.58 34.844 0.079 7.05 3.09 14.25
12/23/2021 5:00:00 PM 1.56 34.808 0.078 7.07 3.18 14.2
12/23/2021 5:15:00 PM 1.54 34.772 0.079 7.06 3.19 14.14
12/23/2021 5:30:00 PM 1.54 34.772 0.079 7.02 3.18 14.07
12/23/2021 5:45:00 PM 1.54 34.772 0.079 7.04 3.23 14.02
12/23/2021 6:00:00 PM 1.55 34.79 0.079 7.03 3.25 13.98
12/23/2021 6:15:00 PM 1.57 34.826 0.079 7.01 3.2 13.93
12/23/2021 6:30:00 PM 1.59 34.862 0.079 6.98 3.28 13.9
12/23/2021 6:45:00 PM 1.6 34.88 0.079 7.01 2.98 13.88
12/23/2021 7:00:00 PM 1.62 34.916 0.079 7.01 3 13.83
12/23/2021 7:15:00 PM 1.63 34.934 0.079 7.01 3.16 13.79
12/23/2021 7:30:00 PM 1.63 34.934 0.079 6.99 3.38 13.77
12/23/2021 7:45:00 PM 1.63 34.934 0.079 7 3.17 13.75
12/23/2021 8:00:00 PM 1.62 34.916 0.079 6.96 3.21 13.71
12/23/2021 8:15:00 PM 1.6 34.88 0.079 6.97 3.13 13.69
12/23/2021 8:30:00 PM 1.59 34.862 0.079 6.96 3.05 13.68
12/23/2021 8:45:00 PM 1.57 34.826 0.079 6.97 3.06 13.67
12/23/2021 9:00:00 PM 1.55 34.79 0.079 6.82 3.09 13.66
12/23/2021 9:15:00 PM 1.52 34.736 0.079 6.95 3.09 13.63
12/23/2021 9:30:00 PM 1.51 34.718 0.079 6.95 3.08 13.63
12/23/2021 9:45:00 PM 1.5 34.7 0.079 6.83 2.99 13.62
12/23/2021 10:00:00 PM 1.49 34.682 0.079 6.94 3.05 13.62
12/23/2021 10:15:00 PM 1.48 34.664 0.079 6.91 3.08 13.59
12/23/2021 10:30:00 PM 1.47 34.646 0.079 6.92 3.05 13.59
12/23/2021 10:45:00 PM 1.47 34.646 0.079 6.93 3.21 13.59
12/23/2021 11:00:00 PM 1.47 34.646 0.079 6.91 3.21 13.56
12/23/2021 11:15:00 PM 1.46 34.628 0.08 6.92 3.12 13.57
12/23/2021 11:30:00 PM 1.46 34.628 0.079 6.92 3.17 13.55
12/23/2021 11:45:00 PM 1.45 34.61 0.08 6.92 3.15 13.55
12/24/2021 12:00:00 AM 1.44 34.592 0.08 6.93 3.18 13.54
12/24/2021 12:15:00 AM 1.43 34.574 0.08 6.93 3.14 13.54
12/24/2021 12:30:00 AM 1.41 34.538 0.08 6.82 3.09 13.54
12/24/2021 12:45:00 AM 1.39 34.502 0.08 6.93 3.05 13.53
12/24/2021 1:00:00 AM 1.35 34.43 0.08 6.93 3.17 13.53
12/24/2021 1:15:00 AM 1.33 34.394 0.08 6.94 2.96 13.54
12/24/2021 1:30:00 AM 1.32 34.376 0.08 6.87 3.15 13.53
12/24/2021 1:45:00 AM 1.31 34.358 0.08 6.93 3.2 13.53
12/24/2021 2:00:00 AM 1.25 34.25 0.08 6.93 3.2 13.54
12/24/2021 2:15:00 AM 1.22 34.196 0.08 6.93 3.14 13.53
12/24/2021 2:30:00 AM 1.2 34.16 0.08 6.92 3.2 13.54
12/24/2021 2:45:00 AM 1.19 34.142 0.08 6.93 3.33 13.54
12/24/2021 3:00:00 AM 1.18 34.124 0.08 6.94 3.23 13.55
12/24/2021 3:15:00 AM 1.16 34.088 0.08 6.86 3.17 13.56
12/24/2021 3:30:00 AM 1.15 34.07 0.08 6.93 3.24 13.56
12/24/2021 3:45:00 AM 1.13 34.034 0.08 6.8 3.27 13.56
12/24/2021 4:00:00 AM 1.14 34.052 0.08 6.92 3.18 13.57
12/24/2021 4:15:00 AM 1.13 34.034 0.08 6.93 3.26 13.57
12/24/2021 4:30:00 AM 1.13 34.034 0.08 6.92 3.14 13.57
12/24/2021 4:45:00 AM 1.13 34.034 0.08 6.92 3.1 13.57
12/24/2021 5:00:00 AM 1.13 34.034 0.08 6.93 3.11 13.58
12/24/2021 5:15:00 AM 1.13 34.034 0.08 6.93 3.12 13.58
12/24/2021 5:30:00 AM 1.13 34.034 0.08 6.85 3.12 13.58
12/24/2021 5:45:00 AM 1.13 34.034 0.08 6.94 3.07 13.58
12/24/2021 6:00:00 AM 1.13 34.034 0.08 6.92 3.09 13.59
12/24/2021 6:15:00 AM 1.13 34.034 0.08 6.85 3.07 13.58
12/24/2021 6:30:00 AM 1.13 34.034 0.08 6.81 3.04 13.6
12/24/2021 6:45:00 AM 1.14 34.052 0.08 6.92 3.19 13.59
12/24/2021 7:00:00 AM 1.15 34.07 0.08 6.81 3.23 13.59
12/24/2021 7:15:00 AM 1.15 34.07 0.08 6.82 3.03 13.59
12/24/2021 7:30:00 AM 1.16 34.088 0.08 6.93 3.21 13.59
12/24/2021 7:45:00 AM 1.17 34.106 0.08 6.87 3.1 13.59
12/24/2021 8:00:00 AM 1.17 34.106 0.08 6.86 3.09 13.61
12/24/2021 8:15:00 AM 1.18 34.124 0.081 6.81 2.96 13.66
12/24/2021 8:30:00 AM 1.19 34.142 0.081 6.89 3.08 13.71
12/24/2021 8:45:00 AM 1.2 34.16 0.081 6.9 3.04 13.77
12/24/2021 9:00:00 AM 1.22 34.196 0.081 6.97 3.05 13.84
12/24/2021 9:15:00 AM 1.25 34.25 0.081 6.98 2.98 13.9
12/24/2021 9:30:00 AM 1.28 34.304 0.081 6.87 3.16 13.98
12/24/2021 9:45:00 AM 1.32 34.376 0.081 7 3.02 14.03
12/24/2021 10:00:00 AM 1.35 34.43 0.081 7.01 3.01 14.07
12/24/2021 10:15:00 AM 1.38 34.484 0.08 7.02 2.98 14.11
12/24/2021 10:30:00 AM 1.41 34.538 0.08 6.94 2.99 14.14
12/24/2021 10:45:00 AM 1.45 34.61 0.08 6.97 3.02 14.17
12/24/2021 11:00:00 AM 1.47 34.646 0.08 7.04 3.12 14.2
12/24/2021 11:15:00 AM 1.5 34.7 0.08 7.03 2.94 14.22
12/24/2021 11:30:00 AM 1.54 34.772 0.08 7.06 3.01 14.24
12/24/2021 11:45:00 AM 1.57 34.826 0.08 6.99 2.94 14.27
12/24/2021 12:00:00 PM 1.6 34.88 0.08 7.01 3.17 14.29
12/24/2021 12:15:00 PM 1.64 34.952 0.08 7.02 2.99 14.31
12/24/2021 12:30:00 PM 1.67 35.006 0.08 7.04 2.94 14.32
12/24/2021 12:45:00 PM 1.72 35.096 0.079 7.1 2.92 14.32
12/24/2021 1:00:00 PM 1.77 35.186 0.08 7.11 2.93 14.35
12/24/2021 1:15:00 PM 1.82 35.276 0.079 7.12 2.89 14.35
12/24/2021 1:30:00 PM 1.89 35.402 0.079 7.06 2.96 14.38
12/24/2021 1:45:00 PM 1.97 35.546 0.079 7.14 2.96 14.39
12/24/2021 2:00:00 PM 2.03 35.654 0.079 7.08 2.96 14.4
12/24/2021 2:15:00 PM 2.11 35.798 0.079 7.07 2.96 14.4
12/24/2021 2:30:00 PM 2.16 35.888 0.079 7.17 2.89 14.38
12/24/2021 2:45:00 PM 2.19 35.942 0.079 7.02 3 14.36
12/24/2021 3:00:00 PM 2.21 35.978 0.079 7.12 2.92 14.34
12/24/2021 3:15:00 PM 2.21 35.978 0.079 7.11 3.03 14.33
12/24/2021 3:30:00 PM 2.19 35.942 0.079 7.06 3.07 14.3
12/24/2021 3:45:00 PM 2.16 35.888 0.079 7.09 2.92 14.27
12/24/2021 4:00:00 PM 2.14 35.852 0.079 7.15 2.99 14.24
12/24/2021 4:15:00 PM 2.14 35.852 0.079 7.15 2.97 14.18
12/24/2021 4:30:00 PM 2.15 35.87 0.079 7.13 3.08 14.11
12/24/2021 4:45:00 PM 2.16 35.888 0.079 7.13 2.95 14.03
12/24/2021 5:00:00 PM 2.16 35.888 0.079 7.11 3.15 13.95
12/24/2021 5:15:00 PM 2.17 35.906 0.079 7.1 3.06 13.87
12/24/2021 5:30:00 PM 2.17 35.906 0.079 7.04 3.18 13.81
12/24/2021 5:45:00 PM 2.17 35.906 0.079 7.01 3.17 13.76
12/24/2021 6:00:00 PM 2.16 35.888 0.079 6.96 3.11 13.72
12/24/2021 6:15:00 PM 2.16 35.888 0.079 7.05 3.13 13.68
12/24/2021 6:30:00 PM 2.16 35.888 0.079 7.04 3.22 13.65
12/24/2021 6:45:00 PM 2.16 35.888 0.079 7.04 3.09 13.62
12/24/2021 7:00:00 PM 2.17 35.906 0.079 7.04 3.16 13.58
12/24/2021 7:15:00 PM 2.17 35.906 0.079 7.03 3.15 13.55
12/24/2021 7:30:00 PM 2.18 35.924 0.08 7.03 3.2 13.51
12/24/2021 7:45:00 PM 2.19 35.942 0.08 6.96 3.12 13.48
12/24/2021 8:00:00 PM 2.2 35.96 0.08 7.01 3 13.44
12/24/2021 8:15:00 PM 2.2 35.96 0.079 6.94 3.14 13.41
12/24/2021 8:30:00 PM 2.21 35.978 0.08 7 3.14 13.38
12/24/2021 8:45:00 PM 2.21 35.978 0.08 7 3.14 13.36
12/24/2021 9:00:00 PM 2.21 35.978 0.08 6.99 3.02 13.34
12/24/2021 9:15:00 PM 2.2 35.96 0.08 6.95 3.24 13.32
12/24/2021 9:30:00 PM 2.21 35.978 0.08 6.99 3.08 13.3
12/24/2021 9:45:00 PM 2.21 35.978 0.08 6.91 3.07 13.29
12/24/2021 10:00:00 PM 2.21 35.978 0.08 6.92 3.07 13.28
12/24/2021 10:15:00 PM 2.21 35.978 0.08 6.87 3.14 13.26
12/24/2021 10:30:00 PM 2.21 35.978 0.08 6.91 3.1 13.25
12/24/2021 10:45:00 PM 2.2 35.96 0.08 6.91 3.17 13.25
12/24/2021 11:00:00 PM 2.21 35.978 0.08 6.89 3.33 13.22
12/24/2021 11:15:00 PM 2.21 35.978 0.08 6.89 3.03 13.22
12/24/2021 11:30:00 PM 2.22 35.996 0.08 6.9 3.04 13.2
12/24/2021 11:45:00 PM 2.23 36.014 0.08 6.94 3.33 13.19
12/25/2021 12:00:00 AM 2.24 36.032 0.08 6.95 3.12 13.17
12/25/2021 12:15:00 AM 2.26 36.068 0.08 6.89 3.03 13.16
12/25/2021 12:30:00 AM 2.27 36.086 0.081 6.89 3.21 13.16
12/25/2021 12:45:00 AM 2.28 36.104 0.08 6.89 3.05 13.14
12/25/2021 1:00:00 AM 2.29 36.122 0.08 6.89 3.17 13.13
12/25/2021 1:15:00 AM 2.3 36.14 0.081 6.84 3.1 13.12
12/25/2021 1:30:00 AM 2.3 36.14 0.081 6.95 3.22 13.11
12/25/2021 1:45:00 AM 2.31 36.158 0.081 6.95 3.12 13.1
12/25/2021 2:00:00 AM 2.31 36.158 0.081 6.92 3.15 13.1
12/25/2021 2:15:00 AM 2.32 36.176 0.081 6.95 3.12 13.08
12/25/2021 2:30:00 AM 2.33 36.194 0.081 6.95 3.18 13.08
12/25/2021 2:45:00 AM 2.34 36.212 0.081 6.95 3.17 13.07
12/25/2021 3:00:00 AM 2.35 36.23 0.081 6.93 3.21 13.06
12/25/2021 3:15:00 AM 2.36 36.248 0.082 6.93 3.35 13.05
12/25/2021 3:30:00 AM 2.38 36.284 0.081 6.93 3.28 13.04
12/25/2021 3:45:00 AM 2.39 36.302 0.081 6.94 3.27 13.03
12/25/2021 4:00:00 AM 2.4 36.32 0.081 6.89 3.18 13.03
12/25/2021 4:15:00 AM 2.42 36.356 0.081 6.88 3.31 13.02
12/25/2021 4:30:00 AM 2.43 36.374 0.081 6.94 3.37 13.01
12/25/2021 4:45:00 AM 2.44 36.392 0.082 6.87 3.48 13
12/25/2021 5:00:00 AM 2.45 36.41 0.082 6.93 3.36 12.99
12/25/2021 5:15:00 AM 2.47 36.446 0.082 6.94 3.59 12.98
12/25/2021 5:30:00 AM 2.48 36.464 0.082 6.94 3.77 12.98
12/25/2021 5:45:00 AM 2.49 36.482 0.082 6.87 4.19 12.97
12/25/2021 6:00:00 AM 2.5 36.5 0.083 6.88 4.13 12.96
12/25/2021 6:15:00 AM 2.51 36.518 0.084 6.94 5.62 12.96
12/25/2021 6:30:00 AM 2.52 36.536 0.083 6.87 6.46 12.96
12/25/2021 6:45:00 AM 2.53 36.554 0.084 6.85 10.43 12.95
12/25/2021 7:00:00 AM 2.55 36.59 0.085 6.92 13.24 12.95
12/25/2021 7:15:00 AM 2.56 36.608 0.089 6.89 12.76 12.94
12/25/2021 7:30:00 AM 2.57 36.626 0.094 6.96 15.01 12.94
12/25/2021 7:45:00 AM 2.57 36.626 0.097 6.95 17.5 12.93
12/25/2021 8:00:00 AM 2.58 36.644 0.099 6.97 15.73 12.95
12/25/2021 8:15:00 AM 2.58 36.644 0.101 6.98 11.49 12.96
12/25/2021 8:30:00 AM 2.58 36.644 0.103 6.98 12.23 12.98
12/25/2021 8:45:00 AM 2.59 36.662 0.106 6.99 10.09 13.03
12/25/2021 9:00:00 AM 2.59 36.662 0.108 6.92 10.14 13.07
12/25/2021 9:15:00 AM 2.59 36.662 0.11 6.96 10.4 13.1
12/25/2021 9:30:00 AM 2.59 36.662 0.112 6.98 10.32 13.13
12/25/2021 9:45:00 AM 2.6 36.68 0.114 7.01 12.11 13.14
12/25/2021 10:00:00 AM 2.6 36.68 0.115 7.01 17.02 13.15
12/25/2021 10:15:00 AM 2.61 36.698 0.115 7 21.58 13.16
12/25/2021 10:30:00 AM 2.62 36.716 0.115 7.04 30.02 13.16
12/25/2021 10:45:00 AM 2.63 36.734 0.115 7.05 32.51 13.18
12/25/2021 11:00:00 AM 2.65 36.77 0.116 7.06 27.23 13.2
12/25/2021 11:15:00 AM 2.66 36.788 0.117 7.01 26.06 13.23
12/25/2021 11:30:00 AM 2.7 36.86 0.116 7.09 26.97 13.27
12/25/2021 11:45:00 AM 2.73 36.914 0.116 7.08 23.2 13.3
12/25/2021 12:00:00 PM 2.74 36.932 0.114 7.06 23.23 13.29
12/25/2021 12:15:00 PM 2.75 36.95 0.114 7.06 22.33 13.27
12/25/2021 12:30:00 PM 2.76 36.968 0.114 7.11 28.98 13.27
12/25/2021 12:45:00 PM 2.79 37.022 0.112 7.12 26.57 13.27
12/25/2021 1:00:00 PM 2.81 37.058 0.109 7.13 26.75 13.27
12/25/2021 1:15:00 PM 2.84 37.112 0.106 7.13 21.19 13.27
12/25/2021 1:30:00 PM 2.86 37.148 0.103 7.13 31.28 13.27
12/25/2021 1:45:00 PM 2.88 37.184 0.1 7.12 29.07 13.27
12/25/2021 2:00:00 PM 2.91 37.238 0.098 7.05 28.54 13.26
12/25/2021 2:15:00 PM 2.96 37.328 0.096 7.12 28.52 13.26
12/25/2021 2:30:00 PM 3.01 37.418 0.095 7.12 27.29 13.26
12/25/2021 2:45:00 PM 3.03 37.454 0.094 7.12 23.23 13.24
12/25/2021 3:00:00 PM 3.06 37.508 0.092 7.1 25.99 13.21
12/25/2021 3:15:00 PM 3.09 37.562 0.09 7.09 25.65 13.18
12/25/2021 3:30:00 PM 3.12 37.616 0.089 7.02 23.1 13.17
12/25/2021 3:45:00 PM 3.15 37.67 0.088 7 21.24 13.14
12/25/2021 4:00:00 PM 3.17 37.706 0.086 6.99 23.44 13.12
12/25/2021 4:15:00 PM 3.19 37.742 0.085 6.97 22.69 13.09
12/25/2021 4:30:00 PM 3.2 37.76 0.085 6.95 21.05 13.05
12/25/2021 4:45:00 PM 3.21 37.778 0.084 6.95 21.56 13.02
12/25/2021 5:00:00 PM 3.22 37.796 0.084 6.92 20.52 13
12/25/2021 5:15:00 PM 3.24 37.832 0.084 6.98 37.08 12.97
12/25/2021 5:30:00 PM 3.25 37.85 0.083 6.98 20.12 12.94
12/25/2021 5:45:00 PM 3.26 37.868 0.083 6.97 20.42 12.92
12/25/2021 6:00:00 PM 3.28 37.904 0.083 6.96 18.18 12.9
12/25/2021 6:15:00 PM 3.29 37.922 0.082 6.96 18.24 12.89
12/25/2021 6:30:00 PM 3.3 37.94 0.082 6.95 14.3 12.87
12/25/2021 6:45:00 PM 3.31 37.958 0.082 6.91 16.2 12.85
12/25/2021 7:00:00 PM 3.32 37.976 0.082 6.89 16.88 12.85
12/25/2021 7:15:00 PM 3.34 38.012 0.081 6.9 14.82 12.82
12/25/2021 7:30:00 PM 3.35 38.03 0.081 6.93 15.69 12.81
12/25/2021 7:45:00 PM 3.37 38.066 0.081 6.87 15.4 12.79
12/25/2021 8:00:00 PM 3.38 38.084 0.08 6.9 15.71 12.77
12/25/2021 8:15:00 PM 3.39 38.102 0.081 6.91 14.47 12.76
12/25/2021 8:30:00 PM 3.41 38.138 0.08 6.9 14.01 12.75
12/25/2021 8:45:00 PM 3.43 38.174 0.08 6.87 14.14 12.73
12/25/2021 9:00:00 PM 3.45 38.21 0.08 6.84 13.47 12.72
12/25/2021 9:15:00 PM 3.47 38.246 0.08 6.89 13.61 12.71
12/25/2021 9:30:00 PM 3.48 38.264 0.08 6.9 13.07 12.71
12/25/2021 9:45:00 PM 3.5 38.3 0.08 6.9 12.58 12.7
12/25/2021 10:00:00 PM 3.51 38.318 0.079 6.9 12.59 12.7
12/25/2021 10:15:00 PM 3.52 38.336 0.079 6.89 12.08 12.69
12/25/2021 10:30:00 PM 3.53 38.354 0.079 6.82 12.38 12.69
12/25/2021 10:45:00 PM 3.54 38.372 0.079 6.89 11.66 12.68
12/25/2021 11:00:00 PM 3.56 38.408 0.079 6.89 11.74 12.68
12/25/2021 11:15:00 PM 3.57 38.426 0.079 6.83 10.77 12.67
12/25/2021 11:30:00 PM 3.58 38.444 0.079 6.88 10.49 12.67
12/25/2021 11:45:00 PM 3.59 38.462 0.079 6.87 10.88 12.67
12/26/2021 12:00:00 AM 3.59 38.462 0.079 6.83 10.71 12.66
12/26/2021 12:15:00 AM 3.6 38.48 0.079 6.89 11.08 12.67
12/26/2021 12:30:00 AM 3.61 38.498 0.079 6.88 10.57 12.66
12/26/2021 12:45:00 AM 3.62 38.516 0.079 6.87 9.94 12.66
12/26/2021 1:00:00 AM 3.62 38.516 0.079 6.89 9.61 12.65
12/26/2021 1:15:00 AM 3.63 38.534 0.079 6.84 9.46 12.65
12/26/2021 1:30:00 AM 3.63 38.534 0.079 6.84 8.97 12.65
12/26/2021 1:45:00 AM 3.64 38.552 0.079 6.87 9.17 12.65
12/26/2021 2:00:00 AM 3.64 38.552 0.078 6.81 8.85 12.65
12/26/2021 2:15:00 AM 3.63 38.534 0.079 6.88 9.11 12.65
12/26/2021 2:30:00 AM 3.63 38.534 0.079 6.84 8.76 12.65
12/26/2021 2:45:00 AM 3.63 38.534 0.079 6.87 8.41 12.65
12/26/2021 3:00:00 AM 3.62 38.516 0.079 6.88 8.56 12.65
12/26/2021 3:15:00 AM 3.62 38.516 0.078 6.87 8.32 12.66
12/26/2021 3:30:00 AM 3.61 38.498 0.079 6.82 8.17 12.66
12/26/2021 3:45:00 AM 3.61 38.498 0.078 6.89 8.09 12.66
12/26/2021 4:00:00 AM 3.61 38.498 0.078 6.85 8.02 12.66
12/26/2021 4:15:00 AM 3.6 38.48 0.078 6.85 8.32 12.66
12/26/2021 4:30:00 AM 3.59 38.462 0.079 6.83 7.55 12.67
12/26/2021 4:45:00 AM 3.59 38.462 0.078 6.83 7.49 12.68
12/26/2021 5:00:00 AM 3.58 38.444 0.078 6.85 7.31 12.68
12/26/2021 5:15:00 AM 3.56 38.408 0.078 6.84 7.43 12.68
12/26/2021 5:30:00 AM 3.55 38.39 0.078 6.85 7.39 12.69
12/26/2021 5:45:00 AM 3.53 38.354 0.078 6.85 7.29 12.7
12/26/2021 6:00:00 AM 3.52 38.336 0.078 6.84 7.21 12.71
12/26/2021 6:15:00 AM 3.5 38.3 0.078 6.88 7.53 12.71
12/26/2021 6:30:00 AM 3.48 38.264 0.078 6.81 7.29 12.71
12/26/2021 6:45:00 AM 3.46 38.228 0.078 6.83 7 12.72
12/26/2021 7:00:00 AM 3.45 38.21 0.078 6.84 6.88 12.73
12/26/2021 7:15:00 AM 3.44 38.192 0.078 6.79 6.74 12.73
12/26/2021 7:30:00 AM 3.42 38.156 0.078 6.84 6.83 12.75
12/26/2021 7:45:00 AM 3.4 38.12 0.078 6.81 7.05 12.76
12/26/2021 8:00:00 AM 3.38 38.084 0.078 6.8 6.7 12.78
12/26/2021 8:15:00 AM 3.35 38.03 0.078 6.82 6.71 12.82
12/26/2021 8:30:00 AM 3.36 38.048 0.078 6.82 6.78 12.86
12/26/2021 8:45:00 AM 3.36 38.048 0.078 6.83 6.43 12.9
12/26/2021 9:00:00 AM 3.37 38.066 0.078 6.78 6.51 12.95
12/26/2021 9:15:00 AM 3.38 38.084 0.078 6.91 6.48 12.99
12/26/2021 9:30:00 AM 3.4 38.12 0.078 6.89 6.35 13.04
12/26/2021 9:45:00 AM 3.41 38.138 0.078 6.89 6.05 13.09
12/26/2021 10:00:00 AM 3.43 38.174 0.078 6.9 6.15 13.13
12/26/2021 10:15:00 AM 3.46 38.228 0.078 6.96 6.2 13.17
12/26/2021 10:30:00 AM 3.48 38.264 0.078 6.91 6.24 13.2
12/26/2021 10:45:00 AM 3.5 38.3 0.078 6.92 5.73 13.24
12/26/2021 11:00:00 AM 3.52 38.336 0.078 6.97 5.78 13.26
12/26/2021 11:15:00 AM 3.54 38.372 0.077 6.9 5.74 13.29
12/26/2021 11:30:00 AM 3.57 38.426 0.078 6.96 5.63 13.32
12/26/2021 11:45:00 AM 3.6 38.48 0.077 6.99 5.49 13.35
12/26/2021 12:00:00 PM 3.63 38.534 0.077 6.95 5.61 13.37
12/26/2021 12:15:00 PM 3.67 38.606 0.077 6.98 5.45 13.4
12/26/2021 12:30:00 PM 3.71 38.678 0.077 7 5.44 13.42
12/26/2021 12:45:00 PM 3.74 38.732 0.077 6.97 5.32 13.43
12/26/2021 1:00:00 PM 3.77 38.786 0.077 7.06 5.33 13.44
12/26/2021 1:15:00 PM 3.79 38.822 0.077 7.01 5.4 13.45
12/26/2021 1:30:00 PM 3.81 38.858 0.077 7.01 5.34 13.47
12/26/2021 1:45:00 PM 3.82 38.876 0.077 7.06 5.31 13.46
12/26/2021 2:00:00 PM 3.82 38.876 0.077 6.99 5.19 13.44
12/26/2021 2:15:00 PM 3.83 38.894 0.077 7.01 5.23 13.43
12/26/2021 2:30:00 PM 3.83 38.894 0.077 7.06 4.98 13.4
12/26/2021 2:45:00 PM 3.85 38.93 0.077 7.06 4.83 13.41
12/26/2021 3:00:00 PM 3.86 38.948 0.077 7.06 4.95 13.41
12/26/2021 3:15:00 PM 3.88 38.984 0.077 7.06 4.81 13.4
12/26/2021 3:30:00 PM 3.88 38.984 0.077 7.05 4.77 13.37
12/26/2021 3:45:00 PM 3.87 38.966 0.077 7.05 4.89 13.32
12/26/2021 4:00:00 PM 3.86 38.948 0.077 7.03 4.64 13.27
12/26/2021 4:15:00 PM 3.84 38.912 0.077 7.01 4.72 13.23
12/26/2021 4:30:00 PM 3.83 38.894 0.077 7.02 4.65 13.18
12/26/2021 4:45:00 PM 3.81 38.858 0.077 7.02 4.72 13.14
12/26/2021 5:00:00 PM 3.8 38.84 0.077 6.91 4.83 13.11
12/26/2021 5:15:00 PM 3.78 38.804 0.077 6.91 4.78 13.07
12/26/2021 5:30:00 PM 3.77 38.786 0.077 6.91 4.77 13.04
12/26/2021 5:45:00 PM 3.76 38.768 0.077 6.9 4.99 13.01
12/26/2021 6:00:00 PM 3.74 38.732 0.077 6.97 4.65 12.98
12/26/2021 6:15:00 PM 3.72 38.696 0.077 6.89 4.85 12.96
12/26/2021 6:30:00 PM 3.69 38.642 0.077 6.96 4.73 12.94
12/26/2021 6:45:00 PM 3.66 38.588 0.077 6.96 4.72 12.93
12/26/2021 7:00:00 PM 3.64 38.552 0.077 6.94 4.66 12.91
12/26/2021 7:15:00 PM 3.61 38.498 0.077 6.87 4.69 12.9
12/26/2021 7:30:00 PM 3.58 38.444 0.077 6.89 4.88 12.89
12/26/2021 7:45:00 PM 3.56 38.408 0.077 6.85 4.75 12.88
12/26/2021 8:00:00 PM 3.53 38.354 0.077 6.94 4.71 12.88
12/26/2021 8:15:00 PM 3.5 38.3 0.077 6.88 4.81 12.87
12/26/2021 8:30:00 PM 3.47 38.246 0.077 6.85 4.65 12.87
12/26/2021 8:45:00 PM 3.44 38.192 0.077 6.85 4.64 12.87
12/26/2021 9:00:00 PM 3.41 38.138 0.077 6.85 4.77 12.87
12/26/2021 9:15:00 PM 3.38 38.084 0.078 6.91 4.71 12.86
12/26/2021 9:30:00 PM 3.36 38.048 0.077 6.89 4.57 12.87
12/26/2021 9:45:00 PM 3.34 38.012 0.077 6.9 4.67 12.87
12/26/2021 10:00:00 PM 3.32 37.976 0.078 6.85 4.65 12.87
12/26/2021 10:15:00 PM 3.3 37.94 0.078 6.88 4.4 12.87
12/26/2021 10:30:00 PM 3.28 37.904 0.077 6.83 4.45 12.87
12/26/2021 10:45:00 PM 3.25 37.85 0.077 6.8 4.5 12.87
12/26/2021 11:00:00 PM 3.23 37.814 0.078 6.81 4.48 12.88
12/26/2021 11:15:00 PM 3.2 37.76 0.078 6.84 4.56 12.88
12/26/2021 11:30:00 PM 3.16 37.688 0.078 6.88 4.29 12.89
12/26/2021 11:45:00 PM 3.13 37.634 0.078 6.84 4.42 12.9
12/27/2021 12:00:00 AM 3.1 37.58 0.078 6.88 4.43 12.91
12/27/2021 12:15:00 AM 3.08 37.544 0.078 6.79 4.28 12.91
12/27/2021 12:30:00 AM 3.05 37.49 0.078 6.85 4.48 12.93
12/27/2021 12:45:00 AM 3.02 37.436 0.078 6.86 4.36 12.94
12/27/2021 1:00:00 AM 2.98 37.364 0.078 6.83 4.53 12.95
12/27/2021 1:15:00 AM 2.94 37.292 0.078 6.9 4.51 12.96
12/27/2021 1:30:00 AM 2.9 37.22 0.078 6.88 4.49 12.98
12/27/2021 1:45:00 AM 2.86 37.148 0.078 6.84 4.29 12.99
12/27/2021 2:00:00 AM 2.81 37.058 0.078 6.84 4.34 13.01
12/27/2021 2:15:00 AM 2.76 36.968 0.078 6.82 4.39 13.02
12/27/2021 2:30:00 AM 2.72 36.896 0.078 6.84 4.18 13.03
12/27/2021 2:45:00 AM 2.67 36.806 0.078 6.9 4.38 13.04
12/27/2021 3:00:00 AM 2.63 36.734 0.078 6.83 4.34 13.05
12/27/2021 3:15:00 AM 2.58 36.644 0.078 6.88 4.32 13.06
12/27/2021 3:30:00 AM 2.55 36.59 0.078 6.81 4.25 13.08
12/27/2021 3:45:00 AM 2.51 36.518 0.078 6.82 4.22 13.09
12/27/2021 4:00:00 AM 2.48 36.464 0.078 6.81 4.16 13.1
12/27/2021 4:15:00 AM 2.46 36.428 0.078 6.81 4.17 13.11
12/27/2021 4:30:00 AM 2.43 36.374 0.078 6.89 4.34 13.13
12/27/2021 4:45:00 AM 2.41 36.338 0.078 6.83 4.25 13.14
12/27/2021 5:00:00 AM 2.39 36.302 0.078 6.83 4.31 13.15
12/27/2021 5:15:00 AM 2.36 36.248 0.078 6.84 4.29 13.16
12/27/2021 5:30:00 AM 2.34 36.212 0.078 6.83 4.03 13.17
12/27/2021 5:45:00 AM 2.31 36.158 0.078 6.83 4.19 13.18
12/27/2021 6:00:00 AM 2.29 36.122 0.078 6.86 4.05 13.18
12/27/2021 6:15:00 AM 2.27 36.086 0.078 6.91 4.06 13.2
12/27/2021 6:30:00 AM 2.26 36.068 0.078 6.79 4.02 13.21
12/27/2021 6:45:00 AM 2.24 36.032 0.078 6.86 3.91 13.22
12/27/2021 7:00:00 AM 2.23 36.014 0.078 6.86 3.99 13.22
12/27/2021 7:15:00 AM 2.21 35.978 0.078 6.84 3.89 13.23
12/27/2021 7:30:00 AM 2.2 35.96 0.078 6.81 4.01 13.24
12/27/2021 7:45:00 AM 2.19 35.942 0.078 6.85 3.91 13.25
12/27/2021 8:00:00 AM 2.17 35.906 0.078 6.8 3.91 13.26
12/27/2021 8:15:00 AM 2.16 35.888 0.078 6.9 3.97 13.27
12/27/2021 8:30:00 AM 2.15 35.87 0.078 6.83 3.92 13.29
12/27/2021 8:45:00 AM 2.14 35.852 0.078 6.85 3.88 13.32
12/27/2021 9:00:00 AM 2.13 35.834 0.078 6.91 3.63 13.34
12/27/2021 9:15:00 AM 2.12 35.816 0.078 6.91 3.72 13.37
12/27/2021 9:30:00 AM 2.11 35.798 0.078 6.85 3.84 13.39
12/27/2021 9:45:00 AM 2.11 35.798 0.078 6.92 3.78 13.41
12/27/2021 10:00:00 AM 2.11 35.798 0.078 6.87 3.87 13.47
12/27/2021 10:15:00 AM 2.12 35.816 0.078 6.81 3.86 13.52
12/27/2021 10:30:00 AM 2.13 35.834 0.078 6.89 3.84 13.55
12/27/2021 10:45:00 AM 2.14 35.852 0.077 6.89 3.85 13.6
12/27/2021 11:00:00 AM 2.15 35.87 0.077 6.86 3.76 13.64
12/27/2021 11:15:00 AM 2.16 35.888 0.077 6.96 3.87 13.67
12/27/2021 11:30:00 AM 2.18 35.924 0.078 6.94 3.88 13.7
12/27/2021 11:45:00 AM 2.19 35.942 0.077 6.99 3.87 13.73
12/27/2021 12:00:00 PM 2.21 35.978 0.077 6.9 3.77 13.74
12/27/2021 12:15:00 PM 2.22 35.996 0.077 7 3.8 13.76
12/27/2021 12:30:00 PM 2.22 35.996 0.077 6.93 3.95 13.76
12/27/2021 12:45:00 PM 2.2 35.96 0.077 7.01 3.83 13.77
12/27/2021 1:00:00 PM 2.22 35.996 0.077 6.94 3.87 13.8
12/27/2021 1:15:00 PM 2.24 36.032 0.077 6.94 3.87 13.82
12/27/2021 1:30:00 PM 2.26 36.068 0.077 7.02 4.07 13.85
12/27/2021 1:45:00 PM 2.28 36.104 0.077 7.02 3.87 13.87
12/27/2021 2:00:00 PM 2.3 36.14 0.077 7.03 3.74 13.87
12/27/2021 2:15:00 PM 2.32 36.176 0.077 7.05 3.75 13.87
12/27/2021 2:30:00 PM 2.33 36.194 0.077 6.97 3.83 13.85
12/27/2021 2:45:00 PM 2.34 36.212 0.077 7.04 3.98 13.83
12/27/2021 3:00:00 PM 2.34 36.212 0.077 7.02 3.75 13.81
12/27/2021 3:15:00 PM 2.35 36.23 0.077 7.02 3.68 13.79
12/27/2021 3:30:00 PM 2.36 36.248 0.077 6.91 3.62 13.75
12/27/2021 3:45:00 PM 2.37 36.266 0.077 7.02 3.63 13.74
12/27/2021 4:00:00 PM 2.38 36.284 0.077 7.02 3.62 13.71
12/27/2021 4:15:00 PM 2.38 36.284 0.077 6.93 3.55 13.67
12/27/2021 4:30:00 PM 2.39 36.302 0.077 6.92 3.49 13.63
12/27/2021 4:45:00 PM 2.38 36.284 0.077 6.99 3.61 13.58
12/27/2021 5:00:00 PM 2.37 36.266 0.077 6.91 3.6 13.54
12/27/2021 5:15:00 PM 2.37 36.266 0.077 6.99 3.68 13.51
12/27/2021 5:30:00 PM 2.37 36.266 0.077 6.97 3.72 13.48
12/27/2021 5:45:00 PM 2.33 36.194 0.077 6.97 3.93 13.45
12/27/2021 6:00:00 PM 2.34 36.212 0.077 6.97 3.88 13.42
12/27/2021 6:15:00 PM 2.35 36.23 0.077 6.86 3.96 13.4
12/27/2021 6:30:00 PM 2.36 36.248 0.077 6.96 3.71 13.37
12/27/2021 6:45:00 PM 2.37 36.266 0.077 6.96 3.89 13.35
12/27/2021 7:00:00 PM 2.37 36.266 0.077 6.88 3.79 13.32
12/27/2021 7:15:00 PM 2.37 36.266 0.077 6.93 3.72 13.3
12/27/2021 7:30:00 PM 2.37 36.266 0.077 6.94 3.65 13.28
12/27/2021 7:45:00 PM 2.33 36.194 0.077 6.85 3.99 13.27
12/27/2021 8:00:00 PM 2.34 36.212 0.077 6.9 4.27 13.26
12/27/2021 8:15:00 PM 2.33 36.194 0.077 6.93 4.05 13.24
12/27/2021 8:30:00 PM 2.33 36.194 0.077 6.86 4.12 13.23
12/27/2021 8:45:00 PM 2.31 36.158 0.077 6.93 5.53 13.22
12/27/2021 9:00:00 PM 2.32 36.176 0.078 6.86 5.15 13.21
12/27/2021 9:15:00 PM 2.32 36.176 0.081 6.92 4.57 13.19
12/27/2021 9:30:00 PM 2.32 36.176 0.082 6.9 5.37 13.19
12/27/2021 9:45:00 PM 2.32 36.176 0.083 6.9 5.33 13.17
12/27/2021 10:00:00 PM 2.31 36.158 0.086 6.93 5.08 13.16
12/27/2021 10:15:00 PM 2.3 36.14 0.087 6.93 4.67 13.15
12/27/2021 10:30:00 PM 2.29 36.122 0.088 6.88 4.52 13.15
12/27/2021 10:45:00 PM 2.28 36.104 0.088 6.94 4.27 13.15
12/27/2021 11:00:00 PM 2.26 36.068 0.087 6.93 4.18 13.15
12/27/2021 11:15:00 PM 2.25 36.05 0.086 6.92 4.06 13.15
12/27/2021 11:30:00 PM 2.24 36.032 0.085 6.92 4.14 13.15
12/27/2021 11:45:00 PM 2.23 36.014 0.085 6.92 4.48 13.15
12/28/2021 12:00:00 AM 2.23 36.014 0.085 6.84 4.3 13.15
12/28/2021 12:15:00 AM 2.24 36.032 0.085 6.92 4.18 13.15
12/28/2021 12:30:00 AM 2.25 36.05 0.085 6.92 4.13 13.14
12/28/2021 12:45:00 AM 2.25 36.05 0.085 6.86 4.2 13.14
12/28/2021 1:00:00 AM 2.26 36.068 0.087 6.92 4.19 13.14
12/28/2021 1:15:00 AM 2.26 36.068 0.087 6.92 4.04 13.14
12/28/2021 1:30:00 AM 2.27 36.086 0.088 6.88 3.99 13.14
12/28/2021 1:45:00 AM 2.27 36.086 0.088 6.92 4.07 13.14
12/28/2021 2:00:00 AM 2.27 36.086 0.088 6.88 4.03 13.14
12/28/2021 2:15:00 AM 2.27 36.086 0.088 6.92 4.13 13.15
12/28/2021 2:30:00 AM 2.28 36.104 0.088 6.92 3.97 13.14
12/28/2021 2:45:00 AM 2.28 36.104 0.088 6.85 4.08 13.14
12/28/2021 3:00:00 AM 2.29 36.122 0.088 6.82 4.01 13.13
12/28/2021 3:15:00 AM 2.29 36.122 0.088 6.8 4.11 13.14
12/28/2021 3:30:00 AM 2.3 36.14 0.088 6.92 3.94 13.13
12/28/2021 3:45:00 AM 2.31 36.158 0.088 6.94 3.83 13.12
12/28/2021 4:00:00 AM 2.32 36.176 0.088 6.91 4.01 13.12
12/28/2021 4:15:00 AM 2.33 36.194 0.087 6.91 3.9 13.12
12/28/2021 4:30:00 AM 2.34 36.212 0.087 6.92 4.01 13.11
12/28/2021 4:45:00 AM 2.34 36.212 0.087 6.88 3.99 13.12
12/28/2021 5:00:00 AM 2.34 36.212 0.087 6.91 3.87 13.11
12/28/2021 5:15:00 AM 2.33 36.194 0.087 6.82 3.87 13.11
12/28/2021 5:30:00 AM 2.31 36.158 0.087 6.86 3.8 13.11
12/28/2021 5:45:00 AM 2.3 36.14 0.087 6.88 3.8 13.11
12/28/2021 6:00:00 AM 2.28 36.104 0.086 6.92 3.72 13.12
12/28/2021 6:15:00 AM 2.27 36.086 0.086 6.92 3.82 13.12
12/28/2021 6:30:00 AM 2.25 36.05 0.086 6.9 4.04 13.12
12/28/2021 6:45:00 AM 2.24 36.032 0.086 6.92 3.87 13.13
12/28/2021 7:00:00 AM 2.22 35.996 0.086 6.87 3.73 13.13
12/28/2021 7:15:00 AM 2.2 35.96 0.086 6.91 3.86 13.14
12/28/2021 7:30:00 AM 2.18 35.924 0.086 6.91 3.85 13.15
12/28/2021 7:45:00 AM 2.16 35.888 0.085 6.92 3.81 13.17
12/28/2021 8:00:00 AM 2.14 35.852 0.085 6.92 3.67 13.2
12/28/2021 8:15:00 AM 2.12 35.816 0.085 6.93 3.82 13.24
12/28/2021 8:30:00 AM 2.11 35.798 0.085 6.87 3.7 13.29
12/28/2021 8:45:00 AM 2.11 35.798 0.085 6.9 3.69 13.33
12/28/2021 9:00:00 AM 2.12 35.816 0.085 6.94 3.65 13.39
12/28/2021 9:15:00 AM 2.13 35.834 0.085 6.96 3.71 13.43
12/28/2021 9:30:00 AM 2.15 35.87 0.085 6.95 3.58 13.48
12/28/2021 9:45:00 AM 2.18 35.924 0.084 6.98 3.7 13.52
12/28/2021 10:00:00 AM 2.24 36.032 0.084 6.91 3.73 13.58
12/28/2021 10:15:00 AM 2.31 36.158 0.084 7 3.71 13.62
12/28/2021 10:30:00 AM 2.4 36.32 0.084 7 3.69 13.65
12/28/2021 10:45:00 AM 2.47 36.446 0.084 7.02 3.78 13.69
12/28/2021 11:00:00 AM 2.55 36.59 0.084 7.02 3.73 13.71
12/28/2021 11:15:00 AM 2.66 36.788 0.083 7.04 4.47 13.74
12/28/2021 11:30:00 AM 2.76 36.968 0.083 7.04 3.97 13.75
12/28/2021 11:45:00 AM 2.85 37.13 0.083 7.05 3.82 13.76
12/28/2021 12:00:00 PM 2.93 37.274 0.083 7.06 3.74 13.76
12/28/2021 12:15:00 PM 2.97 37.346 0.083 7.06 3.68 13.76
12/28/2021 12:30:00 PM 3.05 37.49 0.083 7.07 3.63 13.76
12/28/2021 12:45:00 PM 3.09 37.562 0.083 7.07 3.71 13.76
12/28/2021 1:00:00 PM 3.13 37.634 0.082 7.07 3.74 13.76
12/28/2021 1:15:00 PM 3.18 37.724 0.083 7.09 3.8 13.76
12/28/2021 1:30:00 PM 3.22 37.796 0.083 7.1 3.86 13.74
12/28/2021 1:45:00 PM 3.26 37.868 0.083 7.08 3.8 13.73
12/28/2021 2:00:00 PM 3.29 37.922 0.083 7.1 3.93 13.7
12/28/2021 2:15:00 PM 3.31 37.958 0.083 7.09 3.85 13.67
12/28/2021 2:30:00 PM 3.32 37.976 0.083 7.06 3.89 13.63
12/28/2021 2:45:00 PM 3.34 38.012 0.083 7.01 3.86 13.61
12/28/2021 3:00:00 PM 3.38 38.084 0.083 7.05 3.86 13.61
12/28/2021 3:15:00 PM 3.4 38.12 0.084 7.03 4.04 13.55
12/28/2021 3:30:00 PM 3.43 38.174 0.083 7.05 3.86 13.51
12/28/2021 3:45:00 PM 3.46 38.228 0.084 7.02 4.05 13.46
12/28/2021 4:00:00 PM 3.48 38.264 0.084 7.07 3.84 13.39
12/28/2021 4:15:00 PM 3.5 38.3 0.084 7.03 3.93 13.32
12/28/2021 4:30:00 PM 3.52 38.336 0.084 7.02 3.74 13.26
12/28/2021 4:45:00 PM 3.53 38.354 0.084 7.03 3.74 13.21
12/28/2021 5:00:00 PM 3.54 38.372 0.084 7.05 3.84 13.16
12/28/2021 5:15:00 PM 3.55 38.39 0.084 6.97 3.89 13.12
12/28/2021 5:30:00 PM 3.55 38.39 0.084 6.98 3.88 13.08
12/28/2021 5:45:00 PM 3.55 38.39 0.084 7 3.88 13.04
12/28/2021 6:00:00 PM 3.55 38.39 0.084 6.97 3.87 13.01
12/28/2021 6:15:00 PM 3.55 38.39 0.084 6.98 3.74 12.98
12/28/2021 6:30:00 PM 3.54 38.372 0.084 6.96 3.91 12.96
12/28/2021 6:45:00 PM 3.53 38.354 0.083 6.92 4.03 12.93
12/28/2021 7:00:00 PM 3.5 38.3 0.083 6.99 4.4 12.92
12/28/2021 7:15:00 PM 3.38 38.084 0.083 6.97 4.93 12.9
12/28/2021 7:30:00 PM 3.26 37.868 0.083 6.98 4.67 12.88
12/28/2021 7:45:00 PM 3.15 37.67 0.083 6.97 4.6 12.87
12/28/2021 8:00:00 PM 3.07 37.526 0.083 6.96 4.74 12.88
12/28/2021 8:15:00 PM 3.03 37.454 0.083 6.94 4.88 12.89
12/28/2021 8:30:00 PM 3.02 37.436 0.083 6.93 4.6 12.89
12/28/2021 8:45:00 PM 3.02 37.436 0.083 6.94 4.5 12.88
12/28/2021 9:00:00 PM 2.99 37.382 0.083 6.93 4.66 12.88
12/28/2021 9:15:00 PM 2.92 37.256 0.083 6.88 4.82 12.89
12/28/2021 9:30:00 PM 2.88 37.184 0.083 6.92 4.54 12.89
12/28/2021 9:45:00 PM 2.84 37.112 0.083 6.88 4.49 12.9
12/28/2021 10:00:00 PM 2.82 37.076 0.083 6.9 4.53 12.91
12/28/2021 10:15:00 PM 2.82 37.076 0.083 6.93 4.32 12.92
12/28/2021 10:30:00 PM 2.81 37.058 0.083 6.92 4.35 12.92
12/28/2021 10:45:00 PM 2.81 37.058 0.083 6.83 4.15 12.93
12/28/2021 11:00:00 PM 2.79 37.022 0.084 6.93 4.28 12.93
12/28/2021 11:15:00 PM 2.78 37.004 0.084 6.92 4.19 12.94
12/28/2021 11:30:00 PM 2.78 37.004 0.084 6.93 4.21 12.94
12/28/2021 11:45:00 PM 2.77 36.986 0.084 6.88 4.16 12.94
12/29/2021 12:00:00 AM 2.76 36.968 0.084 6.92 4.28 12.95
12/29/2021 12:15:00 AM 2.75 36.95 0.085 6.91 4.12 12.96
12/29/2021 12:30:00 AM 2.74 36.932 0.084 6.92 4.2 12.96
12/29/2021 12:45:00 AM 2.72 36.896 0.085 6.91 4.11 12.97
12/29/2021 1:00:00 AM 2.7 36.86 0.085 6.84 4.41 12.98
12/29/2021 1:15:00 AM 2.69 36.842 0.085 6.9 4.29 12.98
12/29/2021 1:30:00 AM 2.67 36.806 0.085 6.9 4.27 12.99
12/29/2021 1:45:00 AM 2.66 36.788 0.086 6.91 4.16 13
12/29/2021 2:00:00 AM 2.65 36.77 0.086 6.91 4.24 13
12/29/2021 2:15:00 AM 2.65 36.77 0.086 6.91 4.19 13
12/29/2021 2:30:00 AM 2.64 36.752 0.087 6.87 4.16 13
12/29/2021 2:45:00 AM 2.64 36.752 0.087 6.92 4.08 13
12/29/2021 3:00:00 AM 2.64 36.752 0.088 6.92 4.26 13
12/29/2021 3:15:00 AM 2.64 36.752 0.088 6.89 4.23 13
12/29/2021 3:30:00 AM 2.64 36.752 0.088 6.91 4.2 13
12/29/2021 3:45:00 AM 2.64 36.752 0.088 6.92 4.34 13
12/29/2021 4:00:00 AM 2.65 36.77 0.088 6.92 4.38 13
12/29/2021 4:15:00 AM 2.65 36.77 0.088 6.78 4.42 13
12/29/2021 4:30:00 AM 2.65 36.77 0.088 6.85 4.45 13
12/29/2021 4:45:00 AM 2.66 36.788 0.089 6.84 4.54 12.99
12/29/2021 5:00:00 AM 2.66 36.788 0.089 6.91 4.51 12.99
12/29/2021 5:15:00 AM 2.67 36.806 0.09 6.9 4.5 12.99
12/29/2021 5:30:00 AM 2.67 36.806 0.09 6.9 4.54 12.99
12/29/2021 5:45:00 AM 2.67 36.806 0.091 6.9 4.41 12.99
12/29/2021 6:00:00 AM 2.68 36.824 0.092 6.82 4.46 12.98
12/29/2021 6:15:00 AM 2.68 36.824 0.092 6.89 4.51 12.98
12/29/2021 6:30:00 AM 2.68 36.824 0.092 6.78 4.4 12.99
12/29/2021 6:45:00 AM 2.69 36.842 0.093 6.85 4.63 12.98
12/29/2021 7:00:00 AM 2.69 36.842 0.093 6.83 4.49 12.98
12/29/2021 7:15:00 AM 2.69 36.842 0.093 6.9 4.54 12.98
12/29/2021 7:30:00 AM 2.7 36.86 0.094 6.81 4.51 12.98
12/29/2021 7:45:00 AM 2.7 36.86 0.095 6.85 4.53 12.99
12/29/2021 8:00:00 AM 2.71 36.878 0.095 6.83 4.38 12.99
12/29/2021 8:15:00 AM 2.72 36.896 0.096 6.87 4.58 13.01
12/29/2021 8:30:00 AM 2.73 36.914 0.096 6.92 4.6 13.03
12/29/2021 8:45:00 AM 2.74 36.932 0.096 6.87 4.42 13.05
12/29/2021 9:00:00 AM 2.75 36.95 0.096 6.86 4.82 13.09
12/29/2021 9:15:00 AM 2.77 36.986 0.096 6.94 4.45 13.13
12/29/2021 9:30:00 AM 2.79 37.022 0.096 6.87 4.47 13.16
12/29/2021 9:45:00 AM 2.81 37.058 0.097 6.91 4.37 13.21
12/29/2021 10:00:00 AM 2.83 37.094 0.097 6.9 4.44 13.23
12/29/2021 10:15:00 AM 2.85 37.13 0.097 6.97 4.28 13.27
12/29/2021 10:30:00 AM 2.88 37.184 0.097 6.92 4.66 13.32
12/29/2021 10:45:00 AM 2.92 37.256 0.097 6.89 4.7 13.36
12/29/2021 11:00:00 AM 2.96 37.328 0.098 6.89 4.81 13.39
12/29/2021 11:15:00 AM 3.01 37.418 0.098 7.01 5.05 13.42
12/29/2021 11:30:00 AM 3.04 37.472 0.099 7.01 5.17 13.42
12/29/2021 11:45:00 AM 3.07 37.526 0.099 6.95 6.09 13.44
12/29/2021 12:00:00 PM 3.11 37.598 0.1 6.98 7.71 13.46
12/29/2021 12:15:00 PM 3.16 37.688 0.101 7.05 7.7 13.48
12/29/2021 12:30:00 PM 3.21 37.778 0.102 7.02 8.7 13.5
12/29/2021 12:45:00 PM 3.26 37.868 0.102 7.01 7.86 13.52
12/29/2021 1:00:00 PM 3.31 37.958 0.103 7.02 7.99 13.53
12/29/2021 1:15:00 PM 3.35 38.03 0.103 7.09 7.25 13.52
12/29/2021 1:30:00 PM 3.39 38.102 0.104 7.08 6.71 13.54
12/29/2021 1:45:00 PM 3.42 38.156 0.105 7.1 6.57 13.53
12/29/2021 2:00:00 PM 3.46 38.228 0.105 7.08 6.21 13.52
12/29/2021 2:15:00 PM 3.48 38.264 0.106 7.12 6.15 13.52
12/29/2021 2:30:00 PM 3.5 38.3 0.106 7.12 6.01 13.49
12/29/2021 2:45:00 PM 3.53 38.354 0.106 7.12 6.29 13.48
12/29/2021 3:00:00 PM 3.56 38.408 0.107 7.13 5.83 13.47
12/29/2021 3:15:00 PM 3.59 38.462 0.107 7.13 6.09 13.45
12/29/2021 3:30:00 PM 3.62 38.516 0.107 7.12 5.95 13.41
12/29/2021 3:45:00 PM 3.64 38.552 0.107 7.12 6.29 13.36
12/29/2021 4:00:00 PM 3.65 38.57 0.106 7.11 6.34 13.32
12/29/2021 4:15:00 PM 3.67 38.606 0.106 7.08 6.48 13.27
12/29/2021 4:30:00 PM 3.68 38.624 0.106 7.03 6.8 13.22
12/29/2021 4:45:00 PM 3.69 38.642 0.106 7 6.81 13.18
12/29/2021 5:00:00 PM 3.7 38.66 0.105 7.05 6.81 13.14
12/29/2021 5:15:00 PM 3.71 38.678 0.105 6.96 6.94 13.09
12/29/2021 5:30:00 PM 3.71 38.678 0.104 7 6.88 13.06
12/29/2021 5:45:00 PM 3.72 38.696 0.103 6.97 7.1 13.02
12/29/2021 6:00:00 PM 3.72 38.696 0.103 6.98 7.04 12.99
12/29/2021 6:15:00 PM 3.73 38.714 0.102 6.98 7.11 12.96
12/29/2021 6:30:00 PM 3.73 38.714 0.101 7.01 7.17 12.93
12/29/2021 6:45:00 PM 3.74 38.732 0.1 7.02 7.16 12.91
12/29/2021 7:00:00 PM 3.74 38.732 0.099 7.01 6.9 12.89
12/29/2021 7:15:00 PM 3.75 38.75 0.098 6.99 6.63 12.87
12/29/2021 7:30:00 PM 3.75 38.75 0.097 6.92 7.06 12.85
12/29/2021 7:45:00 PM 3.76 38.768 0.096 6.93 6.93 12.83
12/29/2021 8:00:00 PM 3.76 38.768 0.095 6.98 6.58 12.81
12/29/2021 8:15:00 PM 3.77 38.786 0.094 6.86 6.99 12.79
12/29/2021 8:30:00 PM 3.77 38.786 0.094 6.91 6.77 12.78
12/29/2021 8:45:00 PM 3.77 38.786 0.093 6.9 6.67 12.76
12/29/2021 9:00:00 PM 3.77 38.786 0.092 6.95 6.64 12.75
12/29/2021 9:15:00 PM 3.77 38.786 0.092 6.93 6.38 12.74
12/29/2021 9:30:00 PM 3.76 38.768 0.091 6.89 6.32 12.73
12/29/2021 9:45:00 PM 3.76 38.768 0.091 6.89 6.53 12.72
12/29/2021 10:00:00 PM 3.76 38.768 0.091 6.89 6.29 12.72
12/29/2021 10:15:00 PM 3.76 38.768 0.09 6.92 6.07 12.72
12/29/2021 10:30:00 PM 3.76 38.768 0.09 6.84 6.23 12.72
12/29/2021 10:45:00 PM 3.76 38.768 0.09 6.83 6.13 12.71
12/29/2021 11:00:00 PM 3.75 38.75 0.089 6.9 6.03 12.71
12/29/2021 11:15:00 PM 3.75 38.75 0.089 6.85 6.24 12.71
12/29/2021 11:30:00 PM 3.75 38.75 0.089 6.85 6.21 12.71
12/29/2021 11:45:00 PM 3.75 38.75 0.089 6.83 5.87 12.7
12/30/2021 12:00:00 AM 3.74 38.732 0.089 6.86 5.93 12.69
12/30/2021 12:15:00 AM 3.74 38.732 0.088 6.91 6.24 12.7
12/30/2021 12:30:00 AM 3.74 38.732 0.088 6.87 5.86 12.7
12/30/2021 12:45:00 AM 3.74 38.732 0.087 6.91 5.58 12.7
12/30/2021 1:00:00 AM 3.74 38.732 0.087 6.9 5.58 12.7
12/30/2021 1:15:00 AM 3.74 38.732 0.087 6.84 5.49 12.69
12/30/2021 1:30:00 AM 3.74 38.732 0.087 6.84 5.55 12.69
12/30/2021 1:45:00 AM 3.74 38.732 0.087 6.89 5.45 12.69
12/30/2021 2:00:00 AM 3.74 38.732 0.086 6.84 5.56 12.69
12/30/2021 2:15:00 AM 3.73 38.714 0.086 6.82 5.82 12.68
12/30/2021 2:30:00 AM 3.73 38.714 0.086 6.85 5.98 12.69
12/30/2021 2:45:00 AM 3.73 38.714 0.086 6.86 5.26 12.68
12/30/2021 3:00:00 AM 3.72 38.696 0.086 6.81 5.49 12.68
12/30/2021 3:15:00 AM 3.72 38.696 0.086 6.81 5.2 12.68
12/30/2021 3:30:00 AM 3.72 38.696 0.086 6.82 5.3 12.68
12/30/2021 3:45:00 AM 3.73 38.714 0.085 6.81 5.11 12.67
12/30/2021 4:00:00 AM 3.73 38.714 0.085 6.81 5 12.67
12/30/2021 4:15:00 AM 3.73 38.714 0.085 6.83 4.92 12.67
12/30/2021 4:30:00 AM 3.73 38.714 0.085 6.81 5.04 12.67
12/30/2021 4:45:00 AM 3.73 38.714 0.085 6.85 4.97 12.67
12/30/2021 5:00:00 AM 3.73 38.714 0.085 6.84 4.93 12.67
12/30/2021 5:15:00 AM 3.73 38.714 0.085 6.81 4.63 12.66
12/30/2021 5:30:00 AM 3.73 38.714 0.085 6.81 4.79 12.66
12/30/2021 5:45:00 AM 3.74 38.732 0.084 6.84 4.8 12.66
12/30/2021 6:00:00 AM 3.74 38.732 0.084 6.8 4.98 12.66
12/30/2021 6:15:00 AM 3.74 38.732 0.084 6.88 4.8 12.65
12/30/2021 6:30:00 AM 3.75 38.75 0.084 6.78 4.68 12.66
12/30/2021 6:45:00 AM 3.75 38.75 0.084 6.83 4.77 12.65
12/30/2021 7:00:00 AM 3.75 38.75 0.084 6.82 4.69 12.65
12/30/2021 7:15:00 AM 3.76 38.768 0.084 6.84 4.54 12.65
12/30/2021 7:30:00 AM 3.76 38.768 0.084 6.82 4.64 12.65
12/30/2021 7:45:00 AM 3.77 38.786 0.084 6.71 4.56 12.65
12/30/2021 8:00:00 AM 3.77 38.786 0.084 6.79 4.62 12.66
12/30/2021 8:15:00 AM 3.78 38.804 0.084 6.78 4.63 12.66
12/30/2021 8:30:00 AM 3.79 38.822 0.084 6.89 4.6 12.67
12/30/2021 8:45:00 AM 3.8 38.84 0.084 6.88 4.4 12.68
12/30/2021 9:00:00 AM 3.81 38.858 0.084 6.78 4.29 12.72
12/30/2021 9:15:00 AM 3.82 38.876 0.084 6.8 4.3 12.74
12/30/2021 9:30:00 AM 3.84 38.912 0.083 6.82 4.42 12.78
12/30/2021 9:45:00 AM 3.86 38.948 0.083 6.84 4.19 12.81
12/30/2021 10:00:00 AM 3.88 38.984 0.083 6.84 4.22 12.85
12/30/2021 10:15:00 AM 3.9 39.02 0.083 6.85 4.21 12.88
12/30/2021 10:30:00 AM 3.92 39.056 0.083 6.86 4.16 12.91
12/30/2021 10:45:00 AM 3.95 39.11 0.083 6.88 4.21 12.94
12/30/2021 11:00:00 AM 3.97 39.146 0.083 6.89 4.15 12.96
12/30/2021 11:15:00 AM 3.99 39.182 0.083 6.89 3.99 12.99
12/30/2021 11:30:00 AM 4.02 39.236 0.083 6.94 4.08 13.01
12/30/2021 11:45:00 AM 4.05 39.29 0.083 6.81 3.94 13.03
12/30/2021 12:00:00 PM 4.08 39.344 0.083 6.92 4.01 13.06
12/30/2021 12:15:00 PM 4.12 39.416 0.083 6.93 3.96 13.08
12/30/2021 12:30:00 PM 4.15 39.47 0.083 6.94 4.14 13.1
12/30/2021 12:45:00 PM 4.18 39.524 0.083 6.93 3.95 13.11
12/30/2021 1:00:00 PM 4.22 39.596 0.083 7 3.88 13.13
12/30/2021 1:15:00 PM 4.25 39.65 0.082 6.95 3.86 13.14
12/30/2021 1:30:00 PM 4.3 39.74 0.083 7 4.11 13.15
12/30/2021 1:45:00 PM 4.34 39.812 0.082 7.03 4.11 13.17
12/30/2021 2:00:00 PM 4.38 39.884 0.082 7.04 3.99 13.17
12/30/2021 2:15:00 PM 4.41 39.938 0.082 6.95 4.02 13.17
12/30/2021 2:30:00 PM 4.43 39.974 0.082 6.96 3.95 13.14
12/30/2021 2:45:00 PM 4.45 40.01 0.082 6.98 3.82 13.1
12/30/2021 3:00:00 PM 4.47 40.046 0.082 6.99 3.92 13.09
12/30/2021 3:15:00 PM 4.49 40.082 0.082 6.97 3.92 13.06
12/30/2021 3:30:00 PM 4.51 40.118 0.082 6.93 3.92 13.03
12/30/2021 3:45:00 PM 4.52 40.136 0.082 6.95 4.16 12.99
12/30/2021 4:00:00 PM 4.53 40.154 0.082 6.94 3.88 12.93
12/30/2021 4:15:00 PM 4.54 40.172 0.082 6.92 3.82 12.87
12/30/2021 4:30:00 PM 4.55 40.19 0.082 6.92 3.84 12.82
12/30/2021 4:45:00 PM 4.55 40.19 0.082 6.87 3.74 12.78
12/30/2021 5:00:00 PM 4.56 40.208 0.082 6.9 4 12.74
12/30/2021 5:15:00 PM 4.57 40.226 0.082 6.92 4.22 12.71
12/30/2021 5:30:00 PM 4.57 40.226 0.082 6.9 4.06 12.67
12/30/2021 5:45:00 PM 4.58 40.244 0.082 6.89 3.98 12.65
12/30/2021 6:00:00 PM 4.58 40.244 0.082 6.87 4.18 12.62
12/30/2021 6:15:00 PM 4.59 40.262 0.082 6.88 4.27 12.58
12/30/2021 6:30:00 PM 4.6 40.28 0.082 6.87 4.37 12.56
12/30/2021 6:45:00 PM 4.6 40.28 0.082 6.89 4.18 12.53
12/30/2021 7:00:00 PM 4.61 40.298 0.082 6.87 4.13 12.51
12/30/2021 7:15:00 PM 4.62 40.316 0.082 6.89 4.02 12.49
12/30/2021 7:30:00 PM 4.62 40.316 0.082 6.92 4.01 12.47
12/30/2021 7:45:00 PM 4.63 40.334 0.082 6.91 4.07 12.45
12/30/2021 8:00:00 PM 4.63 40.334 0.082 6.87 4.01 12.43
12/30/2021 8:15:00 PM 4.63 40.334 0.082 6.91 3.91 12.42
12/30/2021 8:30:00 PM 4.63 40.334 0.082 6.91 4.01 12.4
12/30/2021 8:45:00 PM 4.63 40.334 0.083 6.8 3.94 12.39
12/30/2021 9:00:00 PM 4.63 40.334 0.083 6.79 4.19 12.38
12/30/2021 9:15:00 PM 4.63 40.334 0.083 6.89 4.03 12.37
12/30/2021 9:30:00 PM 4.63 40.334 0.083 6.88 4.07 12.36
12/30/2021 9:45:00 PM 4.63 40.334 0.083 6.87 4.14 12.35
12/30/2021 10:00:00 PM 4.63 40.334 0.083 6.83 4.08 12.35
12/30/2021 10:15:00 PM 4.63 40.334 0.083 6.83 4.03 12.34
12/30/2021 10:30:00 PM 4.61 40.298 0.083 6.82 4.08 12.34
12/30/2021 10:45:00 PM 4.6 40.28 0.083 6.83 4.13 12.34
12/30/2021 11:00:00 PM 4.58 40.244 0.083 6.8 4.09 12.34
12/30/2021 11:15:00 PM 4.57 40.226 0.083 6.81 4.12 12.34
12/30/2021 11:30:00 PM 4.56 40.208 0.083 6.8 4 12.34
12/30/2021 11:45:00 PM 4.56 40.208 0.083 6.81 4.17 12.34
12/31/2021 12:00:00 AM 4.56 40.208 0.083 6.82 4.09 12.34
12/31/2021 12:15:00 AM 4.56 40.208 0.083 6.8 4.2 12.34
12/31/2021 12:30:00 AM 4.56 40.208 0.083 6.82 3.99 12.34
12/31/2021 12:45:00 AM 4.57 40.226 0.083 6.82 4.04 12.34
12/31/2021 1:00:00 AM 4.57 40.226 0.083 6.83 4.05 12.34
12/31/2021 1:15:00 AM 4.57 40.226 0.083 6.83 3.94 12.34
12/31/2021 1:30:00 AM 4.57 40.226 0.083 6.84 3.91 12.35
12/31/2021 1:45:00 AM 4.57 40.226 0.083 6.82 3.85 12.34
12/31/2021 2:00:00 AM 4.57 40.226 0.084 6.83 3.78 12.34
12/31/2021 2:15:00 AM 4.57 40.226 0.083 6.87 3.9 12.34
12/31/2021 2:30:00 AM 4.57 40.226 0.083 6.78 3.82 12.34
12/31/2021 2:45:00 AM 4.57 40.226 0.083 6.84 3.96 12.34
12/31/2021 3:00:00 AM 4.57 40.226 0.083 6.86 3.94 12.34
12/31/2021 3:15:00 AM 4.57 40.226 0.083 6.86 4.08 12.34
12/31/2021 3:30:00 AM 4.57 40.226 0.083 6.83 3.97 12.34
12/31/2021 3:45:00 AM 4.57 40.226 0.083 6.82 4.07 12.34
12/31/2021 4:00:00 AM 4.58 40.244 0.083 6.87 3.87 12.34
12/31/2021 4:15:00 AM 4.58 40.244 0.083 6.66 3.92 12.34
12/31/2021 4:30:00 AM 4.58 40.244 0.083 6.82 4.03 12.33
12/31/2021 4:45:00 AM 4.58 40.244 0.083 6.84 4.09 12.33
12/31/2021 5:00:00 AM 4.58 40.244 0.083 6.85 4.18 12.33
12/31/2021 5:15:00 AM 4.59 40.262 0.083 6.84 4.07 12.33
12/31/2021 5:30:00 AM 4.6 40.28 0.083 6.88 3.85 12.32
12/31/2021 5:45:00 AM 4.6 40.28 0.083 6.88 4.04 12.32
12/31/2021 6:00:00 AM 4.6 40.28 0.083 6.88 4.14 12.32
12/31/2021 6:15:00 AM 4.6 40.28 0.083 6.8 4.22 12.32
12/31/2021 6:30:00 AM 4.61 40.298 0.083 6.81 4.08 12.32
12/31/2021 6:45:00 AM 4.61 40.298 0.083 6.86 3.93 12.31
12/31/2021 7:00:00 AM 4.61 40.298 0.083 6.85 3.91 12.32
12/31/2021 7:15:00 AM 4.62 40.316 0.083 6.77 4.64 12.31
12/31/2021 7:30:00 AM 4.62 40.316 0.083 6.86 4.5 12.31
12/31/2021 7:45:00 AM 4.62 40.316 0.083 6.84 3.78 12.32
12/31/2021 8:00:00 AM 4.62 40.316 0.083 6.82 3.76 12.34
12/31/2021 8:15:00 AM 4.62 40.316 0.083 6.89 4.2 12.37
12/31/2021 8:30:00 AM 4.63 40.334 0.083 6.81 3.81 12.42
12/31/2021 8:45:00 AM 4.65 40.37 0.083 6.82 3.86 12.46
12/31/2021 9:00:00 AM 4.68 40.424 0.083 6.83 3.81 12.51
12/31/2021 9:15:00 AM 4.71 40.478 0.083 6.89 3.57 12.56
12/31/2021 9:30:00 AM 4.74 40.532 0.083 6.89 3.69 12.61
12/31/2021 9:45:00 AM 4.78 40.604 0.083 6.85 3.7 12.64
12/31/2021 10:00:00 AM 4.82 40.676 0.083 6.88 3.74 12.68
12/31/2021 10:15:00 AM 4.86 40.748 0.082 6.9 3.67 12.71
12/31/2021 10:30:00 AM 4.91 40.838 0.082 6.9 3.58 12.75
12/31/2021 10:45:00 AM 4.98 40.964 0.082 6.91 3.96 12.78
12/31/2021 11:00:00 AM 5.07 41.126 0.082 6.93 4.17 12.82
12/31/2021 11:15:00 AM 5.15 41.27 0.082 6.96 4.08 12.85
12/31/2021 11:30:00 AM 5.25 41.45 0.082 6.97 3.97 12.88
12/31/2021 11:45:00 AM 5.35 41.63 0.082 6.98 3.99 12.89
12/31/2021 12:00:00 PM 5.43 41.774 0.082 6.98 4.07 12.89
12/31/2021 12:15:00 PM 5.47 41.846 0.082 6.99 3.91 12.87
12/31/2021 12:30:00 PM 5.55 41.99 0.082 7 3.89 12.89
12/31/2021 12:45:00 PM 5.6 42.08 0.082 7 3.94 12.89
12/31/2021 1:00:00 PM 5.71 42.278 0.082 7.02 3.85 12.89
12/31/2021 1:15:00 PM 5.8 42.44 0.082 7.04 3.82 12.9
12/31/2021 1:30:00 PM 5.89 42.602 0.081 7.06 3.74 12.89
12/31/2021 1:45:00 PM 5.91 42.638 0.081 7.07 3.67 12.89
12/31/2021 2:00:00 PM 5.96 42.728 0.081 7.09 3.68 12.89
12/31/2021 2:15:00 PM 5.97 42.746 0.081 7.06 3.87 12.88
12/31/2021 2:30:00 PM 5.99 42.782 0.081 7.09 3.78 12.87
12/31/2021 2:45:00 PM 6 42.8 0.081 7.1 3.67 12.85
12/31/2021 3:00:00 PM 6.01 42.818 0.081 7.11 3.78 12.83
12/31/2021 3:15:00 PM 6.03 42.854 0.081 7.1 3.72 12.81
12/31/2021 3:30:00 PM 6.04 42.872 0.081 7.11 3.67 12.79
12/31/2021 3:45:00 PM 6.05 42.89 0.081 7.11 3.73 12.76
12/31/2021 4:00:00 PM 6.05 42.89 0.08 7.11 3.86 12.7
12/31/2021 4:15:00 PM 6.05 42.89 0.08 7.11 3.89 12.64
12/31/2021 4:30:00 PM 6.04 42.872 0.08 7.09 3.65 12.57
12/31/2021 4:45:00 PM 6.04 42.872 0.08 7.07 3.69 12.49
12/31/2021 5:00:00 PM 6.03 42.854 0.08 7.07 3.67 12.43
12/31/2021 5:15:00 PM 6.03 42.854 0.08 7.05 3.7 12.37
12/31/2021 5:30:00 PM 6.01 42.818 0.08 7.02 3.81 12.33
12/31/2021 5:45:00 PM 5.99 42.782 0.08 7.02 3.77 12.29
12/31/2021 6:00:00 PM 5.96 42.728 0.08 6.97 3.85 12.26
12/31/2021 6:15:00 PM 5.92 42.656 0.08 6.99 3.73 12.23
12/31/2021 6:30:00 PM 5.88 42.584 0.08 6.98 3.75 12.21
12/31/2021 6:45:00 PM 5.84 42.512 0.081 6.95 3.86 12.18
12/31/2021 7:00:00 PM 5.8 42.44 0.081 6.97 3.69 12.16
12/31/2021 7:15:00 PM 5.76 42.368 0.08 6.9 3.81 12.14
12/31/2021 7:30:00 PM 5.73 42.314 0.08 6.93 3.68 12.12
12/31/2021 7:45:00 PM 5.7 42.26 0.08 6.95 3.79 12.11
12/31/2021 8:00:00 PM 5.67 42.206 0.08 6.92 3.72 12.09
12/31/2021 8:15:00 PM 5.64 42.152 0.08 6.91 3.72 12.08
12/31/2021 8:30:00 PM 5.61 42.098 0.08 6.88 3.81 12.07
12/31/2021 8:45:00 PM 5.57 42.026 0.081 6.91 3.87 12.07
12/31/2021 9:00:00 PM 5.55 41.99 0.081 6.9 3.79 12.06
12/31/2021 9:15:00 PM 5.52 41.936 0.081 6.89 3.72 12.05
12/31/2021 9:30:00 PM 5.51 41.918 0.081 6.89 3.69 12.04
12/31/2021 9:45:00 PM 5.49 41.882 0.081 6.89 3.8 12.05
12/31/2021 10:00:00 PM 5.47 41.846 0.081 6.88 3.73 12.04
12/31/2021 10:15:00 PM 5.46 41.828 0.081 6.89 3.73 12.04
12/31/2021 10:30:00 PM 5.45 41.81 0.081 6.87 3.83 12.03
12/31/2021 10:45:00 PM 5.43 41.774 0.081 6.88 3.78 12.03
12/31/2021 11:00:00 PM 5.42 41.756 0.081 6.87 3.78 12.03
12/31/2021 11:15:00 PM 5.41 41.738 0.081 6.87 3.65 12.04
12/31/2021 11:30:00 PM 5.4 41.72 0.081 6.86 3.63 12.03
12/31/2021 11:45:00 PM 5.4 41.72 0.081 6.85 3.72 12.03
1/1/2022 12:00:00 AM 5.39 41.702 0.081 6.86 3.68 12.04
1/1/2022 12:15:00 AM 5.38 41.684 0.081 6.84 3.76 12.04
1/1/2022 12:30:00 AM 5.38 41.684 0.081 6.88 4.13 12.04
1/1/2022 12:45:00 AM 5.37 41.666 0.081 6.87 3.96 12.04
1/1/2022 1:00:00 AM 5.37 41.666 0.081 6.9 3.61 12.04
1/1/2022 1:15:00 AM 5.37 41.666 0.081 6.88 3.63 12.03
1/1/2022 1:30:00 AM 5.37 41.666 0.081 6.91 3.73 12.04
1/1/2022 1:45:00 AM 5.38 41.684 0.081 6.89 3.76 12.03
1/1/2022 2:00:00 AM 5.38 41.684 0.081 6.85 3.72 12.03
1/1/2022 2:15:00 AM 5.39 41.702 0.081 6.88 3.62 12.03
1/1/2022 2:30:00 AM 5.39 41.702 0.081 6.88 3.74 12.02
1/1/2022 2:45:00 AM 5.4 41.72 0.081 6.84 3.75 12.02
1/1/2022 3:00:00 AM 5.41 41.738 0.081 6.91 3.74 12.02
1/1/2022 3:15:00 AM 5.42 41.756 0.081 6.91 3.69 12.02
1/1/2022 3:30:00 AM 5.43 41.774 0.081 6.9 3.66 12.01
1/1/2022 3:45:00 AM 5.44 41.792 0.081 6.87 3.74 12
1/1/2022 4:00:00 AM 5.45 41.81 0.081 6.88 3.71 12
1/1/2022 4:15:00 AM 5.46 41.828 0.081 6.88 3.78 11.99
1/1/2022 4:30:00 AM 5.47 41.846 0.081 6.87 3.77 11.99
1/1/2022 4:45:00 AM 5.48 41.864 0.081 6.87 3.9 11.98
1/1/2022 5:00:00 AM 5.49 41.882 0.081 6.85 3.77 11.98
1/1/2022 5:15:00 AM 5.51 41.918 0.081 6.91 3.7 11.98
1/1/2022 5:30:00 AM 5.52 41.936 0.078 6.91 3.37 11.96
1/1/2022 5:45:00 AM 5.54 41.972 0.081 6.88 3.79 11.96
1/1/2022 6:00:00 AM 5.56 42.008 0.081 6.86 3.64 11.95
1/1/2022 6:15:00 AM 5.58 42.044 0.081 6.89 3.68 11.94
1/1/2022 6:30:00 AM 5.59 42.062 0.081 6.9 3.85 11.93
1/1/2022 6:45:00 AM 5.61 42.098 0.081 6.9 3.66 11.92
1/1/2022 7:00:00 AM 5.63 42.134 0.081 6.87 3.73 11.92
1/1/2022 7:15:00 AM 5.64 42.152 0.081 6.9 3.79 11.91
1/1/2022 7:30:00 AM 5.66 42.188 0.081 6.9 3.64 11.9
1/1/2022 7:45:00 AM 5.68 42.224 0.081 6.84 3.49 11.9
1/1/2022 8:00:00 AM 5.69 42.242 0.081 6.89 3.62 11.9
1/1/2022 8:15:00 AM 5.71 42.278 0.081 6.93 3.83 11.91
1/1/2022 8:30:00 AM 5.73 42.314 0.081 6.92 3.66 11.94
1/1/2022 8:45:00 AM 5.75 42.35 0.081 6.92 3.59 11.97
1/1/2022 9:00:00 AM 5.77 42.386 0.081 6.93 3.54 11.99
1/1/2022 9:15:00 AM 5.79 42.422 0.081 6.93 3.51 12.02
1/1/2022 9:30:00 AM 5.81 42.458 0.081 6.93 3.62 12.06
1/1/2022 9:45:00 AM 5.83 42.494 0.081 6.95 3.42 12.08
1/1/2022 10:00:00 AM 5.85 42.53 0.081 6.91 3.45 12.11
1/1/2022 10:15:00 AM 5.87 42.566 0.081 6.92 3.44 12.15
1/1/2022 10:30:00 AM 5.91 42.638 0.081 6.92 3.41 12.18
1/1/2022 10:45:00 AM 5.94 42.692 0.081 6.96 3.34 12.23
1/1/2022 11:00:00 AM 5.98 42.764 0.08 6.97 3.36 12.27
1/1/2022 11:15:00 AM 6.01 42.818 0.08 6.98 3.54 12.29
1/1/2022 11:30:00 AM 6.03 42.854 0.08 6.98 3.38 12.28
1/1/2022 11:45:00 AM 6.05 42.89 0.08 7.01 3.36 12.29
1/1/2022 12:00:00 PM 6.07 42.926 0.08 6.98 3.34 12.29
1/1/2022 12:15:00 PM 6.09 42.962 0.08 7.03 3.45 12.31
1/1/2022 12:30:00 PM 6.13 43.034 0.08 7.04 3.33 12.34
1/1/2022 12:45:00 PM 6.18 43.124 0.08 7.02 3.31 12.36
1/1/2022 1:00:00 PM 6.21 43.178 0.08 7.05 3.28 12.37
1/1/2022 1:15:00 PM 6.27 43.286 0.08 7.05 3.48 12.41
1/1/2022 1:30:00 PM 6.34 43.412 0.08 7.06 3.28 12.45
1/1/2022 1:45:00 PM 6.42 43.556 0.08 7.07 3.47 12.48
1/1/2022 2:00:00 PM 6.45 43.61 0.079 7.06 3.32 12.47
1/1/2022 2:15:00 PM 6.49 43.682 0.079 7.09 3.36 12.47
1/1/2022 2:30:00 PM 6.52 43.736 0.079 7.03 3.3 12.46
1/1/2022 2:45:00 PM 6.53 43.754 0.079 7.02 3.42 12.44
1/1/2022 3:00:00 PM 6.55 43.79 0.079 7.07 3.38 12.42
1/1/2022 3:15:00 PM 6.57 43.826 0.079 7.08 3.36 12.41
1/1/2022 3:30:00 PM 6.59 43.862 0.079 7.07 3.45 12.37
1/1/2022 3:45:00 PM 6.6 43.88 0.079 7.05 3.26 12.33
1/1/2022 4:00:00 PM 6.61 43.898 0.079 7.02 3.5 12.29
1/1/2022 4:15:00 PM 6.61 43.898 0.079 7.03 3.4 12.23
1/1/2022 4:30:00 PM 6.61 43.898 0.079 7.03 3.4 12.17
1/1/2022 4:45:00 PM 6.6 43.88 0.079 7 3.42 12.12
1/1/2022 5:00:00 PM 6.6 43.88 0.08 6.99 3.43 12.07
1/1/2022 5:15:00 PM 6.59 43.862 0.08 6.99 3.41 12.02
1/1/2022 5:30:00 PM 6.59 43.862 0.079 6.99 3.49 11.98
1/1/2022 5:45:00 PM 6.59 43.862 0.08 6.94 3.56 11.95
1/1/2022 6:00:00 PM 6.59 43.862 0.08 6.96 3.41 11.91
1/1/2022 6:15:00 PM 6.59 43.862 0.08 6.97 3.43 11.88
1/1/2022 6:30:00 PM 6.58 43.844 0.08 6.95 3.51 11.85
1/1/2022 6:45:00 PM 6.58 43.844 0.08 6.93 3.57 11.83
1/1/2022 7:00:00 PM 6.58 43.844 0.08 6.96 3.52 11.8
1/1/2022 7:15:00 PM 6.57 43.826 0.08 6.91 3.45 11.78
1/1/2022 7:30:00 PM 6.57 43.826 0.08 6.93 3.53 11.75
1/1/2022 7:45:00 PM 6.57 43.826 0.08 6.93 3.57 11.74
1/1/2022 8:00:00 PM 6.57 43.826 0.08 6.92 3.8 11.72
1/1/2022 8:15:00 PM 6.56 43.808 0.08 6.93 3.71 11.7
1/1/2022 8:30:00 PM 6.56 43.808 0.08 6.92 3.64 11.69
1/1/2022 8:45:00 PM 6.55 43.79 0.08 6.89 3.9 11.67
1/1/2022 9:00:00 PM 6.55 43.79 0.08 6.92 3.78 11.65
1/1/2022 9:15:00 PM 6.54 43.772 0.08 6.9 3.89 11.64
1/1/2022 9:30:00 PM 6.54 43.772 0.08 6.89 3.96 11.63
1/1/2022 9:45:00 PM 6.53 43.754 0.08 6.87 3.85 11.62
1/1/2022 10:00:00 PM 6.53 43.754 0.08 6.9 3.87 11.61
1/1/2022 10:15:00 PM 6.53 43.754 0.08 6.85 3.83 11.6
1/1/2022 10:30:00 PM 6.52 43.736 0.08 6.88 3.85 11.59
1/1/2022 10:45:00 PM 6.52 43.736 0.08 6.89 3.83 11.59
1/1/2022 11:00:00 PM 6.51 43.718 0.08 6.85 3.62 11.58
1/1/2022 11:15:00 PM 6.51 43.718 0.08 6.88 3.89 11.58
1/1/2022 11:30:00 PM 6.51 43.718 0.08 6.9 3.82 11.57
1/1/2022 11:45:00 PM 6.5 43.7 0.08 6.87 3.8 11.58
1/2/2022 12:00:00 AM 6.49 43.682 0.081 6.87 4.14 11.58
1/2/2022 12:15:00 AM 6.47 43.646 0.081 6.88 4.48 11.58
1/2/2022 12:30:00 AM 6.45 43.61 0.081 6.9 4.17 11.58
1/2/2022 12:45:00 AM 6.43 43.574 0.081 6.85 4.32 11.59
1/2/2022 1:00:00 AM 6.41 43.538 0.081 6.83 4.48 11.59
1/2/2022 1:15:00 AM 6.39 43.502 0.081 6.89 5.05 11.59
1/2/2022 1:30:00 AM 6.38 43.484 0.081 6.88 4.74 11.59
1/2/2022 1:45:00 AM 6.36 43.448 0.081 6.87 4.07 11.6
1/2/2022 2:00:00 AM 6.34 43.412 0.081 6.88 4.39 11.6
1/2/2022 2:15:00 AM 6.32 43.376 0.081 6.85 4.22 11.61
1/2/2022 2:30:00 AM 6.3 43.34 0.081 6.87 4.13 11.61
1/2/2022 2:45:00 AM 6.27 43.286 0.081 6.91 4.23 11.62
1/2/2022 3:00:00 AM 6.24 43.232 0.082 6.85 4.02 11.63
1/2/2022 3:15:00 AM 6.22 43.196 0.082 6.87 4 11.63
1/2/2022 3:30:00 AM 6.19 43.142 0.082 6.89 3.96 11.65
1/2/2022 3:45:00 AM 6.17 43.106 0.082 6.89 4.19 11.66
1/2/2022 4:00:00 AM 6.14 43.052 0.082 6.9 4.05 11.66
1/2/2022 4:15:00 AM 6.11 42.998 0.082 6.85 4.09 11.67
1/2/2022 4:30:00 AM 6.09 42.962 0.082 6.86 3.95 11.68
1/2/2022 4:45:00 AM 6.06 42.908 0.082 6.9 4.06 11.69
1/2/2022 5:00:00 AM 6.02 42.836 0.083 6.86 4.14 11.7
1/2/2022 5:15:00 AM 5.99 42.782 0.082 6.83 4.07 11.71
1/2/2022 5:30:00 AM 5.96 42.728 0.083 6.88 4.16 11.72
1/2/2022 5:45:00 AM 5.93 42.674 0.083 6.89 4.03 11.73
1/2/2022 6:00:00 AM 5.89 42.602 0.083 6.9 4.03 11.74
1/2/2022 6:15:00 AM 5.86 42.548 0.083 6.89 4.18 11.75
1/2/2022 6:30:00 AM 5.83 42.494 0.083 6.89 4.42 11.75
1/2/2022 6:45:00 AM 5.8 42.44 0.083 6.88 4.38 11.77
1/2/2022 7:00:00 AM 5.76 42.368 0.083 6.87 4.5 11.77
1/2/2022 7:15:00 AM 5.73 42.314 0.083 6.91 4.61 11.78
1/2/2022 7:30:00 AM 5.7 42.26 0.083 6.88 4.58 11.79
1/2/2022 7:45:00 AM 5.66 42.188 0.084 6.87 4.39 11.81
1/2/2022 8:00:00 AM 5.63 42.134 0.083 6.92 4.59 11.84
1/2/2022 8:15:00 AM 5.59 42.062 0.083 6.93 4.51 11.87
1/2/2022 8:30:00 AM 5.56 42.008 0.083 6.92 4.7 11.9
1/2/2022 8:45:00 AM 5.53 41.954 0.083 6.87 4.48 11.95
1/2/2022 9:00:00 AM 5.5 41.9 0.083 6.94 4.44 12
1/2/2022 9:15:00 AM 5.48 41.864 0.083 6.91 4.31 12.07
1/2/2022 9:30:00 AM 5.45 41.81 0.083 6.95 4.28 12.13
1/2/2022 9:45:00 AM 5.44 41.792 0.083 6.96 4.36 12.2
1/2/2022 10:00:00 AM 5.42 41.756 0.083 6.9 4.39 12.25
1/2/2022 10:15:00 AM 5.4 41.72 0.083 6.95 4.23 12.29
1/2/2022 10:30:00 AM 5.38 41.684 0.083 6.98 4.34 12.33
1/2/2022 10:45:00 AM 5.34 41.612 0.083 6.99 4.27 12.37
1/2/2022 11:00:00 AM 5.31 41.558 0.083 6.99 4.22 12.4
1/2/2022 11:15:00 AM 5.29 41.522 0.083 6.9 4.25 12.44
1/2/2022 11:30:00 AM 5.26 41.468 0.083 6.95 4.33 12.47
1/2/2022 11:45:00 AM 5.22 41.396 0.083 6.97 4.09 12.5
1/2/2022 12:00:00 PM 5.19 41.342 0.083 7 4.09 12.54
1/2/2022 12:15:00 PM 5.17 41.306 0.083 6.98 4.05 12.58
1/2/2022 12:30:00 PM 5.14 41.252 0.083 7 3.95 12.6
1/2/2022 12:45:00 PM 5.11 41.198 0.083 7.01 3.97 12.62
1/2/2022 1:00:00 PM 5.08 41.144 0.083 7.04 4.04 12.64
1/2/2022 1:15:00 PM 5.05 41.09 0.083 7.02 4.05 12.67
1/2/2022 1:30:00 PM 5.02 41.036 0.083 7.04 3.93 12.7
1/2/2022 1:45:00 PM 4.98 40.964 0.083 7.06 3.91 12.73
1/2/2022 2:00:00 PM 4.96 40.928 0.082 7.05 3.96 12.76
1/2/2022 2:15:00 PM 4.93 40.874 0.082 7.03 3.92 12.79
1/2/2022 2:30:00 PM 4.9 40.82 0.082 7.08 3.85 12.8
1/2/2022 2:45:00 PM 4.86 40.748 0.082 7 3.76 12.81
1/2/2022 3:00:00 PM 4.82 40.676 0.082 7.06 3.85 12.82
1/2/2022 3:15:00 PM 4.77 40.586 0.082 7.02 3.93 12.81
1/2/2022 3:30:00 PM 4.71 40.478 0.082 7.07 4.02 12.79
1/2/2022 3:45:00 PM 4.66 40.388 0.082 7.06 3.97 12.77
1/2/2022 4:00:00 PM 4.61 40.298 0.082 7.08 3.96 12.75
1/2/2022 4:15:00 PM 4.56 40.208 0.082 7 3.97 12.73
1/2/2022 4:30:00 PM 4.51 40.118 0.082 7.01 3.94 12.71
1/2/2022 4:45:00 PM 4.46 40.028 0.082 7.01 3.93 12.69
1/2/2022 5:00:00 PM 4.41 39.938 0.082 7.03 3.98 12.68
1/2/2022 5:15:00 PM 4.36 39.848 0.082 6.96 3.83 12.67
1/2/2022 5:30:00 PM 4.31 39.758 0.082 6.97 4.04 12.66
1/2/2022 5:45:00 PM 4.25 39.65 0.082 6.98 3.78 12.65
1/2/2022 6:00:00 PM 4.19 39.542 0.082 6.97 3.99 12.67
1/2/2022 6:15:00 PM 4.13 39.434 0.082 6.96 3.77 12.66
1/2/2022 6:30:00 PM 4.08 39.344 0.082 6.98 3.91 12.66
1/2/2022 6:45:00 PM 4.04 39.272 0.082 6.94 3.78 12.66
1/2/2022 7:00:00 PM 3.98 39.164 0.082 6.99 3.84 12.66
1/2/2022 7:15:00 PM 3.93 39.074 0.082 6.99 3.8 12.67
1/2/2022 7:30:00 PM 3.88 38.984 0.082 6.97 3.95 12.67
1/2/2022 7:45:00 PM 3.83 38.894 0.082 6.98 3.78 12.68
1/2/2022 8:00:00 PM 3.79 38.822 0.082 6.95 3.76 12.68
1/2/2022 8:15:00 PM 3.74 38.732 0.082 6.97 3.89 12.68
1/2/2022 8:30:00 PM 3.69 38.642 0.082 6.93 3.76 12.69
1/2/2022 8:45:00 PM 3.64 38.552 0.082 6.97 3.78 12.7
1/2/2022 9:00:00 PM 3.6 38.48 0.082 6.97 3.87 12.71
1/2/2022 9:15:00 PM 3.55 38.39 0.082 6.95 3.86 12.73
1/2/2022 9:30:00 PM 3.51 38.318 0.082 6.96 3.87 12.74
1/2/2022 9:45:00 PM 3.46 38.228 0.082 6.95 3.81 12.74
1/2/2022 10:00:00 PM 3.41 38.138 0.082 6.89 3.65 12.76
1/2/2022 10:15:00 PM 3.36 38.048 0.082 6.91 3.91 12.77
1/2/2022 10:30:00 PM 3.31 37.958 0.082 6.94 3.68 12.78
1/2/2022 10:45:00 PM 3.26 37.868 0.082 6.9 3.69 12.8
1/2/2022 11:00:00 PM 3.22 37.796 0.082 6.92 3.61 12.81
1/2/2022 11:15:00 PM 3.17 37.706 0.082 6.91 3.82 12.83
1/2/2022 11:30:00 PM 3.13 37.634 0.082 6.94 3.64 12.83
1/2/2022 11:45:00 PM 3.08 37.544 0.082 6.93 3.81 12.85
1/3/2022 12:00:00 AM 3.03 37.454 0.082 6.94 3.76 12.88
1/3/2022 12:15:00 AM 2.98 37.364 0.082 6.92 3.63 12.9
1/3/2022 12:30:00 AM 2.94 37.292 0.082 6.88 3.66 12.91
1/3/2022 12:45:00 AM 2.89 37.202 0.082 6.93 3.73 12.93
1/3/2022 1:00:00 AM 2.85 37.13 0.082 6.94 3.69 12.96
1/3/2022 1:15:00 AM 2.8 37.04 0.082 6.87 3.56 12.97
1/3/2022 1:30:00 AM 2.75 36.95 0.082 6.95 3.63 12.99
1/3/2022 1:45:00 AM 2.7 36.86 0.082 6.95 3.58 13.01
1/3/2022 2:00:00 AM 2.64 36.752 0.082 6.92 3.6 13.03
1/3/2022 2:15:00 AM 2.59 36.662 0.082 6.87 3.72 13.05
1/3/2022 2:30:00 AM 2.55 36.59 0.082 6.95 3.56 13.06
1/3/2022 2:45:00 AM 2.51 36.518 0.082 6.9 3.6 13.08
1/3/2022 3:00:00 AM 2.47 36.446 0.082 6.93 3.62 13.1
1/3/2022 3:15:00 AM 2.42 36.356 0.082 6.9 3.61 13.11
1/3/2022 3:30:00 AM 2.39 36.302 0.082 6.93 3.53 13.13
1/3/2022 3:45:00 AM 2.35 36.23 0.082 6.92 3.64 13.15
1/3/2022 4:00:00 AM 2.31 36.158 0.082 6.88 3.55 13.17
1/3/2022 4:15:00 AM 2.28 36.104 0.082 6.86 3.56 13.18
1/3/2022 4:30:00 AM 2.24 36.032 0.082 6.95 3.51 13.21
1/3/2022 4:45:00 AM 2.2 35.96 0.082 6.93 3.45 13.22
1/3/2022 5:00:00 AM 2.16 35.888 0.082 6.94 3.55 13.24
1/3/2022 5:15:00 AM 2.12 35.816 0.082 6.87 3.53 13.25
1/3/2022 5:30:00 AM 2.08 35.744 0.082 6.93 3.5 13.27
1/3/2022 5:45:00 AM 2.04 35.672 0.082 6.9 3.49 13.28
1/3/2022 6:00:00 AM 2.01 35.618 0.082 6.93 3.46 13.3
1/3/2022 6:15:00 AM 1.97 35.546 0.082 6.92 3.47 13.3
1/3/2022 6:30:00 AM 1.94 35.492 0.082 6.86 3.5 13.32
1/3/2022 6:45:00 AM 1.9 35.42 0.082 6.88 3.55 13.33
1/3/2022 7:00:00 AM 1.86 35.348 0.082 6.91 3.52 13.34
1/3/2022 7:15:00 AM 1.82 35.276 0.082 6.87 3.61 13.36
1/3/2022 7:30:00 AM 1.79 35.222 0.082 6.93 3.49 13.38
1/3/2022 7:45:00 AM 1.75 35.15 0.082 6.89 3.46 13.39
1/3/2022 8:00:00 AM 1.73 35.114 0.082 6.88 3.4 13.41
1/3/2022 8:15:00 AM 1.7 35.06 0.082 6.88 3.74 13.44
1/3/2022 8:30:00 AM 1.68 35.024 0.082 6.9 3.57 13.48
1/3/2022 8:45:00 AM 1.65 34.97 0.082 6.93 3.44 13.52
1/3/2022 9:00:00 AM 1.62 34.916 0.082 6.9 3.46 13.58
1/3/2022 9:15:00 AM 1.59 34.862 0.082 6.96 3.34 13.63
1/3/2022 9:30:00 AM 1.57 34.826 0.082 6.94 3.32 13.68
1/3/2022 9:45:00 AM 1.55 34.79 0.082 6.98 3.31 13.74
1/3/2022 10:00:00 AM 1.53 34.754 0.082 6.9 3.31 13.8
1/3/2022 10:15:00 AM 1.52 34.736 0.082 6.98 3.29 13.84
1/3/2022 10:30:00 AM 1.51 34.718 0.082 6.99 3.35 13.89
1/3/2022 10:45:00 AM 1.51 34.718 0.082 6.93 3.32 13.93
1/3/2022 11:00:00 AM 1.5 34.7 0.082 7.02 3.29 13.97
1/3/2022 11:15:00 AM 1.5 34.7 0.081 6.97 3.51 14.02
1/3/2022 11:30:00 AM 1.51 34.718 0.081 6.97 3.27 14.05
1/3/2022 11:45:00 AM 1.52 34.736 0.081 7.04 3.26 14.09
1/3/2022 12:00:00 PM 1.53 34.754 0.081 7.04 3.31 14.12
1/3/2022 12:15:00 PM 1.53 34.754 0.081 7.05 3.25 14.14
1/3/2022 12:30:00 PM 1.54 34.772 0.081 7.05 3.3 14.17
1/3/2022 12:45:00 PM 1.55 34.79 0.081 7.06 3.34 14.2
1/3/2022 1:00:00 PM 1.56 34.808 0.081 7.03 3.33 14.21
1/3/2022 1:15:00 PM 1.56 34.808 0.081 7.01 3.45 14.22
1/3/2022 1:30:00 PM 1.56 34.808 0.081 7.08 3.39 14.24
1/3/2022 1:45:00 PM 1.56 34.808 0.081 7.06 3.31 14.25
1/3/2022 2:00:00 PM 1.56 34.808 0.081 7.08 3.27 14.27
1/3/2022 2:15:00 PM 1.55 34.79 0.081 7.08 3.2 14.28
1/3/2022 2:30:00 PM 1.54 34.772 0.081 7.06 3.31 14.29
1/3/2022 2:45:00 PM 1.54 34.772 0.081 7.06 3.32 14.3
1/3/2022 3:00:00 PM 1.51 34.718 0.081 6.97 3.21 14.3
1/3/2022 3:15:00 PM 1.48 34.664 0.081 6.96 3.28 14.31
1/3/2022 3:30:00 PM 1.43 34.574 0.08 7.07 3.32 14.29
1/3/2022 3:45:00 PM 1.38 34.484 0.081 7.08 3.35 14.3
1/3/2022 4:00:00 PM 1.34 34.412 0.081 7.07 3.24 14.29
1/3/2022 4:15:00 PM 1.29 34.322 0.081 7.06 3.31 14.29
1/3/2022 4:30:00 PM 1.24 34.232 0.081 7.06 3.39 14.26
1/3/2022 4:45:00 PM 1.19 34.142 0.081 7.03 3.32 14.23
1/3/2022 5:00:00 PM 1.14 34.052 0.081 7.06 3.3 14.2
1/3/2022 5:15:00 PM 1.08 33.944 0.081 6.98 3.22 14.17
1/3/2022 5:30:00 PM 1.02 33.836 0.081 7.02 3.23 14.13
1/3/2022 5:45:00 PM 0.95 33.71 0.081 6.94 3.26 14.12
1/3/2022 6:00:00 PM 0.88 33.584 0.081 6.97 3.32 14.11
1/3/2022 6:15:00 PM 0.83 33.494 0.081 7 3.32 14.1
1/3/2022 6:30:00 PM 0.77 33.386 0.081 7.01 3.45 14.1
1/3/2022 6:45:00 PM 0.72 33.296 0.081 6.93 3.47 14.1
1/3/2022 7:00:00 PM 0.68 33.224 0.081 7 3.35 14.09
1/3/2022 7:15:00 PM 0.64 33.152 0.081 7 3.25 14.09
1/3/2022 7:30:00 PM 0.6 33.08 0.081 6.99 3.36 14.08
1/3/2022 7:45:00 PM 0.56 33.008 0.081 7.01 3.39 14.08
1/3/2022 8:00:00 PM 0.51 32.918 0.081 6.93 3.42 14.08
1/3/2022 8:15:00 PM 0.47 32.846 0.081 6.97 3.41 14.09
1/3/2022 8:30:00 PM 0.41 32.738 0.081 6.96 3.4 14.1
1/3/2022 8:45:00 PM 0.37 32.666 0.081 6.95 3.37 14.1
1/3/2022 9:00:00 PM 0.34 32.612 0.081 6.97 3.62 14.11
1/3/2022 9:15:00 PM 0.32 32.576 0.081 6.95 3.55 14.11
1/3/2022 9:30:00 PM 0.3 32.54 0.081 6.94 3.5 14.11
1/3/2022 9:45:00 PM 0.29 32.522 0.081 6.92 3.47 14.11
1/3/2022 10:00:00 PM 0.27 32.486 0.081 6.96 3.43 14.11
1/3/2022 10:15:00 PM 0.25 32.45 0.081 6.93 3.48 14.12
1/3/2022 10:30:00 PM 0.23 32.414 0.081 6.92 3.43 14.12
1/3/2022 10:45:00 PM 0.21 32.378 0.082 6.91 3.49 14.12
1/3/2022 11:00:00 PM 0.2 32.36 0.082 6.97 3.43 14.12
1/3/2022 11:15:00 PM 0.19 32.342 0.082 6.89 3.33 14.13
1/3/2022 11:30:00 PM 0.19 32.342 0.082 6.97 3.5 14.12
1/3/2022 11:45:00 PM 0.18 32.324 0.082 6.89 3.46 14.13
1/4/2022 12:00:00 AM 0.17 32.306 0.082 6.92 3.49 14.12
1/4/2022 12:15:00 AM 0.16 32.288 0.083 6.86 3.45 14.12
1/4/2022 12:30:00 AM 0.14 32.252 0.083 6.87 3.59 14.13
1/4/2022 12:45:00 AM 0.12 32.216 0.083 6.91 3.43 14.13
1/4/2022 1:00:00 AM 0.09 32.162 0.083 6.95 3.62 14.14
1/4/2022 1:15:00 AM 0.07 32.126 0.083 6.96 3.61 14.14
1/4/2022 1:30:00 AM 0.05 32.09 0.083 6.94 3.57 14.15
1/4/2022 1:45:00 AM 0.03 32.054 0.083 6.92 3.46 14.16
1/4/2022 2:00:00 AM 0 32 0.083 6.92 3.43 14.17
1/4/2022 2:15:00 AM -0.01 31.982 0.083 6.95 3.46 14.17
1/4/2022 2:30:00 AM -0.03 31.946 0.083 6.91 3.44 14.18
1/4/2022 2:45:00 AM -0.04 31.928 0.083 6.9 3.44 14.18
1/4/2022 3:00:00 AM -0.05 31.91 0.083 6.95 3.32 14.2
1/4/2022 3:15:00 AM -0.07 31.874 0.083 6.94 3.4 14.2
1/4/2022 3:30:00 AM -0.08 31.856 0.083 6.89 3.47 14.2
1/4/2022 3:45:00 AM -0.09 31.838 0.084 6.91 3.41 14.21
1/4/2022 4:00:00 AM -0.09 31.838 0.083 6.93 3.34 14.21
1/4/2022 4:15:00 AM -0.09 31.838 0.083 6.96 4.46 14.22
1/4/2022 4:30:00 AM -0.08 31.856 0.083 6.86 3.03 14.22
1/4/2022 4:45:00 AM -0.07 31.874 0.084 6.95 3.21 14.22
1/4/2022 5:00:00 AM -0.07 31.874 0.084 6.96 3.12 14.22
1/4/2022 5:15:00 AM -0.06 31.892 0.085 6.96 3 14.21
1/4/2022 5:30:00 AM -0.06 31.892 0.084 6.97 3 14.21
1/4/2022 5:45:00 AM -0.06 31.892 0.085 6.96 3.46 14.2
1/4/2022 6:00:00 AM -0.06 31.892 0.085 6.99 3.45 14.19
1/4/2022 6:15:00 AM -0.05 31.91 0.085 6.96 3.41 14.19
1/4/2022 6:30:00 AM -0.03 31.946 0.085 6.95 3.4 14.19
1/4/2022 6:45:00 AM -0.01 31.982 0.085 6.85 3.36 14.19
1/4/2022 7:00:00 AM 0 32 0.085 6.93 3.28 14.18
1/4/2022 7:15:00 AM 0.01 32.018 0.085 6.92 3.35 14.18
1/4/2022 7:30:00 AM 0.02 32.036 0.085 6.83 3.23 14.19
1/4/2022 7:45:00 AM 0.02 32.036 0.085 6.88 3.27 14.19
1/4/2022 8:00:00 AM 0.03 32.054 0.085 6.88 3.33 14.21
1/4/2022 8:15:00 AM 0.04 32.072 0.085 6.94 3.33 14.24
1/4/2022 8:30:00 AM 0.05 32.09 0.085 6.87 3.3 14.28
1/4/2022 8:45:00 AM 0.06 32.108 0.084 6.94 3.45 14.32
1/4/2022 9:00:00 AM 0.06 32.108 0.085 6.89 3.33 14.36
1/4/2022 9:15:00 AM 0.07 32.126 0.084 6.93 3.27 14.39
1/4/2022 9:30:00 AM 0.08 32.144 0.085 6.88</